Provisional Data: Bowman Creek near Noxen, PA


Please select a monitoring station.
Please select start date.
Please select start date.

Toggle Unit: C/F Toggle Unit: C/F
Sample Time Temperature (C) Temperature (F) Specific Conductivity (mS/cm) pH   Turbidity (NTU+) DO (mg/L)
1/12/2021 12:00:00 AM 0.8 33.44 0.047 6.91 24.1 14.02
1/12/2021 12:15:00 AM 0.78 33.404 0.047 6.91 23.14 14.03
1/12/2021 12:30:00 AM 0.77 33.386 0.047 6.91 23.56 14.03
1/12/2021 12:45:00 AM 0.73 33.314 0.047 6.91 24.21 14.05
1/12/2021 1:00:00 AM 0.71 33.278 0.045 6.83 23.83 14.05
1/12/2021 1:15:00 AM 0.67 33.206 0.047 6.91 23.25 14.06
1/12/2021 1:30:00 AM 0.66 33.188 0.045 6.86 21.15 14.07
1/12/2021 1:45:00 AM 0.63 33.134 0.047 6.81 23.6 14.07
1/12/2021 2:00:00 AM 0.61 33.098 0.047 6.91 24.47 14.08
1/12/2021 2:15:00 AM 0.59 33.062 0.047 6.91 23.29 14.09
1/12/2021 2:30:00 AM 0.58 33.044 0.045 6.86 20.67 14.1
1/12/2021 2:45:00 AM 0.57 33.026 0.047 6.9 22.56 14.1
1/12/2021 3:00:00 AM 0.57 33.026 0.047 6.79 22.11 14.1
1/12/2021 3:15:00 AM 0.55 32.99 0.047 6.89 21.94 14.1
1/12/2021 3:30:00 AM 0.54 32.972 0.047 6.86 22.83 14.11
1/12/2021 3:45:00 AM 0.53 32.954 0.044 6.85 20.54 14.11
1/12/2021 4:00:00 AM 0.52 32.936 0.046 6.88 23.7 14.1
1/12/2021 4:15:00 AM 0.52 32.936 0.046 6.88 22.97 14.1
1/12/2021 4:30:00 AM 0.51 32.918 0.046 6.82 21.82 14.11
1/12/2021 4:45:00 AM 0.51 32.918 0.046 6.87 22.32 14.1
1/12/2021 5:00:00 AM 0.53 32.954 0.044 6.82 20.86 14.09
1/12/2021 5:15:00 AM 0.54 32.972 0.047 6.89 23.1 14.09
1/12/2021 5:30:00 AM 0.55 32.99 0.047 6.89 22.63 14.09
1/12/2021 5:45:00 AM 0.55 32.99 0.047 6.89 21.74 14.07
1/12/2021 6:00:00 AM 0.54 32.972 0.048 6.89 21.63 14.08
1/12/2021 6:15:00 AM 0.53 32.954 0.048 6.77 22.5 14.08
1/12/2021 6:30:00 AM 0.53 32.954 0.048 6.88 21.77 14.08
1/12/2021 6:45:00 AM 0.51 32.918 0.048 6.89 22.14 14.09
1/12/2021 7:00:00 AM 0.5 32.9 0.048 6.78 21.97 14.08
1/12/2021 7:15:00 AM 0.5 32.9 0.048 6.88 23.46 14.08
1/12/2021 7:30:00 AM 0.49 32.882 0.046 6.85 20.31 14.09
1/12/2021 7:45:00 AM 0.49 32.882 0.048 6.89 22.44 14.1
1/12/2021 8:00:00 AM 0.49 32.882 0.048 6.89 35.33 14.09
1/12/2021 8:15:00 AM 0.52 32.936 0.046 6.82 22.58 14.1
1/12/2021 8:30:00 AM 0.54 32.972 0.048 6.8 21.49 14.11
1/12/2021 8:45:00 AM 0.58 33.044 0.046 6.88 20.44 14.1
1/12/2021 9:00:00 AM 0.64 33.152 0.049 6.89 20.89 14.09
1/12/2021 9:15:00 AM 0.69 33.242 0.048 6.9 20.48 14.07
1/12/2021 9:30:00 AM 0.72 33.296 0.049 6.9 20.35 14.07
1/12/2021 9:45:00 AM 0.78 33.404 0.048 6.86 20.86 14.06
1/12/2021 10:00:00 AM 0.88 33.584 0.047 6.86 20.11 14.04
1/12/2021 10:15:00 AM 0.93 33.674 0.049 6.91 21.6 14.04
1/12/2021 10:30:00 AM 1.01 33.818 0.049 6.91 21.89 14.02
1/12/2021 10:45:00 AM 1.09 33.962 0.047 6.88 20.84 14
1/12/2021 11:00:00 AM 1.2 34.16 0.05 6.92 21.64 13.97
1/12/2021 11:15:00 AM 1.27 34.286 0.05 6.93 21.68 13.96
1/12/2021 11:30:00 AM 1.33 34.394 0.048 6.91 25.52 13.94
1/12/2021 11:45:00 AM 1.4 34.52 0.051 6.94 22.11 13.93
1/12/2021 12:00:00 PM 1.44 34.592 0.051 6.96 20.85 13.93
1/12/2021 12:15:00 PM 1.43 34.574 0.049 6.92 21.98 13.94
1/12/2021 12:30:00 PM 1.39 34.502 0.049 6.96 20.74 13.94
1/12/2021 12:45:00 PM 1.35 34.43 0.052 6.99 22.15 13.97
1/12/2021 1:00:00 PM 1.34 34.412 0.05 6.95 20.38 13.96
1/12/2021 1:15:00 PM 1.32 34.376 0.052 6.99 21.26 13.97
1/12/2021 1:30:00 PM 1.33 34.394 0.05 6.95 21.88 13.96
1/12/2021 1:45:00 PM 1.36 34.448 0.053 7 21.99 13.94
1/12/2021 2:00:00 PM 1.48 34.664 0.05 6.95 20.05 13.87
1/12/2021 2:15:00 PM 1.58 34.844 0.052 6.99 21.81 13.83
1/12/2021 2:30:00 PM 1.66 34.988 0.05 6.96 22.16 13.8
1/12/2021 2:45:00 PM 1.71 35.078 0.051 6.99 21.31 13.77
1/12/2021 3:00:00 PM 1.73 35.114 0.05 6.98 22.66 13.75
1/12/2021 3:15:00 PM 1.75 35.15 0.048 6.93 21.17 13.75
1/12/2021 3:30:00 PM 1.75 35.15 0.048 6.96 22.73 13.73
1/12/2021 3:45:00 PM 1.74 35.132 0.046 6.91 22.28 13.72
1/12/2021 4:00:00 PM 1.73 35.114 0.047 6.94 22.73 13.71
1/12/2021 4:15:00 PM 1.73 35.114 0.047 6.93 23.02 13.7
1/12/2021 4:30:00 PM 1.72 35.096 0.047 6.93 24.29 13.68
1/12/2021 4:45:00 PM 1.73 35.114 0.047 6.92 22.72 13.66
1/12/2021 5:00:00 PM 1.73 35.114 0.047 6.88 23.5 13.65
1/12/2021 5:15:00 PM 1.74 35.132 0.047 6.93 23.28 13.65
1/12/2021 5:30:00 PM 1.74 35.132 0.046 6.9 21.05 13.64
1/12/2021 5:45:00 PM 1.74 35.132 0.048 6.88 23.7 13.64
1/12/2021 6:00:00 PM 1.74 35.132 0.048 6.93 22.47 13.64
1/12/2021 6:15:00 PM 1.73 35.114 0.045 6.9 26.57 13.64
1/12/2021 6:30:00 PM 1.72 35.096 0.047 6.9 22.73 13.65
1/12/2021 6:45:00 PM 1.71 35.078 0.045 6.91 23.46 13.65
1/12/2021 7:00:00 PM 1.7 35.06 0.045 6.9 25.88 13.65
1/12/2021 7:15:00 PM 1.69 35.042 0.047 6.93 24.13 13.66
1/12/2021 7:30:00 PM 1.68 35.024 0.047 6.92 25.25 13.66
1/12/2021 7:45:00 PM 1.67 35.006 0.044 6.89 25.66 13.68
1/12/2021 8:00:00 PM 1.66 34.988 0.046 6.93 27.31 13.68
1/12/2021 8:15:00 PM 1.66 34.988 0.044 6.89 25.03 13.68
1/12/2021 8:30:00 PM 1.66 34.988 0.045 6.9 26.2 13.68
1/12/2021 8:45:00 PM 1.66 34.988 0.046 6.92 24.45 13.68
1/12/2021 9:00:00 PM 1.66 34.988 0.046 6.92 27.38 13.68
1/12/2021 9:15:00 PM 1.66 34.988 0.046 6.85 28.05 13.68
1/12/2021 9:30:00 PM 1.66 34.988 0.046 6.92 30.16 13.68
1/12/2021 9:45:00 PM 1.66 34.988 0.045 6.89 29.79 13.67
1/12/2021 10:00:00 PM 1.67 35.006 0.046 6.92 26.47 13.67
1/12/2021 10:15:00 PM 1.67 35.006 0.046 6.89 27.82 13.67
1/12/2021 10:30:00 PM 1.67 35.006 0.047 6.91 26.22 13.66
1/12/2021 10:45:00 PM 1.68 35.024 0.047 6.92 24.62 13.66
1/12/2021 11:00:00 PM 1.67 35.006 0.047 6.92 25.22 13.67
1/12/2021 11:15:00 PM 1.69 35.042 0.046 6.88 24.55 13.65
1/12/2021 11:30:00 PM 1.69 35.042 0.047 6.91 23.37 13.65
1/12/2021 11:45:00 PM 1.7 35.06 0.047 6.92 25.41 13.66
1/13/2021 12:00:00 AM 1.7 35.06 0.045 6.89 24.82 13.64
1/13/2021 12:15:00 AM 1.71 35.078 0.047 6.92 25.52 13.64
1/13/2021 12:30:00 AM 1.71 35.078 0.047 6.93 24.75 13.64
1/13/2021 12:45:00 AM 1.72 35.096 0.045 6.88 22.14 13.63
1/13/2021 1:00:00 AM 1.72 35.096 0.045 6.89 22 13.62
1/13/2021 1:15:00 AM 1.72 35.096 0.047 6.93 24.28 13.63
1/13/2021 1:30:00 AM 1.72 35.096 0.048 6.93 23.68 13.63
1/13/2021 1:45:00 AM 1.73 35.114 0.046 6.89 23.33 13.62
1/13/2021 2:00:00 AM 1.73 35.114 0.048 6.93 24.07 13.62
1/13/2021 2:15:00 AM 1.73 35.114 0.048 6.93 25.19 13.63
1/13/2021 2:30:00 AM 1.73 35.114 0.048 6.93 24.47 13.62
1/13/2021 2:45:00 AM 1.73 35.114 0.048 6.92 22.38 13.62
1/13/2021 3:00:00 AM 1.74 35.132 0.048 6.92 22.38 13.61
1/13/2021 3:15:00 AM 1.74 35.132 0.046 6.88 25.31 13.62
1/13/2021 3:30:00 AM 1.74 35.132 0.048 6.93 22.12 13.62
1/13/2021 3:45:00 AM 1.74 35.132 0.048 6.92 22.95 13.61
1/13/2021 4:00:00 AM 1.74 35.132 0.046 6.89 20.52 13.61
1/13/2021 4:15:00 AM 1.73 35.114 0.048 6.92 22.3 13.61
1/13/2021 4:30:00 AM 1.74 35.132 0.048 6.92 22.7 13.6
1/13/2021 4:45:00 AM 1.73 35.114 0.048 6.92 22.81 13.6
1/13/2021 5:00:00 AM 1.74 35.132 0.048 6.93 22.05 13.6
1/13/2021 5:15:00 AM 1.74 35.132 0.048 6.92 21.67 13.6
1/13/2021 5:30:00 AM 1.74 35.132 0.048 6.93 21.21 13.61
1/13/2021 5:45:00 AM 1.73 35.114 0.047 6.88 21.79 13.6
1/13/2021 6:00:00 AM 1.74 35.132 0.046 6.88 21.09 13.61
1/13/2021 6:15:00 AM 1.73 35.114 0.048 6.92 22 13.61
1/13/2021 6:30:00 AM 1.73 35.114 0.046 6.88 23.64 13.6
1/13/2021 6:45:00 AM 1.73 35.114 0.048 6.93 22.53 13.61
1/13/2021 7:00:00 AM 1.73 35.114 0.048 6.92 22.83 13.61
1/13/2021 7:15:00 AM 1.74 35.132 0.048 6.93 22.48 13.6
1/13/2021 7:30:00 AM 1.73 35.114 0.046 6.89 22.46 13.61
1/13/2021 7:45:00 AM 1.74 35.132 0.046 6.89 21.01 13.61
1/13/2021 8:00:00 AM 1.74 35.132 0.046 6.89 23.03 13.61
1/13/2021 8:15:00 AM 1.75 35.15 0.046 6.9 20.04 13.61
1/13/2021 8:30:00 AM 1.76 35.168 0.048 6.93 21.57 13.61
1/13/2021 8:45:00 AM 1.77 35.186 0.048 6.93 21.58 13.62
1/13/2021 9:00:00 AM 1.79 35.222 0.048 6.94 21.94 13.62
1/13/2021 9:15:00 AM 1.81 35.258 0.048 6.93 21.75 13.61
1/13/2021 9:30:00 AM 1.83 35.294 0.048 6.94 21.18 13.63
1/13/2021 9:45:00 AM 1.85 35.33 0.048 6.93 21.55 13.61
1/13/2021 10:00:00 AM 1.86 35.348 0.046 6.91 20.03 13.61
1/13/2021 10:15:00 AM 1.88 35.384 0.048 6.94 22.2 13.6
1/13/2021 10:30:00 AM 1.92 35.456 0.046 6.9 20.69 13.61
1/13/2021 10:45:00 AM 1.95 35.51 0.047 6.91 21.44 13.6
1/13/2021 11:00:00 AM 1.97 35.546 0.048 6.95 21.05 13.59
1/13/2021 11:15:00 AM 2.01 35.618 0.048 6.95 21.69 13.58
1/13/2021 11:30:00 AM 2.04 35.672 0.048 6.94 21.9 13.56
1/13/2021 11:45:00 AM 2.06 35.708 0.048 6.94 22.15 13.55
1/13/2021 12:00:00 PM 2.08 35.744 0.048 6.94 21.11 13.54
1/13/2021 12:15:00 PM 2.11 35.798 0.048 6.95 20.62 13.53
1/13/2021 12:30:00 PM 2.14 35.852 0.048 6.94 21.47 13.51
1/13/2021 12:45:00 PM 2.15 35.87 0.048 6.95 22.27 13.51
1/13/2021 1:00:00 PM 2.18 35.924 0.048 6.95 21.81 13.5
1/13/2021 1:15:00 PM 2.21 35.978 0.048 6.95 21.6 13.48
1/13/2021 1:30:00 PM 2.23 36.014 0.048 6.94 21.03 13.47
1/13/2021 1:45:00 PM 2.26 36.068 0.048 6.95 21.8 13.46
1/13/2021 2:00:00 PM 2.3 36.14 0.048 6.95 21.22 13.46
1/13/2021 2:15:00 PM 2.33 36.194 0.047 6.92 19.99 13.43
1/13/2021 2:30:00 PM 2.37 36.266 0.048 6.95 21.17 13.42
1/13/2021 2:45:00 PM 2.39 36.302 0.047 6.93 22.56 13.39
1/13/2021 3:00:00 PM 2.41 36.338 0.048 6.95 21.88 13.39
1/13/2021 3:15:00 PM 2.42 36.356 0.047 6.92 20.21 13.38
1/13/2021 3:30:00 PM 2.4 36.32 0.048 6.95 21.73 13.37
1/13/2021 3:45:00 PM 2.41 36.338 0.048 6.95 20.8 13.36
1/13/2021 4:00:00 PM 2.4 36.32 0.048 6.95 23.02 13.36
1/13/2021 4:15:00 PM 2.38 36.284 0.048 6.95 22.16 13.36
1/13/2021 4:30:00 PM 2.36 36.248 0.048 6.87 21.55 13.36
1/13/2021 4:45:00 PM 2.35 36.23 0.046 6.93 21.19 13.34
1/13/2021 5:00:00 PM 2.32 36.176 0.046 6.9 19.87 13.34
1/13/2021 5:15:00 PM 2.3 36.14 0.048 6.94 21.01 13.33
1/13/2021 5:30:00 PM 2.27 36.086 0.048 6.94 22.31 13.33
1/13/2021 5:45:00 PM 2.25 36.05 0.049 6.93 21.58 13.33
1/13/2021 6:00:00 PM 2.22 35.996 0.048 6.94 21.35 13.35
1/13/2021 6:15:00 PM 2.19 35.942 0.048 6.93 21.21 13.35
1/13/2021 6:30:00 PM 2.16 35.888 0.048 6.93 21.53 13.36
1/13/2021 6:45:00 PM 2.13 35.834 0.048 6.94 21.66 13.37
1/13/2021 7:00:00 PM 2.11 35.798 0.049 6.93 21.05 13.37
1/13/2021 7:15:00 PM 2.09 35.762 0.049 6.93 21.17 13.39
1/13/2021 7:30:00 PM 2.06 35.708 0.048 6.93 21.68 13.4
1/13/2021 7:45:00 PM 2.04 35.672 0.046 6.91 24.59 13.4
1/13/2021 8:00:00 PM 2.03 35.654 0.049 6.93 21.3 13.41
1/13/2021 8:15:00 PM 2.02 35.636 0.049 6.86 21.16 13.42
1/13/2021 8:30:00 PM 2.01 35.618 0.049 6.93 21.51 13.42
1/13/2021 8:45:00 PM 2.01 35.618 0.049 6.92 22.32 13.41
1/13/2021 9:00:00 PM 2 35.6 0.049 6.93 21.77 13.42
1/13/2021 9:15:00 PM 1.99 35.582 0.049 6.93 22.23 13.42
1/13/2021 9:30:00 PM 1.99 35.582 0.049 6.93 21.28 13.43
1/13/2021 9:45:00 PM 1.98 35.564 0.049 6.93 21.27 13.43
1/13/2021 10:00:00 PM 1.98 35.564 0.046 6.91 19.1 13.43
1/13/2021 10:15:00 PM 1.98 35.564 0.049 6.93 21.42 13.43
1/13/2021 10:30:00 PM 1.98 35.564 0.046 6.88 19.6 13.43
1/13/2021 10:45:00 PM 1.97 35.546 0.049 6.93 20.83 13.43
1/13/2021 11:00:00 PM 1.97 35.546 0.046 6.89 12.6 13.43
1/13/2021 11:15:00 PM 1.97 35.546 0.047 6.9 21.78 13.43
1/13/2021 11:30:00 PM 1.97 35.546 0.046 6.89 19.94 13.42
1/13/2021 11:45:00 PM 1.98 35.564 0.047 6.89 22.13 13.42
1/14/2021 12:00:00 AM 1.97 35.546 0.049 6.92 20.69 13.43
1/14/2021 12:15:00 AM 1.97 35.546 0.047 6.89 19.61 13.42
1/14/2021 12:30:00 AM 1.96 35.528 0.049 6.85 20.69 13.43
1/14/2021 12:45:00 AM 1.97 35.546 0.046 6.91 20.71 13.42
1/14/2021 1:00:00 AM 1.97 35.546 0.046 6.89 21.59 13.43
1/14/2021 1:15:00 AM 1.97 35.546 0.047 6.9 20.03 13.42
1/14/2021 1:30:00 AM 1.97 35.546 0.049 6.93 21.62 13.43
1/14/2021 1:45:00 AM 1.97 35.546 0.046 6.89 20.93 13.42
1/14/2021 2:00:00 AM 1.97 35.546 0.049 6.84 21.66 13.42
1/14/2021 2:15:00 AM 1.97 35.546 0.046 6.91 22.78 13.42
1/14/2021 2:30:00 AM 1.97 35.546 0.049 6.93 21.79 13.42
1/14/2021 2:45:00 AM 1.98 35.564 0.047 6.88 21.47 13.41
1/14/2021 3:00:00 AM 1.98 35.564 0.049 6.93 21.45 13.42
1/14/2021 3:15:00 AM 1.98 35.564 0.048 6.89 20.57 13.42
1/14/2021 3:30:00 AM 1.98 35.564 0.049 6.85 21.45 13.41
1/14/2021 3:45:00 AM 1.99 35.582 0.048 6.91 20.6 13.42
1/14/2021 4:00:00 AM 1.99 35.582 0.049 6.93 22.1 13.41
1/14/2021 4:15:00 AM 1.99 35.582 0.049 6.92 20.44 13.4
1/14/2021 4:30:00 AM 2 35.6 0.049 6.92 21.27 13.39
1/14/2021 4:45:00 AM 2 35.6 0.046 6.89 20.93 13.41
1/14/2021 5:00:00 AM 2.01 35.618 0.047 6.89 20.91 13.39
1/14/2021 5:15:00 AM 2.01 35.618 0.049 6.93 21.85 13.39
1/14/2021 5:30:00 AM 2 35.6 0.049 6.93 21.59 13.41
1/14/2021 5:45:00 AM 2.01 35.618 0.049 6.92 20.92 13.4
1/14/2021 6:00:00 AM 2.02 35.636 0.046 6.89 20.35 13.39
1/14/2021 6:15:00 AM 2.02 35.636 0.049 6.92 21.31 13.4
1/14/2021 6:30:00 AM 2.03 35.654 0.049 6.92 20.78 13.4
1/14/2021 6:45:00 AM 2.03 35.654 0.049 6.93 21.38 13.41
1/14/2021 7:00:00 AM 2.03 35.654 0.049 6.85 20.64 13.4
1/14/2021 7:15:00 AM 2.03 35.654 0.049 6.93 20.59 13.4
1/14/2021 7:30:00 AM 2.03 35.654 0.049 6.92 20.98 13.4
1/14/2021 7:45:00 AM 2.03 35.654 0.046 6.89 19.05 13.4
1/14/2021 8:00:00 AM 2.03 35.654 0.046 6.88 21.57 13.4
1/14/2021 8:15:00 AM 2.02 35.636 0.049 6.93 20.49 13.4
1/14/2021 8:30:00 AM 2 35.6 0.048 6.93 20.61 13.41
1/14/2021 8:45:00 AM 1.98 35.564 0.049 6.93 20.53 13.42
1/14/2021 9:00:00 AM 1.94 35.492 0.048 6.93 20.55 13.43
1/14/2021 9:15:00 AM 1.91 35.438 0.046 6.9 20.8 13.45
1/14/2021 9:30:00 AM 1.92 35.456 0.046 6.9 19.58 13.46
1/14/2021 9:45:00 AM 1.93 35.474 0.048 6.94 20.08 13.47
1/14/2021 10:00:00 AM 1.95 35.51 0.048 6.94 20.59 13.49
1/14/2021 10:15:00 AM 1.99 35.582 0.046 6.89 18.9 13.48
1/14/2021 10:30:00 AM 2.05 35.69 0.048 6.94 21.51 13.48
1/14/2021 10:45:00 AM 2.11 35.798 0.048 6.89 20.3 13.48
1/14/2021 11:00:00 AM 2.17 35.906 0.048 6.94 20.46 13.47
1/14/2021 11:15:00 AM 2.23 36.014 0.048 6.94 20.96 13.45
1/14/2021 11:30:00 AM 2.3 36.14 0.048 6.94 20.48 13.44
1/14/2021 11:45:00 AM 2.36 36.248 0.048 6.94 20.74 13.42
1/14/2021 12:00:00 PM 2.41 36.338 0.046 6.91 19.45 13.39
1/14/2021 12:15:00 PM 2.45 36.41 0.048 6.94 20.67 13.38
1/14/2021 12:30:00 PM 2.51 36.518 0.048 6.95 21.26 13.36
1/14/2021 12:45:00 PM 2.57 36.626 0.046 6.92 19.91 13.33
1/14/2021 1:00:00 PM 2.62 36.716 0.046 6.91 19.9 13.32
1/14/2021 1:15:00 PM 2.71 36.878 0.049 6.95 20.97 13.3
1/14/2021 1:30:00 PM 2.78 37.004 0.049 6.95 21.42 13.26
1/14/2021 1:45:00 PM 2.84 37.112 0.049 6.95 20.98 13.24
1/14/2021 2:00:00 PM 2.88 37.184 0.049 6.96 21.38 13.23
1/14/2021 2:15:00 PM 2.91 37.238 0.049 6.95 21 13.2
1/14/2021 2:30:00 PM 2.95 37.31 0.049 6.95 21.15 13.18
1/14/2021 2:45:00 PM 2.97 37.346 0.05 6.95 20.89 13.17
1/14/2021 3:00:00 PM 3 37.4 0.048 6.91 20.18 13.15
1/14/2021 3:15:00 PM 3.02 37.436 0.05 6.95 21.32 13.13
1/14/2021 3:30:00 PM 3.03 37.454 0.05 6.96 20.93 13.12
1/14/2021 3:45:00 PM 3.04 37.472 0.05 6.95 20.3 13.1
1/14/2021 4:00:00 PM 3.04 37.472 0.05 6.95 20.9 13.1
1/14/2021 4:15:00 PM 3.04 37.472 0.05 6.95 21.51 13.08
1/14/2021 4:30:00 PM 3.03 37.454 0.05 6.95 22.01 13.08
1/14/2021 4:45:00 PM 3.03 37.454 0.05 6.95 21.16 13.05
1/14/2021 5:00:00 PM 3.01 37.418 0.05 6.94 22.34 13.06
1/14/2021 5:15:00 PM 3 37.4 0.05 6.9 21.23 13.05
1/14/2021 5:30:00 PM 2.99 37.382 0.048 6.91 22.42 13.04
1/14/2021 5:45:00 PM 2.97 37.346 0.05 6.95 21.09 13.06
1/14/2021 6:00:00 PM 2.97 37.346 0.05 6.86 20.61 13.05
1/14/2021 6:15:00 PM 2.96 37.328 0.047 6.91 20.22 13.05
1/14/2021 6:30:00 PM 2.95 37.31 0.048 6.9 19.49 13.06
1/14/2021 6:45:00 PM 2.94 37.292 0.047 6.91 19.82 13.06
1/14/2021 7:00:00 PM 2.93 37.274 0.05 6.94 21.73 13.06
1/14/2021 7:15:00 PM 2.92 37.256 0.05 6.94 22.09 13.06
1/14/2021 7:30:00 PM 2.92 37.256 0.05 6.94 21.73 13.08
1/14/2021 7:45:00 PM 2.91 37.238 0.05 6.95 21.09 13.08
1/14/2021 8:00:00 PM 2.9 37.22 0.05 6.94 20.59 13.08
1/14/2021 8:15:00 PM 2.9 37.22 0.05 6.94 20.93 13.08
1/14/2021 8:30:00 PM 2.9 37.22 0.05 6.94 20.65 13.09
1/14/2021 8:45:00 PM 2.9 37.22 0.05 6.94 21.06 13.08
1/14/2021 9:00:00 PM 2.9 37.22 0.05 6.94 21.66 13.09
1/14/2021 9:15:00 PM 2.89 37.202 0.05 6.93 21.91 13.1
1/14/2021 9:30:00 PM 2.88 37.184 0.05 6.95 20.19 13.1
1/14/2021 9:45:00 PM 2.89 37.202 0.05 6.94 20.93 13.09
1/14/2021 10:00:00 PM 2.88 37.184 0.05 6.87 21.37 13.09
1/14/2021 10:15:00 PM 2.88 37.184 0.05 6.95 20.92 13.1
1/14/2021 10:30:00 PM 2.88 37.184 0.05 6.94 20.98 13.11
1/14/2021 10:45:00 PM 2.87 37.166 0.05 6.94 21.61 13.1
1/14/2021 11:00:00 PM 2.87 37.166 0.05 6.95 21.54 13.11
1/14/2021 11:15:00 PM 2.87 37.166 0.05 6.94 21.86 13.11
1/14/2021 11:30:00 PM 2.87 37.166 0.05 6.94 21.82 13.11
1/14/2021 11:45:00 PM 2.86 37.148 0.05 6.94 22.26 13.12
1/15/2021 12:00:00 AM 2.85 37.13 0.05 6.95 21.36 13.12
1/15/2021 12:15:00 AM 2.85 37.13 0.05 6.94 21.43 13.11
1/15/2021 12:30:00 AM 2.85 37.13 0.05 6.95 21.83 13.12
1/15/2021 12:45:00 AM 2.85 37.13 0.05 6.94 22.01 13.11
1/15/2021 1:00:00 AM 2.84 37.112 0.05 6.94 21.96 13.13
1/15/2021 1:15:00 AM 2.84 37.112 0.05 6.94 22.44 13.11
1/15/2021 1:30:00 AM 2.83 37.094 0.05 6.94 21.57 13.12
1/15/2021 1:45:00 AM 2.83 37.094 0.05 6.94 22.11 13.12
1/15/2021 2:00:00 AM 2.81 37.058 0.05 6.94 20.85 13.12
1/15/2021 2:15:00 AM 2.79 37.022 0.05 6.94 21.14 13.12
1/15/2021 2:30:00 AM 2.77 36.986 0.05 6.94 21.08 13.14
1/15/2021 2:45:00 AM 2.75 36.95 0.05 6.94 21.75 13.15
1/15/2021 3:00:00 AM 2.74 36.932 0.05 6.93 21.4 13.16
1/15/2021 3:15:00 AM 2.72 36.896 0.05 6.94 21.98 13.17
1/15/2021 3:30:00 AM 2.71 36.878 0.05 6.94 22.46 13.17
1/15/2021 3:45:00 AM 2.69 36.842 0.05 6.94 21.41 13.18
1/15/2021 4:00:00 AM 2.68 36.824 0.05 6.94 21.22 13.18
1/15/2021 4:15:00 AM 2.67 36.806 0.05 6.94 20.96 13.18
1/15/2021 4:30:00 AM 2.66 36.788 0.05 6.93 21.01 13.19
1/15/2021 4:45:00 AM 2.66 36.788 0.048 6.91 21.08 13.18
1/15/2021 5:00:00 AM 2.64 36.752 0.05 6.95 21.21 13.2
1/15/2021 5:15:00 AM 2.63 36.734 0.048 6.9 21.09 13.18
1/15/2021 5:30:00 AM 2.61 36.698 0.049 6.91 20.54 13.2
1/15/2021 5:45:00 AM 2.6 36.68 0.048 6.87 22.24 13.2
1/15/2021 6:00:00 AM 2.58 36.644 0.048 6.92 20.42 13.21
1/15/2021 6:15:00 AM 2.56 36.608 0.048 6.91 20.65 13.21
1/15/2021 6:30:00 AM 2.54 36.572 0.048 6.93 20.34 13.22
1/15/2021 6:45:00 AM 2.52 36.536 0.048 6.91 19.37 13.23
1/15/2021 7:00:00 AM 2.49 36.482 0.05 6.95 21.09 13.24
1/15/2021 7:15:00 AM 2.45 36.41 0.048 6.91 21.06 13.25
1/15/2021 7:30:00 AM 2.41 36.338 0.05 6.94 20.38 13.26
1/15/2021 7:45:00 AM 2.38 36.284 0.05 6.94 21.16 13.28
1/15/2021 8:00:00 AM 2.34 36.212 0.05 6.94 21.74 13.31
1/15/2021 8:15:00 AM 2.33 36.194 0.05 6.95 20.96 13.32
1/15/2021 8:30:00 AM 2.32 36.176 0.048 6.91 20.2 13.34
1/15/2021 8:45:00 AM 2.31 36.158 0.048 6.91 21.4 13.36
1/15/2021 9:00:00 AM 2.31 36.158 0.05 6.95 21.73 13.37
1/15/2021 9:15:00 AM 2.32 36.176 0.05 6.95 20.87 13.39
1/15/2021 9:30:00 AM 2.33 36.194 0.048 6.92 20.77 13.39
1/15/2021 9:45:00 AM 2.36 36.248 0.048 6.91 21.39 13.39
1/15/2021 10:00:00 AM 2.4 36.32 0.05 6.95 22.09 13.4
1/15/2021 10:15:00 AM 2.45 36.41 0.05 6.94 20.71 13.4
1/15/2021 10:30:00 AM 2.49 36.482 0.05 6.96 21.55 13.39
1/15/2021 10:45:00 AM 2.55 36.59 0.05 6.96 21.32 13.37
1/15/2021 11:00:00 AM 2.61 36.698 0.047 6.91 19.58 13.36
1/15/2021 11:15:00 AM 2.67 36.806 0.049 6.92 20.49 13.35
1/15/2021 11:30:00 AM 2.75 36.95 0.05 6.96 20.88 13.32
1/15/2021 11:45:00 AM 2.84 37.112 0.05 6.94 21.2 13.28
1/15/2021 12:00:00 PM 2.92 37.256 0.05 6.96 21.85 13.27
1/15/2021 12:15:00 PM 2.99 37.382 0.05 6.97 20.79 13.23
1/15/2021 12:30:00 PM 3.05 37.49 0.05 6.96 21.69 13.21
1/15/2021 12:45:00 PM 3.12 37.616 0.05 6.95 21.12 13.18
1/15/2021 1:00:00 PM 3.16 37.688 0.05 6.96 21.56 13.15
1/15/2021 1:15:00 PM 3.21 37.778 0.047 6.92 20.31 13.13
1/15/2021 1:30:00 PM 3.24 37.832 0.05 6.97 21.46 13.11
1/15/2021 1:45:00 PM 3.27 37.886 0.05 6.97 21.51 13.09
1/15/2021 2:00:00 PM 3.29 37.922 0.05 6.96 21.51 13.06
1/15/2021 2:15:00 PM 3.29 37.922 0.047 6.93 21.33 13.04
1/15/2021 2:30:00 PM 3.3 37.94 0.049 6.89 20.71 13.02
1/15/2021 2:45:00 PM 3.3 37.94 0.048 6.93 20.1 13
1/15/2021 3:00:00 PM 3.3 37.94 0.047 6.93 21.7 13
1/15/2021 3:15:00 PM 3.29 37.922 0.048 6.81 20.3 12.99
1/15/2021 3:30:00 PM 3.28 37.904 0.05 6.96 21.6 12.99
1/15/2021 3:45:00 PM 3.27 37.886 0.05 6.96 21.67 12.97
1/15/2021 4:00:00 PM 3.26 37.868 0.048 6.91 19.86 12.96
1/15/2021 4:15:00 PM 3.25 37.85 0.048 6.93 20.42 12.97
1/15/2021 4:30:00 PM 3.25 37.85 0.048 6.91 19.88 12.96
1/15/2021 4:45:00 PM 3.24 37.832 0.05 6.95 20.73 12.96
1/15/2021 5:00:00 PM 3.24 37.832 0.048 6.91 19.93 12.95
1/15/2021 5:15:00 PM 3.24 37.832 0.049 6.91 20.76 12.93
1/15/2021 5:30:00 PM 3.24 37.832 0.048 6.91 20.61 12.95
1/15/2021 5:45:00 PM 3.24 37.832 0.05 6.94 21.34 12.94
1/15/2021 6:00:00 PM 3.24 37.832 0.048 6.93 22.02 12.94
1/15/2021 6:15:00 PM 3.25 37.85 0.05 6.96 21.36 12.94
1/15/2021 6:30:00 PM 3.25 37.85 0.048 6.92 21.11 12.93
1/15/2021 6:45:00 PM 3.26 37.868 0.05 6.91 20.43 12.94
1/15/2021 7:00:00 PM 3.27 37.886 0.048 6.94 20.43 12.92
1/15/2021 7:15:00 PM 3.27 37.886 0.051 6.96 21.31 12.92
1/15/2021 7:30:00 PM 3.29 37.922 0.051 6.96 21.1 12.92
1/15/2021 7:45:00 PM 3.29 37.922 0.051 6.97 20.18 12.92
1/15/2021 8:00:00 PM 3.3 37.94 0.051 6.96 20.71 12.91
1/15/2021 8:15:00 PM 3.31 37.958 0.051 6.97 21.48 12.92
1/15/2021 8:30:00 PM 3.31 37.958 0.051 6.97 21.37 12.91
1/15/2021 8:45:00 PM 3.33 37.994 0.051 6.96 20.88 12.9
1/15/2021 9:00:00 PM 3.33 37.994 0.051 6.96 20.87 12.9
1/15/2021 9:15:00 PM 3.34 38.012 0.051 6.96 21.29 12.89
1/15/2021 9:30:00 PM 3.34 38.012 0.051 6.97 20.88 12.89
1/15/2021 9:45:00 PM 3.35 38.03 0.051 6.97 20.71 12.89
1/15/2021 10:00:00 PM 3.35 38.03 0.049 6.91 20.77 12.87
1/15/2021 10:15:00 PM 3.36 38.048 0.05 6.94 22.33 12.88
1/15/2021 10:30:00 PM 3.36 38.048 0.051 6.97 20.77 12.88
1/15/2021 10:45:00 PM 3.36 38.048 0.051 6.97 21.2 12.87
1/15/2021 11:00:00 PM 3.37 38.066 0.052 6.97 21.24 12.88
1/15/2021 11:15:00 PM 3.37 38.066 0.051 6.94 21.4 12.87
1/15/2021 11:30:00 PM 3.37 38.066 0.052 6.97 21.47 12.88
1/15/2021 11:45:00 PM 3.37 38.066 0.051 6.98 21.87 12.88
1/16/2021 12:00:00 AM 3.37 38.066 0.051 6.98 22.7 12.88
1/16/2021 12:15:00 AM 3.37 38.066 0.052 6.98 21.51 12.88
1/16/2021 12:30:00 AM 3.35 38.03 0.052 6.99 22.92 12.89
1/16/2021 12:45:00 AM 3.35 38.03 0.052 6.99 22.16 12.89
1/16/2021 1:00:00 AM 3.32 37.976 0.053 6.91 22.58 12.9
1/16/2021 1:15:00 AM 3.31 37.958 0.054 7.01 23.18 12.91
1/16/2021 1:30:00 AM 3.28 37.904 0.056 7.02 22.95 12.93
1/16/2021 1:45:00 AM 3.25 37.85 0.06 7.04 25.44 12.94
1/16/2021 2:00:00 AM 3.2 37.76 0.065 7.07 27.15 12.97
1/16/2021 2:15:00 AM 3.16 37.688 0.067 7.09 29.45 12.99
1/16/2021 2:30:00 AM 3.13 37.634 0.068 7.09 28.94 13
1/16/2021 2:45:00 AM 3.11 37.598 0.068 7.09 32.17 13.01
1/16/2021 3:00:00 AM 3.1 37.58 0.067 7.09 33.18 13.02
1/16/2021 3:15:00 AM 3.07 37.526 0.066 7.09 44.73 13.03
1/16/2021 3:30:00 AM 3.05 37.49 0.065 7.08 36.17 13.04
1/16/2021 3:45:00 AM 3.02 37.436 0.064 7.08 35.66 13.05
1/16/2021 4:00:00 AM 2.99 37.382 0.063 7.07 36 13.07
1/16/2021 4:15:00 AM 2.96 37.328 0.062 7.07 33.31 13.08
1/16/2021 4:30:00 AM 2.92 37.256 0.061 7.07 32.42 13.1
1/16/2021 4:45:00 AM 2.88 37.184 0.06 7.06 41.53 13.12
1/16/2021 5:00:00 AM 2.84 37.112 0.058 7.05 38.73 13.13
1/16/2021 5:15:00 AM 2.8 37.04 0.056 7.04 61.7 13.16
1/16/2021 5:30:00 AM 2.77 36.986 0.054 7.03 38.55 13.18
1/16/2021 5:45:00 AM 2.73 36.914 0.053 7.02 53.85 13.19
1/16/2021 6:00:00 AM 2.7 36.86 0.051 7.01 62.24 13.21
1/16/2021 6:15:00 AM 2.67 36.806 0.05 7 60.34 13.21
1/16/2021 6:30:00 AM 2.66 36.788 0.048 6.99 60.68 13.22
1/16/2021 6:45:00 AM 2.63 36.734 0.047 6.98 63.49 13.23
1/16/2021 7:00:00 AM 2.61 36.698 0.044 6.92 60.17 13.24
1/16/2021 7:15:00 AM 2.59 36.662 0.044 6.91 80.76 13.25
1/16/2021 7:30:00 AM 2.57 36.626 0.044 6.95 84.78 13.25
1/16/2021 7:45:00 AM 2.56 36.608 0.044 6.95 94.56 13.25
1/16/2021 8:00:00 AM 2.55 36.59 0.043 6.94 79.43 13.25
1/16/2021 8:15:00 AM 2.55 36.59 0.043 6.91 67.92 13.26
1/16/2021 8:30:00 AM 2.54 36.572 0.042 6.92 111.38 13.26
1/16/2021 8:45:00 AM 2.54 36.572 0.04 6.87 86.37 13.26
1/16/2021 9:00:00 AM 2.55 36.59 0.041 6.88 194.29 13.26
1/16/2021 9:15:00 AM 2.56 36.608 0.04 6.82 86.23 13.26
1/16/2021 9:30:00 AM 2.57 36.626 0.04 6.85 86.82 13.26
1/16/2021 9:45:00 AM 2.59 36.662 0.04 6.83 95.99 13.25
1/16/2021 10:00:00 AM 2.61 36.698 0.04 6.83 72.15 13.24
1/16/2021 10:15:00 AM 2.63 36.734 0.04 6.82 78.94 13.23
1/16/2021 10:30:00 AM 2.65 36.77 0.04 6.86 63.77 13.23
1/16/2021 10:45:00 AM 2.67 36.806 0.042 6.91 54.74 13.23
1/16/2021 11:00:00 AM 2.67 36.806 0.042 6.8 74.77 13.22
1/16/2021 11:15:00 AM 2.69 36.842 0.042 6.91 72.84 13.21
1/16/2021 11:30:00 AM 2.73 36.914 0.041 6.89 47.07 13.2
1/16/2021 11:45:00 AM 2.77 36.986 0.042 6.92 65.58 13.19
1/16/2021 12:00:00 PM 2.79 37.022 0.043 6.92 51.75 13.18
1/16/2021 12:15:00 PM 2.82 37.076 0.043 6.91 83.25 13.17
1/16/2021 12:30:00 PM 2.84 37.112 0.043 6.92 46.41 13.15
1/16/2021 12:45:00 PM 2.84 37.112 0.043 6.92 57.03 13.15
1/16/2021 1:00:00 PM 2.89 37.202 0.043 6.92 57.58 13.15
1/16/2021 1:15:00 PM 2.91 37.238 0.041 6.89 81.08 13.13
1/16/2021 1:30:00 PM 2.9 37.22 0.043 6.92 73.43 13.13
1/16/2021 1:45:00 PM 2.93 37.274 0.043 6.87 51.63 13.12
1/16/2021 2:00:00 PM 2.95 37.31 0.043 6.92 39.03 13.11
1/16/2021 2:15:00 PM 2.97 37.346 0.041 6.86 53.13 13.11
1/16/2021 2:30:00 PM 3 37.4 0.042 6.87 41.3 13.1
1/16/2021 2:45:00 PM 3.05 37.49 0.043 6.93 59.87 13.08
1/16/2021 3:00:00 PM 3.03 37.454 0.043 6.92 41.58 13.06
1/16/2021 3:15:00 PM 3.03 37.454 0.043 6.92 46.63 13.06
1/16/2021 3:30:00 PM 3.05 37.49 0.043 6.91 57.32 13.05
1/16/2021 3:45:00 PM 3.05 37.49 0.041 6.88 45.61 13.05
1/16/2021 4:00:00 PM 3.03 37.454 0.043 6.92 37.54 13.05
1/16/2021 4:15:00 PM 3.01 37.418 0.041 6.86 35.46 13.06
1/16/2021 4:30:00 PM 2.98 37.364 0.042 6.88 45.55 13.06
1/16/2021 4:45:00 PM 2.96 37.328 0.041 6.87 35.98 13.06
1/16/2021 5:00:00 PM 2.92 37.256 0.043 6.91 32.04 13.06
1/16/2021 5:15:00 PM 2.89 37.202 0.043 6.9 44.54 13.07
1/16/2021 5:30:00 PM 2.85 37.13 0.043 6.9 33.57 13.08
1/16/2021 5:45:00 PM 2.82 37.076 0.043 6.9 44.6 13.09
1/16/2021 6:00:00 PM 2.78 37.004 0.042 6.89 48.73 13.1
1/16/2021 6:15:00 PM 2.74 36.932 0.042 6.89 36.82 13.11
1/16/2021 6:30:00 PM 2.71 36.878 0.042 6.89 39.32 13.12
1/16/2021 6:45:00 PM 2.68 36.824 0.042 6.89 45.61 13.13
1/16/2021 7:00:00 PM 2.65 36.77 0.042 6.89 37.57 13.14
1/16/2021 7:15:00 PM 2.63 36.734 0.04 6.86 48.49 13.16
1/16/2021 7:30:00 PM 2.6 36.68 0.041 6.84 35.51 13.15
1/16/2021 7:45:00 PM 2.58 36.644 0.042 6.88 40.9 13.17
1/16/2021 8:00:00 PM 2.56 36.608 0.042 6.79 40.45 13.18
1/16/2021 8:15:00 PM 2.53 36.554 0.04 6.86 52.13 13.18
1/16/2021 8:30:00 PM 2.51 36.518 0.042 6.88 32.89 13.19
1/16/2021 8:45:00 PM 2.48 36.464 0.042 6.88 39.99 13.2
1/16/2021 9:00:00 PM 2.45 36.41 0.042 6.89 39.87 13.21
1/16/2021 9:15:00 PM 2.42 36.356 0.042 6.88 32.99 13.22
1/16/2021 9:30:00 PM 2.39 36.302 0.04 6.84 31.33 13.23
1/16/2021 9:45:00 PM 2.37 36.266 0.042 6.88 41.15 13.24
1/16/2021 10:00:00 PM 2.34 36.212 0.04 6.83 28.88 13.25
1/16/2021 10:15:00 PM 2.31 36.158 0.042 6.88 33.78 13.25
1/16/2021 10:30:00 PM 2.29 36.122 0.042 6.88 27.94 13.27
1/16/2021 10:45:00 PM 2.26 36.068 0.042 6.88 33.39 13.28
1/16/2021 11:00:00 PM 2.24 36.032 0.042 6.82 34.07 13.29
1/16/2021 11:15:00 PM 2.21 35.978 0.042 6.88 36.36 13.29
1/16/2021 11:30:00 PM 2.19 35.942 0.041 6.88 32.71 13.3
1/16/2021 11:45:00 PM 2.16 35.888 0.041 6.88 40.97 13.32
1/17/2021 12:00:00 AM 2.14 35.852 0.041 6.88 28.7 13.32
1/17/2021 12:15:00 AM 2.11 35.798 0.041 6.87 30.17 13.33
1/17/2021 12:30:00 AM 2.08 35.744 0.041 6.88 41.2 13.35
1/17/2021 12:45:00 AM 2.06 35.708 0.042 6.88 27.48 13.35
1/17/2021 1:00:00 AM 2.04 35.672 0.041 6.88 26.45 13.36
1/17/2021 1:15:00 AM 2.02 35.636 0.04 6.82 29.21 13.37
1/17/2021 1:30:00 AM 1.99 35.582 0.041 6.84 31.02 13.38
1/17/2021 1:45:00 AM 1.98 35.564 0.042 6.88 41.75 13.39
1/17/2021 2:00:00 AM 1.97 35.546 0.042 6.88 31.85 13.4
1/17/2021 2:15:00 AM 1.97 35.546 0.042 6.86 37.58 13.4
1/17/2021 2:30:00 AM 1.97 35.546 0.04 6.84 25.92 13.41
1/17/2021 2:45:00 AM 1.97 35.546 0.042 6.87 29.35 13.41
1/17/2021 3:00:00 AM 1.97 35.546 0.04 6.83 31.05 13.41
1/17/2021 3:15:00 AM 1.97 35.546 0.042 6.88 27.97 13.41
1/17/2021 3:30:00 AM 1.97 35.546 0.042 6.88 25.65 13.41
1/17/2021 3:45:00 AM 1.98 35.564 0.042 6.88 27.08 13.41
1/17/2021 4:00:00 AM 1.98 35.564 0.042 6.88 28.02 13.41
1/17/2021 4:15:00 AM 1.99 35.582 0.042 6.87 29.33 13.41
1/17/2021 4:30:00 AM 1.99 35.582 0.042 6.88 27.89 13.42
1/17/2021 4:45:00 AM 1.99 35.582 0.042 6.87 28.81 13.42
1/17/2021 5:00:00 AM 1.99 35.582 0.04 6.83 29.32 13.41
1/17/2021 5:15:00 AM 1.97 35.546 0.04 6.84 33.86 13.41
1/17/2021 5:30:00 AM 1.96 35.528 0.042 6.87 28.3 13.42
1/17/2021 5:45:00 AM 1.97 35.546 0.04 6.82 27.36 13.41
1/17/2021 6:00:00 AM 1.96 35.528 0.042 6.88 26.88 13.42
1/17/2021 6:15:00 AM 1.93 35.474 0.042 6.88 27.12 13.42
1/17/2021 6:30:00 AM 1.92 35.456 0.04 6.83 26.73 13.44
1/17/2021 6:45:00 AM 1.92 35.456 0.04 6.83 29.74 13.44
1/17/2021 7:00:00 AM 1.91 35.438 0.042 6.79 29.06 13.44
1/17/2021 7:15:00 AM 1.9 35.42 0.042 6.87 28.08 13.45
1/17/2021 7:30:00 AM 1.9 35.42 0.04 6.84 25.3 13.45
1/17/2021 7:45:00 AM 1.9 35.42 0.042 6.82 26.12 13.45
1/17/2021 8:00:00 AM 1.9 35.42 0.042 6.88 38.56 13.46
1/17/2021 8:15:00 AM 1.9 35.42 0.042 6.88 27.62 13.47
1/17/2021 8:30:00 AM 1.91 35.438 0.042 6.88 25.29 13.47
1/17/2021 8:45:00 AM 1.92 35.456 0.04 6.84 27.21 13.48
1/17/2021 9:00:00 AM 1.94 35.492 0.04 6.83 27.35 13.49
1/17/2021 9:15:00 AM 1.96 35.528 0.04 6.83 27.4 13.48
1/17/2021 9:30:00 AM 1.98 35.564 0.042 6.88 25.14 13.48
1/17/2021 9:45:00 AM 1.99 35.582 0.042 6.88 26.41 13.48
1/17/2021 10:00:00 AM 2.02 35.636 0.042 6.88 26.86 13.47
1/17/2021 10:15:00 AM 2.05 35.69 0.042 6.78 26.64 13.47
1/17/2021 10:30:00 AM 2.09 35.762 0.04 6.86 36.57 13.46
1/17/2021 10:45:00 AM 2.15 35.87 0.042 6.89 26.45 13.46
1/17/2021 11:00:00 AM 2.19 35.942 0.042 6.89 28.05 13.46
1/17/2021 11:15:00 AM 2.25 36.05 0.042 6.89 27.24 13.43
1/17/2021 11:30:00 AM 2.32 36.176 0.042 6.89 26.52 13.42
1/17/2021 11:45:00 AM 2.41 36.338 0.042 6.89 26.69 13.39
1/17/2021 12:00:00 PM 2.5 36.5 0.04 6.84 28.25 13.36
1/17/2021 12:15:00 PM 2.52 36.536 0.042 6.89 27.39 13.34
1/17/2021 12:30:00 PM 2.56 36.608 0.04 6.85 24.91 13.32
1/17/2021 12:45:00 PM 2.6 36.68 0.04 6.84 30.21 13.31
1/17/2021 1:00:00 PM 2.65 36.77 0.04 6.8 25.2 13.29
1/17/2021 1:15:00 PM 2.68 36.824 0.042 6.89 25.36 13.27
1/17/2021 1:30:00 PM 2.71 36.878 0.04 6.85 26.04 13.25
1/17/2021 1:45:00 PM 2.77 36.986 0.042 6.89 25.47 13.24
1/17/2021 2:00:00 PM 2.82 37.076 0.042 6.89 28.19 13.23
1/17/2021 2:15:00 PM 2.84 37.112 0.042 6.89 30.05 13.21
1/17/2021 2:30:00 PM 2.87 37.166 0.042 6.9 28.18 13.19
1/17/2021 2:45:00 PM 2.89 37.202 0.042 6.8 28.06 13.18
1/17/2021 3:00:00 PM 2.93 37.274 0.042 6.88 26.28 13.16
1/17/2021 3:15:00 PM 2.95 37.31 0.042 6.9 26.57 13.15
1/17/2021 3:30:00 PM 2.98 37.364 0.042 6.9 24.1 13.13
1/17/2021 3:45:00 PM 3 37.4 0.042 6.9 26.74 13.12
1/17/2021 4:00:00 PM 3 37.4 0.042 6.9 27.02 13.11
1/17/2021 4:15:00 PM 2.99 37.382 0.042 6.89 25.89 13.09
1/17/2021 4:30:00 PM 2.99 37.382 0.042 6.89 27.3 13.09
1/17/2021 4:45:00 PM 2.98 37.364 0.042 6.87 26.83 13.08
1/17/2021 5:00:00 PM 2.96 37.328 0.042 6.89 25.62 13.09
1/17/2021 5:15:00 PM 2.95 37.31 0.042 6.88 25.72 13.07
1/17/2021 5:30:00 PM 2.94 37.292 0.042 6.89 25.6 13.08
1/17/2021 5:45:00 PM 2.93 37.274 0.041 6.84 28.74 13.08
1/17/2021 6:00:00 PM 2.93 37.274 0.042 6.88 23.4 13.08
1/17/2021 6:15:00 PM 2.92 37.256 0.042 6.89 25.21 13.08
1/17/2021 6:30:00 PM 2.91 37.238 0.042 6.88 26.51 13.08
1/17/2021 6:45:00 PM 2.91 37.238 0.042 6.84 24.04 13.09
1/17/2021 7:00:00 PM 2.9 37.22 0.042 6.88 23.3 13.09
1/17/2021 7:15:00 PM 2.89 37.202 0.042 6.88 26.93 13.09
1/17/2021 7:30:00 PM 2.88 37.184 0.042 6.88 27.49 13.09
1/17/2021 7:45:00 PM 2.88 37.184 0.042 6.88 26.43 13.1
1/17/2021 8:00:00 PM 2.87 37.166 0.043 6.88 25.68 13.1
1/17/2021 8:15:00 PM 2.86 37.148 0.043 6.88 27.19 13.1
1/17/2021 8:30:00 PM 2.85 37.13 0.043 6.88 24.23 13.1
1/17/2021 8:45:00 PM 2.84 37.112 0.043 6.88 26.4 13.11
1/17/2021 9:00:00 PM 2.83 37.094 0.043 6.88 26.22 13.12
1/17/2021 9:15:00 PM 2.82 37.076 0.043 6.88 27.5 13.12
1/17/2021 9:30:00 PM 2.81 37.058 0.043 6.88 24.35 13.12
1/17/2021 9:45:00 PM 2.79 37.022 0.043 6.88 26.57 13.12
1/17/2021 10:00:00 PM 2.78 37.004 0.043 6.88 26.55 13.13
1/17/2021 10:15:00 PM 2.77 36.986 0.043 6.87 25.77 13.13
1/17/2021 10:30:00 PM 2.76 36.968 0.043 6.88 28.1 13.14
1/17/2021 10:45:00 PM 2.74 36.932 0.041 6.85 24.63 13.14
1/17/2021 11:00:00 PM 2.73 36.914 0.043 6.88 26.25 13.14
1/17/2021 11:15:00 PM 2.72 36.896 0.043 6.89 26.53 13.15
1/17/2021 11:30:00 PM 2.72 36.896 0.043 6.87 25.61 13.15
1/17/2021 11:45:00 PM 2.71 36.878 0.041 6.85 26.22 13.15
1/18/2021 12:00:00 AM 2.7 36.86 0.043 6.78 24.59 13.16
1/18/2021 12:15:00 AM 2.69 36.842 0.041 6.86 23.21 13.16
1/18/2021 12:30:00 AM 2.67 36.806 0.043 6.87 25.86 13.17
1/18/2021 12:45:00 AM 2.65 36.77 0.043 6.88 25.53 13.17
1/18/2021 1:00:00 AM 2.62 36.716 0.043 6.88 26.45 13.17
1/18/2021 1:15:00 AM 2.59 36.662 0.041 6.85 24.98 13.18
1/18/2021 1:30:00 AM 2.57 36.626 0.041 6.85 24.31 13.18
1/18/2021 1:45:00 AM 2.55 36.59 0.041 6.82 24.29 13.19
1/18/2021 2:00:00 AM 2.54 36.572 0.043 6.88 24.62 13.2
1/18/2021 2:15:00 AM 2.53 36.554 0.043 6.88 25.59 13.2
1/18/2021 2:30:00 AM 2.52 36.536 0.043 6.88 25.3 13.21
1/18/2021 2:45:00 AM 2.52 36.536 0.043 6.87 23.96 13.21
1/18/2021 3:00:00 AM 2.51 36.518 0.043 6.88 25.89 13.22
1/18/2021 3:15:00 AM 2.51 36.518 0.043 6.8 26.04 13.22
1/18/2021 3:30:00 AM 2.51 36.518 0.043 6.88 24.93 13.22
1/18/2021 3:45:00 AM 2.51 36.518 0.043 6.87 24.63 13.22
1/18/2021 4:00:00 AM 2.51 36.518 0.043 6.88 25.63 13.22
1/18/2021 4:15:00 AM 2.51 36.518 0.043 6.87 25.23 13.22
1/18/2021 4:30:00 AM 2.51 36.518 0.043 6.88 24.38 13.22
1/18/2021 4:45:00 AM 2.51 36.518 0.041 6.86 22.89 13.22
1/18/2021 5:00:00 AM 2.51 36.518 0.042 6.84 23.14 13.22
1/18/2021 5:15:00 AM 2.5 36.5 0.043 6.87 23.38 13.22
1/18/2021 5:30:00 AM 2.48 36.464 0.043 6.88 25.2 13.22
1/18/2021 5:45:00 AM 2.47 36.446 0.043 6.88 24.38 13.23
1/18/2021 6:00:00 AM 2.48 36.464 0.043 6.83 24.37 13.23
1/18/2021 6:15:00 AM 2.48 36.464 0.041 6.84 22.51 13.23
1/18/2021 6:30:00 AM 2.48 36.464 0.043 6.88 24.4 13.23
1/18/2021 6:45:00 AM 2.47 36.446 0.043 6.88 25.01 13.24
1/18/2021 7:00:00 AM 2.47 36.446 0.041 6.84 23.48 13.23
1/18/2021 7:15:00 AM 2.47 36.446 0.043 6.88 23.64 13.24
1/18/2021 7:30:00 AM 2.47 36.446 0.043 6.88 24.95 13.24
1/18/2021 7:45:00 AM 2.47 36.446 0.043 6.88 25.66 13.24
1/18/2021 8:00:00 AM 2.47 36.446 0.042 6.88 24.14 13.25
1/18/2021 8:15:00 AM 2.48 36.464 0.042 6.88 23.97 13.26
1/18/2021 8:30:00 AM 2.5 36.5 0.042 6.88 23.99 13.27
1/18/2021 8:45:00 AM 2.51 36.518 0.042 6.89 23.44 13.29
1/18/2021 9:00:00 AM 2.52 36.536 0.041 6.84 25.63 13.29
1/18/2021 9:15:00 AM 2.53 36.554 0.042 6.89 25.73 13.3
1/18/2021 9:30:00 AM 2.55 36.59 0.042 6.9 23.84 13.3
1/18/2021 9:45:00 AM 2.59 36.662 0.042 6.9 24.77 13.3
1/18/2021 10:00:00 AM 2.63 36.734 0.041 6.85 27.51 13.3
1/18/2021 10:15:00 AM 2.69 36.842 0.042 6.9 25.53 13.3
1/18/2021 10:30:00 AM 2.74 36.932 0.042 6.9 24.4 13.29
1/18/2021 10:45:00 AM 2.78 37.004 0.042 6.91 25.38 13.28
1/18/2021 11:00:00 AM 2.82 37.076 0.042 6.9 23.44 13.26
1/18/2021 11:15:00 AM 2.86 37.148 0.042 6.91 24.92 13.24
1/18/2021 11:30:00 AM 2.92 37.256 0.042 6.91 24.43 13.22
1/18/2021 11:45:00 AM 3.03 37.454 0.042 6.9 23.64 13.2
1/18/2021 12:00:00 PM 3.08 37.544 0.042 6.9 23.85 13.18
1/18/2021 12:15:00 PM 3.09 37.562 0.042 6.91 24.95 13.17
1/18/2021 12:30:00 PM 3.1 37.58 0.042 6.91 24.18 13.17
1/18/2021 12:45:00 PM 3.14 37.652 0.042 6.91 24.22 13.15
1/18/2021 1:00:00 PM 3.2 37.76 0.042 6.91 24.33 13.13
1/18/2021 1:15:00 PM 3.21 37.778 0.042 6.91 24.48 13.11
1/18/2021 1:30:00 PM 3.21 37.778 0.041 6.84 24.55 13.1
1/18/2021 1:45:00 PM 3.29 37.922 0.042 6.86 23.05 13.09
1/18/2021 2:00:00 PM 3.35 38.03 0.042 6.9 23.87 13.07
1/18/2021 2:15:00 PM 3.36 38.048 0.04 6.87 22.46 13.06
1/18/2021 2:30:00 PM 3.36 38.048 0.042 6.87 23.61 13.05
1/18/2021 2:45:00 PM 3.38 38.084 0.042 6.91 23.28 13.05
1/18/2021 3:00:00 PM 3.38 38.084 0.042 6.9 23.23 13.05
1/18/2021 3:15:00 PM 3.38 38.084 0.042 6.9 23.96 13.03
1/18/2021 3:30:00 PM 3.37 38.066 0.043 6.91 24.61 13.02
1/18/2021 3:45:00 PM 3.34 38.012 0.042 6.81 24.09 13.01
1/18/2021 4:00:00 PM 3.26 37.868 0.042 6.9 24.39 13
1/18/2021 4:15:00 PM 3.14 37.652 0.042 6.9 24.23 13.01
1/18/2021 4:30:00 PM 3.12 37.616 0.041 6.86 22.29 13.03
1/18/2021 4:45:00 PM 3.11 37.598 0.043 6.9 24.8 13.04
1/18/2021 5:00:00 PM 3.13 37.634 0.043 6.9 25.95 13.04
1/18/2021 5:15:00 PM 3.1 37.58 0.043 6.89 23.89 13.04
1/18/2021 5:30:00 PM 2.95 37.31 0.042 6.8 22.67 13.04
1/18/2021 5:45:00 PM 2.94 37.292 0.042 6.89 23.67 13.06
1/18/2021 6:00:00 PM 2.89 37.202 0.043 6.89 24.92 13.09
1/18/2021 6:15:00 PM 2.75 36.95 0.043 6.89 22.1 13.1
1/18/2021 6:30:00 PM 2.59 36.662 0.043 6.86 24.2 13.12
1/18/2021 6:45:00 PM 2.4 36.32 0.043 6.88 23.72 13.18
1/18/2021 7:00:00 PM 2.4 36.32 0.043 6.88 23.39 13.23
1/18/2021 7:15:00 PM 2.49 36.482 0.043 6.88 23.9 13.24
1/18/2021 7:30:00 PM 2.54 36.572 0.043 6.88 24.7 13.24
1/18/2021 7:45:00 PM 2.52 36.536 0.043 6.88 23.45 13.27
1/18/2021 8:00:00 PM 2.46 36.428 0.043 6.78 24.02 13.3
1/18/2021 8:15:00 PM 2.41 36.338 0.043 6.88 23.76 13.32
1/18/2021 8:30:00 PM 2.39 36.302 0.042 6.85 26.54 13.34
1/18/2021 8:45:00 PM 2.37 36.266 0.043 6.85 25.32 13.35
1/18/2021 9:00:00 PM 2.37 36.266 0.044 6.88 23.99 13.35
1/18/2021 9:15:00 PM 2.36 36.248 0.044 6.79 24.06 13.36
1/18/2021 9:30:00 PM 2.36 36.248 0.045 6.88 24.05 13.35
1/18/2021 9:45:00 PM 2.36 36.248 0.044 6.86 23.25 13.35
1/18/2021 10:00:00 PM 2.36 36.248 0.046 6.86 24.04 13.34
1/18/2021 10:15:00 PM 2.37 36.266 0.047 6.88 23.91 13.34
1/18/2021 10:30:00 PM 2.38 36.284 0.047 6.88 22.93 13.34
1/18/2021 10:45:00 PM 2.39 36.302 0.044 6.85 25.99 13.35
1/18/2021 11:00:00 PM 2.4 36.32 0.046 6.88 23.67 13.34
1/18/2021 11:15:00 PM 2.41 36.338 0.043 6.84 24.22 13.34
1/18/2021 11:30:00 PM 2.42 36.356 0.043 6.84 23.01 13.33
1/18/2021 11:45:00 PM 2.43 36.374 0.043 6.86 24.66 13.34
1/19/2021 12:00:00 AM 2.43 36.374 0.044 6.89 23.79 13.34
1/19/2021 12:15:00 AM 2.42 36.356 0.042 6.84 25.58 13.33
1/19/2021 12:30:00 AM 2.41 36.338 0.044 6.89 23.85 13.34
1/19/2021 12:45:00 AM 2.39 36.302 0.044 6.89 23.38 13.35
1/19/2021 1:00:00 AM 2.37 36.266 0.044 6.89 23.83 13.35
1/19/2021 1:15:00 AM 2.35 36.23 0.042 6.85 21.22 13.36
1/19/2021 1:30:00 AM 2.33 36.194 0.044 6.89 23.97 13.37
1/19/2021 1:45:00 AM 2.31 36.158 0.042 6.84 22.22 13.38
1/19/2021 2:00:00 AM 2.28 36.104 0.044 6.88 22.98 13.39
1/19/2021 2:15:00 AM 2.25 36.05 0.044 6.88 22.54 13.4
1/19/2021 2:30:00 AM 2.24 36.032 0.044 6.89 22.42 13.42
1/19/2021 2:45:00 AM 2.24 36.032 0.044 6.88 23.02 13.42
1/19/2021 3:00:00 AM 2.23 36.014 0.044 6.87 23.35 13.42
1/19/2021 3:15:00 AM 2.22 35.996 0.044 6.88 24.14 13.43
1/19/2021 3:30:00 AM 2.21 35.978 0.044 6.88 23.68 13.44
1/19/2021 3:45:00 AM 2.2 35.96 0.044 6.88 23.22 13.44
1/19/2021 4:00:00 AM 2.19 35.942 0.044 6.88 22.16 13.44
1/19/2021 4:15:00 AM 2.17 35.906 0.044 6.88 23.08 13.45
1/19/2021 4:30:00 AM 2.16 35.888 0.044 6.88 22.59 13.46
1/19/2021 4:45:00 AM 2.16 35.888 0.044 6.88 23.64 13.46
1/19/2021 5:00:00 AM 2.15 35.87 0.044 6.88 23.32 13.46
1/19/2021 5:15:00 AM 2.15 35.87 0.044 6.88 23.39 13.47
1/19/2021 5:30:00 AM 2.13 35.834 0.044 6.89 23.43 13.47
1/19/2021 5:45:00 AM 2.12 35.816 0.044 6.89 23.25 13.48
1/19/2021 6:00:00 AM 2.11 35.798 0.044 6.88 22.66 13.48
1/19/2021 6:15:00 AM 2.1 35.78 0.044 6.89 21.75 13.49
1/19/2021 6:30:00 AM 2.09 35.762 0.042 6.82 24.05 13.49
1/19/2021 6:45:00 AM 2.07 35.726 0.044 6.89 24.33 13.5
1/19/2021 7:00:00 AM 2.05 35.69 0.044 6.89 23.43 13.51
1/19/2021 7:15:00 AM 2.02 35.636 0.044 6.89 23.39 13.52
1/19/2021 7:30:00 AM 1.99 35.582 0.044 6.89 23.53 13.53
1/19/2021 7:45:00 AM 1.97 35.546 0.042 6.84 22.07 13.55
1/19/2021 8:00:00 AM 1.95 35.51 0.044 6.89 22.38 13.57
1/19/2021 8:15:00 AM 1.94 35.492 0.042 6.85 23 13.59
1/19/2021 8:30:00 AM 1.95 35.51 0.042 6.85 22.32 13.61
1/19/2021 8:45:00 AM 1.97 35.546 0.042 6.85 22.32 13.62
1/19/2021 9:00:00 AM 1.99 35.582 0.044 6.82 22.78 13.64
1/19/2021 9:15:00 AM 2.02 35.636 0.044 6.9 23.1 13.64
1/19/2021 9:30:00 AM 2.04 35.672 0.044 6.9 22.77 13.64
1/19/2021 9:45:00 AM 2.07 35.726 0.044 6.91 22.88 13.64
1/19/2021 10:00:00 AM 2.13 35.834 0.044 6.91 23.39 13.63
1/19/2021 10:15:00 AM 2.16 35.888 0.044 6.9 22.41 13.63
1/19/2021 10:30:00 AM 2.2 35.96 0.043 6.91 23.4 13.62
1/19/2021 10:45:00 AM 2.25 36.05 0.043 6.91 23.34 13.6
1/19/2021 11:00:00 AM 2.31 36.158 0.042 6.87 22.2 13.58
1/19/2021 11:15:00 AM 2.37 36.266 0.042 6.86 22.79 13.56
1/19/2021 11:30:00 AM 2.43 36.374 0.043 6.92 23.47 13.54
1/19/2021 11:45:00 AM 2.45 36.41 0.043 6.91 23.48 13.53
1/19/2021 12:00:00 PM 2.48 36.464 0.043 6.92 22.73 13.52
1/19/2021 12:15:00 PM 2.5 36.5 0.043 6.92 22.37 13.51
1/19/2021 12:30:00 PM 2.53 36.554 0.043 6.92 22.62 13.5
1/19/2021 12:45:00 PM 2.57 36.626 0.042 6.87 21.97 13.49
1/19/2021 1:00:00 PM 2.6 36.68 0.041 6.87 21.44 13.47
1/19/2021 1:15:00 PM 2.64 36.752 0.041 6.86 27.33 13.46
1/19/2021 1:30:00 PM 2.68 36.824 0.043 6.92 23.21 13.45
1/19/2021 1:45:00 PM 2.71 36.878 0.042 6.87 22.3 13.43
1/19/2021 2:00:00 PM 2.75 36.95 0.043 6.83 22.79 13.42
1/19/2021 2:15:00 PM 2.78 37.004 0.042 6.88 21.45 13.4
1/19/2021 2:30:00 PM 2.83 37.094 0.044 6.92 23.61 13.39
1/19/2021 2:45:00 PM 2.86 37.148 0.043 6.83 22.88 13.37
1/19/2021 3:00:00 PM 2.85 37.13 0.044 6.92 22.78 13.36
1/19/2021 3:15:00 PM 2.84 37.112 0.044 6.84 23.42 13.35
1/19/2021 3:30:00 PM 2.85 37.13 0.044 6.92 22.97 13.35
1/19/2021 3:45:00 PM 2.88 37.184 0.044 6.91 23.26 13.34
1/19/2021 4:00:00 PM 2.87 37.166 0.044 6.92 22.55 13.34
1/19/2021 4:15:00 PM 2.84 37.112 0.044 6.92 23.23 13.33
1/19/2021 4:30:00 PM 2.82 37.076 0.044 6.92 24.99 13.32
1/19/2021 4:45:00 PM 2.77 36.986 0.044 6.91 23.7 13.31
1/19/2021 5:00:00 PM 2.74 36.932 0.044 6.91 23.37 13.31
1/19/2021 5:15:00 PM 2.7 36.86 0.044 6.91 22.78 13.31
1/19/2021 5:30:00 PM 2.67 36.806 0.044 6.91 22.21 13.31
1/19/2021 5:45:00 PM 2.64 36.752 0.042 6.86 23.55 13.31
1/19/2021 6:00:00 PM 2.61 36.698 0.042 6.86 20.27 13.32
1/19/2021 6:15:00 PM 2.57 36.626 0.042 6.86 23.82 13.32
1/19/2021 6:30:00 PM 2.54 36.572 0.044 6.89 22.93 13.33
1/19/2021 6:45:00 PM 2.53 36.554 0.042 6.85 22.12 13.33
1/19/2021 7:00:00 PM 2.49 36.482 0.044 6.89 22.16 13.35
1/19/2021 7:15:00 PM 2.45 36.41 0.044 6.89 22.98 13.36
1/19/2021 7:30:00 PM 2.42 36.356 0.044 6.89 22.93 13.37
1/19/2021 7:45:00 PM 2.39 36.302 0.043 6.82 22.63 13.38
1/19/2021 8:00:00 PM 2.35 36.23 0.043 6.86 21.91 13.4
1/19/2021 8:15:00 PM 2.31 36.158 0.043 6.86 22.47 13.41
1/19/2021 8:30:00 PM 2.27 36.086 0.044 6.89 22.94 13.43
1/19/2021 8:45:00 PM 2.22 35.996 0.044 6.89 22.32 13.44
1/19/2021 9:00:00 PM 2.19 35.942 0.044 6.89 23.26 13.46
1/19/2021 9:15:00 PM 2.16 35.888 0.044 6.89 23.28 13.47
1/19/2021 9:30:00 PM 2.14 35.852 0.044 6.89 21.92 13.48
1/19/2021 9:45:00 PM 2.12 35.816 0.044 6.88 23.34 13.48
1/19/2021 10:00:00 PM 2.1 35.78 0.044 6.88 22.92 13.5
1/19/2021 10:15:00 PM 2.09 35.762 0.044 6.88 23.27 13.5
1/19/2021 10:30:00 PM 2.07 35.726 0.044 6.88 23.04 13.5
1/19/2021 10:45:00 PM 2.06 35.708 0.044 6.78 22.78 13.52
1/19/2021 11:00:00 PM 2.05 35.69 0.044 6.88 22.35 13.52
1/19/2021 11:15:00 PM 2.04 35.672 0.044 6.85 23.86 13.52
1/19/2021 11:30:00 PM 2.03 35.654 0.044 6.88 22.95 13.52
1/19/2021 11:45:00 PM 2.02 35.636 0.042 6.85 23.07 13.52
1/20/2021 12:00:00 AM 2.01 35.618 0.042 6.86 19.63 13.52
1/20/2021 12:15:00 AM 2 35.6 0.044 6.88 22.17 13.52
1/20/2021 12:30:00 AM 1.99 35.582 0.044 6.89 22.48 13.52
1/20/2021 12:45:00 AM 1.98 35.564 0.044 6.85 23.02 13.52
1/20/2021 1:00:00 AM 1.97 35.546 0.042 6.86 21.3 13.52
1/20/2021 1:15:00 AM 1.96 35.528 0.044 6.88 22.73 13.53
1/20/2021 1:30:00 AM 1.95 35.51 0.042 6.85 22.31 13.53
1/20/2021 1:45:00 AM 1.94 35.492 0.044 6.88 22.34 13.53
1/20/2021 2:00:00 AM 1.92 35.456 0.044 6.88 22.92 13.53
1/20/2021 2:15:00 AM 1.91 35.438 0.042 6.85 21.72 13.54
1/20/2021 2:30:00 AM 1.89 35.402 0.043 6.8 22.42 13.54
1/20/2021 2:45:00 AM 1.88 35.384 0.042 6.86 19.78 13.54
1/20/2021 3:00:00 AM 1.88 35.384 0.042 6.85 19.88 13.53
1/20/2021 3:15:00 AM 1.87 35.366 0.044 6.84 22.99 13.54
1/20/2021 3:30:00 AM 1.87 35.366 0.044 6.88 22.17 13.54
1/20/2021 3:45:00 AM 1.86 35.348 0.042 6.85 22.41 13.54
1/20/2021 4:00:00 AM 1.86 35.348 0.044 6.88 22.22 13.54
1/20/2021 4:15:00 AM 1.86 35.348 0.042 6.83 24.15 13.53
1/20/2021 4:30:00 AM 1.86 35.348 0.044 6.88 22.61 13.54
1/20/2021 4:45:00 AM 1.86 35.348 0.044 6.86 22.11 13.54
1/20/2021 5:00:00 AM 1.86 35.348 0.044 6.88 22.23 13.53
1/20/2021 5:15:00 AM 1.86 35.348 0.044 6.88 23.01 13.53
1/20/2021 5:30:00 AM 1.85 35.33 0.042 6.84 22.04 13.54
1/20/2021 5:45:00 AM 1.85 35.33 0.044 6.88 22.82 13.53
1/20/2021 6:00:00 AM 1.84 35.312 0.042 6.84 23.32 13.53
1/20/2021 6:15:00 AM 1.84 35.312 0.044 6.88 21.85 13.53
1/20/2021 6:30:00 AM 1.84 35.312 0.044 6.88 22.39 13.53
1/20/2021 6:45:00 AM 1.84 35.312 0.042 6.83 21.83 13.53
1/20/2021 7:00:00 AM 1.83 35.294 0.044 6.88 22.4 13.54
1/20/2021 7:15:00 AM 1.84 35.312 0.042 6.85 23.18 13.53
1/20/2021 7:30:00 AM 1.82 35.276 0.044 6.89 24.22 13.54
1/20/2021 7:45:00 AM 1.81 35.258 0.044 6.89 21.85 13.55
1/20/2021 8:00:00 AM 1.77 35.186 0.042 6.84 21.66 13.56
1/20/2021 8:15:00 AM 1.75 35.15 0.042 6.85 21.02 13.58
1/20/2021 8:30:00 AM 1.74 35.132 0.044 6.91 22.59 13.62
1/20/2021 8:45:00 AM 1.75 35.15 0.044 6.91 21.56 13.64
1/20/2021 9:00:00 AM 1.77 35.186 0.044 6.91 21.79 13.66
1/20/2021 9:15:00 AM 1.78 35.204 0.044 6.92 22.03 13.68
1/20/2021 9:30:00 AM 1.76 35.168 0.044 6.92 21.32 13.69
1/20/2021 9:45:00 AM 1.75 35.15 0.044 6.92 21.34 13.7
1/20/2021 10:00:00 AM 1.78 35.204 0.044 6.93 21.87 13.71
1/20/2021 10:15:00 AM 1.81 35.258 0.042 6.85 22.88 13.71
1/20/2021 10:30:00 AM 1.83 35.294 0.044 6.93 22.47 13.71
1/20/2021 10:45:00 AM 1.86 35.348 0.044 6.93 21.66 13.7
1/20/2021 11:00:00 AM 1.86 35.348 0.044 6.92 20.92 13.71
1/20/2021 11:15:00 AM 1.91 35.438 0.044 6.93 21.82 13.7
1/20/2021 11:30:00 AM 1.99 35.582 0.042 6.87 21.87 13.68
1/20/2021 11:45:00 AM 2.06 35.708 0.044 6.91 21.07 13.65
1/20/2021 12:00:00 PM 2.16 35.888 0.042 6.89 22.47 13.62
1/20/2021 12:15:00 PM 2.24 36.032 0.044 6.93 22.81 13.6
1/20/2021 12:30:00 PM 2.3 36.14 0.043 6.92 22.34 13.58
1/20/2021 12:45:00 PM 2.27 36.086 0.043 6.93 21.2 13.59
1/20/2021 1:00:00 PM 2.31 36.158 0.041 6.89 23.23 13.58
1/20/2021 1:15:00 PM 2.38 36.284 0.043 6.9 22.16 13.56
1/20/2021 1:30:00 PM 2.38 36.284 0.043 6.93 23.5 13.56
1/20/2021 1:45:00 PM 2.37 36.266 0.042 6.89 22.24 13.56
1/20/2021 2:00:00 PM 2.4 36.32 0.043 6.93 22.52 13.55
1/20/2021 2:15:00 PM 2.41 36.338 0.043 6.93 21.55 13.56
1/20/2021 2:30:00 PM 2.44 36.392 0.043 6.93 21.2 13.55
1/20/2021 2:45:00 PM 2.39 36.302 0.043 6.89 21.52 13.56
1/20/2021 3:00:00 PM 2.32 36.176 0.042 6.89 24.21 13.57
1/20/2021 3:15:00 PM 2.31 36.158 0.043 6.93 21.44 13.58
1/20/2021 3:30:00 PM 2.26 36.068 0.044 6.93 22.3 13.6
1/20/2021 3:45:00 PM 2.19 35.942 0.043 6.93 22.33 13.6
1/20/2021 4:00:00 PM 2.14 35.852 0.044 6.93 22.85 13.61
1/20/2021 4:15:00 PM 2.11 35.798 0.044 6.92 22.45 13.61
1/20/2021 4:30:00 PM 2.05 35.69 0.044 6.92 21.38 13.6
1/20/2021 4:45:00 PM 2.01 35.618 0.042 6.77 19.63 13.59
1/20/2021 5:00:00 PM 1.99 35.582 0.044 6.92 28.25 13.59
1/20/2021 5:15:00 PM 1.95 35.51 0.044 6.8 21.77 13.59
1/20/2021 5:30:00 PM 1.9 35.42 0.044 6.91 22.03 13.59
1/20/2021 5:45:00 PM 1.86 35.348 0.042 6.87 22.41 13.59
1/20/2021 6:00:00 PM 1.82 35.276 0.044 6.9 22.89 13.6
1/20/2021 6:15:00 PM 1.78 35.204 0.042 6.86 22.13 13.61
1/20/2021 6:30:00 PM 1.73 35.114 0.044 6.9 21.81 13.63
1/20/2021 6:45:00 PM 1.7 35.06 0.044 6.87 22.6 13.64
1/20/2021 7:00:00 PM 1.65 34.97 0.044 6.89 21.96 13.66
1/20/2021 7:15:00 PM 1.6 34.88 0.044 6.9 21.42 13.69
1/20/2021 7:30:00 PM 1.56 34.808 0.044 6.89 21.32 13.69
1/20/2021 7:45:00 PM 1.52 34.736 0.044 6.89 21.14 13.71
1/20/2021 8:00:00 PM 1.48 34.664 0.044 6.89 21.87 13.71
1/20/2021 8:15:00 PM 1.43 34.574 0.044 6.9 22.68 13.74
1/20/2021 8:30:00 PM 1.39 34.502 0.042 6.86 21.38 13.75
1/20/2021 8:45:00 PM 1.36 34.448 0.044 6.89 21.79 13.77
1/20/2021 9:00:00 PM 1.31 34.358 0.044 6.89 21.93 13.79
1/20/2021 9:15:00 PM 1.28 34.304 0.044 6.88 22.61 13.8
1/20/2021 9:30:00 PM 1.24 34.232 0.042 6.86 22.6 13.82
1/20/2021 9:45:00 PM 1.21 34.178 0.044 6.89 22.63 13.83
1/20/2021 10:00:00 PM 1.18 34.124 0.042 6.85 22.99 13.84
1/20/2021 10:15:00 PM 1.14 34.052 0.044 6.89 22.01 13.86
1/20/2021 10:30:00 PM 1.12 34.016 0.044 6.89 21.63 13.87
1/20/2021 10:45:00 PM 1.09 33.962 0.044 6.89 20.55 13.88
1/20/2021 11:00:00 PM 1.07 33.926 0.044 6.89 22.31 13.89
1/20/2021 11:15:00 PM 1.04 33.872 0.044 6.89 21.33 13.9
1/20/2021 11:30:00 PM 1.02 33.836 0.044 6.89 21.09 13.91
1/20/2021 11:45:00 PM 1 33.8 0.044 6.89 22.81 13.91
1/21/2021 12:00:00 AM 0.96 33.728 0.044 6.89 21.69 13.93
1/21/2021 12:15:00 AM 0.92 33.656 0.044 6.89 21.88 13.94
1/21/2021 12:30:00 AM 0.88 33.584 0.044 6.89 20.1 13.95
1/21/2021 12:45:00 AM 0.82 33.476 0.044 6.89 22.1 13.97
1/21/2021 1:00:00 AM 0.79 33.422 0.044 6.89 21.72 13.97
1/21/2021 1:15:00 AM 0.74 33.332 0.042 6.85 22.29 13.99
1/21/2021 1:30:00 AM 0.69 33.242 0.044 6.89 22.15 14.01
1/21/2021 1:45:00 AM 0.64 33.152 0.044 6.89 21.73 14.02
1/21/2021 2:00:00 AM 0.6 33.08 0.044 6.89 21.03 14.04
1/21/2021 2:15:00 AM 0.56 33.008 0.044 6.89 21.54 14.05
1/21/2021 2:30:00 AM 0.52 32.936 0.043 6.85 21.51 14.06
1/21/2021 2:45:00 AM 0.48 32.864 0.043 6.85 21.83 14.08
1/21/2021 3:00:00 AM 0.43 32.774 0.044 6.89 21.66 14.1
1/21/2021 3:15:00 AM 0.4 32.72 0.044 6.88 22.04 14.11
1/21/2021 3:30:00 AM 0.37 32.666 0.044 6.88 21.13 14.11
1/21/2021 3:45:00 AM 0.34 32.612 0.044 6.89 20.93 14.13
1/21/2021 4:00:00 AM 0.32 32.576 0.044 6.87 21.01 14.13
1/21/2021 4:15:00 AM 0.32 32.576 0.044 6.88 20.68 14.11
1/21/2021 4:30:00 AM 0.31 32.558 0.044 6.88 21.84 14.11
1/21/2021 4:45:00 AM 0.3 32.54 0.045 6.88 21.19 14.11
1/21/2021 5:00:00 AM 0.31 32.558 0.045 6.88 21.24 14.08
1/21/2021 5:15:00 AM 0.31 32.558 0.045 6.88 22 14.09
1/21/2021 5:30:00 AM 0.32 32.576 0.045 6.89 21.19 14.09
1/21/2021 5:45:00 AM 0.35 32.63 0.045 6.88 21.37 14.07
1/21/2021 6:00:00 AM 0.37 32.666 0.045 6.88 21.7 14.06
1/21/2021 6:15:00 AM 0.41 32.738 0.045 6.88 21.01 14.04
1/21/2021 6:30:00 AM 0.44 32.792 0.045 6.88 21.09 14.04
1/21/2021 6:45:00 AM 0.47 32.846 0.045 6.88 22.1 14.01
1/21/2021 7:00:00 AM 0.5 32.9 0.043 6.82 19.93 14
1/21/2021 7:15:00 AM 0.53 32.954 0.046 6.89 21.08 14
1/21/2021 7:30:00 AM 0.55 32.99 0.046 6.89 21.31 13.99
1/21/2021 7:45:00 AM 0.56 33.008 0.046 6.89 21.15 13.99
1/21/2021 8:00:00 AM 0.58 33.044 0.046 6.87 20.02 13.99
1/21/2021 8:15:00 AM 0.59 33.062 0.047 6.92 20.61 14.01
1/21/2021 8:30:00 AM 0.62 33.116 0.047 6.9 21.18 14.02
1/21/2021 8:45:00 AM 0.64 33.152 0.047 6.93 21.05 14.04
1/21/2021 9:00:00 AM 0.67 33.206 0.047 6.94 20.79 14.05
1/21/2021 9:15:00 AM 0.69 33.242 0.047 6.94 20.61 14.05
1/21/2021 9:30:00 AM 0.71 33.278 0.047 6.95 21.03 14.06
1/21/2021 9:45:00 AM 0.73 33.314 0.048 6.87 21 14.06
1/21/2021 10:00:00 AM 0.76 33.368 0.048 6.96 21.07 14.07
1/21/2021 10:15:00 AM 0.79 33.422 0.048 6.96 20.76 14.06
1/21/2021 10:30:00 AM 0.82 33.476 0.048 6.96 20.09 14.05
1/21/2021 10:45:00 AM 0.85 33.53 0.048 6.97 20.74 14.05
1/21/2021 11:00:00 AM 0.9 33.62 0.046 6.92 21.88 14.03
1/21/2021 11:15:00 AM 0.93 33.674 0.047 6.97 20.8 14.03
1/21/2021 11:30:00 AM 0.98 33.764 0.047 6.9 21.26 14.03
1/21/2021 11:45:00 AM 1.02 33.836 0.045 6.95 20.51 14.01
1/21/2021 12:00:00 PM 1.04 33.872 0.045 6.95 22.36 14
1/21/2021 12:15:00 PM 1.07 33.926 0.047 6.91 20.88 13.99
1/21/2021 12:30:00 PM 1.08 33.944 0.047 6.98 21.22 13.99
1/21/2021 12:45:00 PM 1.09 33.962 0.047 6.97 21.21 13.99
1/21/2021 1:00:00 PM 1.14 34.052 0.046 6.91 23.03 13.98
1/21/2021 1:15:00 PM 1.18 34.124 0.044 6.95 20.18 13.96
1/21/2021 1:30:00 PM 1.22 34.196 0.045 6.96 22.2 13.95
1/21/2021 1:45:00 PM 1.27 34.286 0.043 6.92 22.65 13.93
1/21/2021 2:00:00 PM 1.31 34.358 0.045 6.96 21.91 13.9
1/21/2021 2:15:00 PM 1.38 34.484 0.045 6.96 22.11 13.86
1/21/2021 2:30:00 PM 1.41 34.538 0.044 6.86 22.41 13.84
1/21/2021 2:45:00 PM 1.49 34.682 0.042 6.91 22.51 13.8
1/21/2021 3:00:00 PM 1.56 34.808 0.044 6.95 23.35 13.77
1/21/2021 3:15:00 PM 1.6 34.88 0.043 6.95 22.34 13.74
1/21/2021 3:30:00 PM 1.62 34.916 0.043 6.95 25.02 13.71
1/21/2021 3:45:00 PM 1.62 34.916 0.043 6.94 23.84 13.7
1/21/2021 4:00:00 PM 1.59 34.862 0.043 6.94 24.12 13.69
1/21/2021 4:15:00 PM 1.57 34.826 0.043 6.94 26.26 13.67
1/21/2021 4:30:00 PM 1.55 34.79 0.043 6.93 23.81 13.66
1/21/2021 4:45:00 PM 1.52 34.736 0.043 6.82 23.99 13.66
1/21/2021 5:00:00 PM 1.48 34.664 0.043 6.92 25.69 13.64
1/21/2021 5:15:00 PM 1.44 34.592 0.043 6.91 27.52 13.63
1/21/2021 5:30:00 PM 1.4 34.52 0.043 6.91 25.42 13.63
1/21/2021 5:45:00 PM 1.36 34.448 0.041 6.86 25.87 13.64
1/21/2021 6:00:00 PM 1.31 34.358 0.042 6.9 27.81 13.64
1/21/2021 6:15:00 PM 1.28 34.304 0.042 6.87 24.35 13.65
1/21/2021 6:30:00 PM 1.24 34.232 0.041 6.86 24.86 13.66
1/21/2021 6:45:00 PM 1.2 34.16 0.043 6.89 34.84 13.67
1/21/2021 7:00:00 PM 1.17 34.106 0.043 6.89 26.6 13.69
1/21/2021 7:15:00 PM 1.13 34.034 0.043 6.89 27.65 13.69
1/21/2021 7:30:00 PM 1.1 33.98 0.043 6.89 34.17 13.71
1/21/2021 7:45:00 PM 1.09 33.962 0.041 6.84 43.71 13.71
1/21/2021 8:00:00 PM 1.09 33.962 0.041 6.85 27.99 13.71
1/21/2021 8:15:00 PM 1.09 33.962 0.043 6.89 26.81 13.72
1/21/2021 8:30:00 PM 1.11 33.998 0.041 6.84 33.49 13.72
1/21/2021 8:45:00 PM 1.11 33.998 0.043 6.89 27.82 13.72
1/21/2021 9:00:00 PM 1.12 34.016 0.043 6.89 26.54 13.72
1/21/2021 9:15:00 PM 1.12 34.016 0.043 6.89 25.25 13.72
1/21/2021 9:30:00 PM 1.14 34.052 0.041 6.84 25.19 13.7
1/21/2021 9:45:00 PM 1.16 34.088 0.043 6.89 26.37 13.69
1/21/2021 10:00:00 PM 1.17 34.106 0.041 6.84 25.07 13.69
1/21/2021 10:15:00 PM 1.18 34.124 0.043 6.85 26.75 13.69
1/21/2021 10:30:00 PM 1.18 34.124 0.041 6.86 23.14 13.68
1/21/2021 10:45:00 PM 1.16 34.088 0.043 6.89 26.56 13.68
1/21/2021 11:00:00 PM 1.15 34.07 0.044 6.89 25.12 13.68
1/21/2021 11:15:00 PM 1.12 34.016 0.044 6.89 25.06 13.69
1/21/2021 11:30:00 PM 1.1 33.98 0.042 6.85 22.39 13.69
1/21/2021 11:45:00 PM 1.08 33.944 0.043 6.83 24.56 13.7
1/22/2021 12:00:00 AM 1.06 33.908 0.042 6.87 24.6 13.7
1/22/2021 12:15:00 AM 1.05 33.89 0.044 6.89 24.53 13.71
1/22/2021 12:30:00 AM 1.03 33.854 0.044 6.89 23.61 13.72
1/22/2021 12:45:00 AM 1.02 33.836 0.044 6.89 24.01 13.73
1/22/2021 1:00:00 AM 1.01 33.818 0.044 6.9 24.24 13.73
1/22/2021 1:15:00 AM 0.98 33.764 0.044 6.87 23.25 13.74
1/22/2021 1:30:00 AM 0.96 33.728 0.044 6.89 23.08 13.75
1/22/2021 1:45:00 AM 0.93 33.674 0.044 6.89 22.72 13.76
1/22/2021 2:00:00 AM 0.91 33.638 0.044 6.89 24.05 13.77
1/22/2021 2:15:00 AM 0.89 33.602 0.044 6.89 21.61 13.78
1/22/2021 2:30:00 AM 0.89 33.602 0.044 6.9 22.1 13.79
1/22/2021 2:45:00 AM 0.88 33.584 0.044 6.84 22 13.79
1/22/2021 3:00:00 AM 0.87 33.566 0.044 6.89 23.06 13.79
1/22/2021 3:15:00 AM 0.87 33.566 0.044 6.89 21.76 13.8
1/22/2021 3:30:00 AM 0.88 33.584 0.044 6.9 21.57 13.81
1/22/2021 3:45:00 AM 0.89 33.602 0.044 6.9 22.33 13.81
1/22/2021 4:00:00 AM 0.9 33.62 0.042 6.86 22.08 13.8
1/22/2021 4:15:00 AM 0.92 33.656 0.044 6.9 22.31 13.79
1/22/2021 4:30:00 AM 0.93 33.674 0.044 6.9 21.67 13.79
1/22/2021 4:45:00 AM 0.95 33.71 0.044 6.9 21.81 13.78
1/22/2021 5:00:00 AM 0.98 33.764 0.044 6.89 21.12 13.78
1/22/2021 5:15:00 AM 1 33.8 0.044 6.9 21.05 13.77
1/22/2021 5:30:00 AM 1.02 33.836 0.044 6.8 22.64 13.76
1/22/2021 5:45:00 AM 1.03 33.854 0.044 6.9 22.06 13.76
1/22/2021 6:00:00 AM 1.05 33.89 0.042 6.86 21.46 13.74
1/22/2021 6:15:00 AM 1.07 33.926 0.044 6.9 22.13 13.74
1/22/2021 6:30:00 AM 1.06 33.908 0.044 6.9 20.87 13.74
1/22/2021 6:45:00 AM 1.06 33.908 0.042 6.86 22.85 13.74
1/22/2021 7:00:00 AM 1.07 33.926 0.044 6.9 21.02 13.74
1/22/2021 7:15:00 AM 1.08 33.944 0.042 6.86 20.7 13.74
1/22/2021 7:30:00 AM 1.09 33.962 0.044 6.8 21.36 13.74
1/22/2021 7:45:00 AM 1.1 33.98 0.044 6.91 21.21 13.74
1/22/2021 8:00:00 AM 1.12 34.016 0.044 6.91 21.43 13.74
1/22/2021 8:15:00 AM 1.15 34.07 0.042 6.85 21.1 13.75
1/22/2021 8:30:00 AM 1.17 34.106 0.044 6.92 21.15 13.79
1/22/2021 8:45:00 AM 1.21 34.178 0.044 6.83 21.09 13.79
1/22/2021 9:00:00 AM 1.24 34.232 0.044 6.93 21.12 13.8
1/22/2021 9:15:00 AM 1.28 34.304 0.044 6.93 20.35 13.8
1/22/2021 9:30:00 AM 1.33 34.394 0.043 6.9 20.31 13.81
1/22/2021 9:45:00 AM 1.38 34.484 0.043 6.91 20.65 13.81
1/22/2021 10:00:00 AM 1.45 34.61 0.044 6.94 20.98 13.79
1/22/2021 10:15:00 AM 1.51 34.718 0.044 6.95 20.06 13.79
1/22/2021 10:30:00 AM 1.58 34.844 0.044 6.89 20.57 13.78
1/22/2021 10:45:00 AM 1.66 34.988 0.043 6.94 20.63 13.76
1/22/2021 11:00:00 AM 1.71 35.078 0.044 6.96 21.23 13.74
1/22/2021 11:15:00 AM 1.78 35.204 0.044 6.96 20.64 13.72
1/22/2021 11:30:00 AM 1.84 35.312 0.042 6.92 18.85 13.7
1/22/2021 11:45:00 AM 1.9 35.42 0.044 6.95 20.41 13.67
1/22/2021 12:00:00 PM 1.96 35.528 0.042 6.91 20.83 13.65
1/22/2021 12:15:00 PM 2.04 35.672 0.042 6.94 20.26 13.63
1/22/2021 12:30:00 PM 2.15 35.87 0.044 6.86 20.06 13.6
1/22/2021 12:45:00 PM 2.27 36.086 0.044 6.96 20.55 13.56
1/22/2021 1:00:00 PM 2.32 36.176 0.044 6.96 21.6 13.53
1/22/2021 1:15:00 PM 2.32 36.176 0.043 6.93 20.71 13.52
1/22/2021 1:30:00 PM 2.34 36.212 0.044 6.96 20.87 13.49
1/22/2021 1:45:00 PM 2.36 36.248 0.042 6.92 20.94 13.47
1/22/2021 2:00:00 PM 2.39 36.302 0.042 6.95 20.39 13.45
1/22/2021 2:15:00 PM 2.42 36.356 0.044 6.96 20.63 13.42
1/22/2021 2:30:00 PM 2.44 36.392 0.042 6.91 19.75 13.4
1/22/2021 2:45:00 PM 2.45 36.41 0.042 6.92 20.31 13.41
1/22/2021 3:00:00 PM 2.47 36.446 0.044 6.96 20.64 13.41
1/22/2021 3:15:00 PM 2.43 36.374 0.044 6.86 20.44 13.41
1/22/2021 3:30:00 PM 2.44 36.392 0.044 6.96 20.7 13.42
1/22/2021 3:45:00 PM 2.43 36.374 0.044 6.96 21.52 13.42
1/22/2021 4:00:00 PM 2.4 36.32 0.044 6.96 20.64 13.39
1/22/2021 4:15:00 PM 2.33 36.194 0.042 6.92 22.86 13.38
1/22/2021 4:30:00 PM 2.33 36.194 0.043 6.93 20.64 13.39
1/22/2021 4:45:00 PM 2.34 36.212 0.042 6.91 23.63 13.38
1/22/2021 5:00:00 PM 2.32 36.176 0.044 6.94 21.09 13.37
1/22/2021 5:15:00 PM 2.28 36.104 0.044 6.94 20.86 13.36
1/22/2021 5:30:00 PM 2.25 36.05 0.044 6.94 20.35 13.36
1/22/2021 5:45:00 PM 2.23 36.014 0.044 6.93 21.45 13.36
1/22/2021 6:00:00 PM 2.2 35.96 0.044 6.93 21.38 13.37
1/22/2021 6:15:00 PM 2.18 35.924 0.044 6.93 20.66 13.37
1/22/2021 6:30:00 PM 2.16 35.888 0.044 6.92 21.69 13.38
1/22/2021 6:45:00 PM 2.13 35.834 0.044 6.92 21.8 13.39
1/22/2021 7:00:00 PM 2.1 35.78 0.042 6.89 21.91 13.4
1/22/2021 7:15:00 PM 2.07 35.726 0.044 6.92 21.01 13.41
1/22/2021 7:30:00 PM 2.04 35.672 0.044 6.92 20.86 13.43
1/22/2021 7:45:00 PM 2.02 35.636 0.042 6.88 21.69 13.44
1/22/2021 8:00:00 PM 2 35.6 0.044 6.92 20.36 13.44
1/22/2021 8:15:00 PM 1.98 35.564 0.042 6.88 20.55 13.45
1/22/2021 8:30:00 PM 1.96 35.528 0.044 6.92 21 13.46
1/22/2021 8:45:00 PM 1.93 35.474 0.042 6.86 20.86 13.47
1/22/2021 9:00:00 PM 1.92 35.456 0.044 6.92 22.09 13.48
1/22/2021 9:15:00 PM 1.9 35.42 0.042 6.88 21.62 13.5
1/22/2021 9:30:00 PM 1.88 35.384 0.044 6.92 21.9 13.5
1/22/2021 9:45:00 PM 1.84 35.312 0.043 6.77 21.97 13.51
1/22/2021 10:00:00 PM 1.82 35.276 0.045 6.92 21.38 13.52
1/22/2021 10:15:00 PM 1.79 35.222 0.044 6.92 21.05 13.54
1/22/2021 10:30:00 PM 1.76 35.168 0.042 6.77 22.43 13.55
1/22/2021 10:45:00 PM 1.73 35.114 0.044 6.92 21.22 13.57
1/22/2021 11:00:00 PM 1.7 35.06 0.043 6.89 22.07 13.58
1/22/2021 11:15:00 PM 1.67 35.006 0.045 6.89 21.02 13.59
1/22/2021 11:30:00 PM 1.64 34.952 0.043 6.9 19.14 13.61
1/22/2021 11:45:00 PM 1.61 34.898 0.045 6.92 21.19 13.62
1/23/2021 12:00:00 AM 1.57 34.826 0.045 6.92 21.53 13.64
1/23/2021 12:15:00 AM 1.54 34.772 0.045 6.92 22.17 13.64
1/23/2021 12:30:00 AM 1.51 34.718 0.045 6.91 21.55 13.66
1/23/2021 12:45:00 AM 1.47 34.646 0.045 6.92 20.43 13.68
1/23/2021 1:00:00 AM 1.44 34.592 0.045 6.92 20.6 13.68
1/23/2021 1:15:00 AM 1.41 34.538 0.045 6.92 20.44 13.71
1/23/2021 1:30:00 AM 1.39 34.502 0.045 6.86 21.47 13.71
1/23/2021 1:45:00 AM 1.36 34.448 0.045 6.91 21.58 13.72
1/23/2021 2:00:00 AM 1.31 34.358 0.043 6.88 20.19 13.74
1/23/2021 2:15:00 AM 1.28 34.304 0.043 6.88 19.62 13.75
1/23/2021 2:30:00 AM 1.25 34.25 0.043 6.88 19.61 13.78
1/23/2021 2:45:00 AM 1.22 34.196 0.045 6.92 21.59 13.79
1/23/2021 3:00:00 AM 1.18 34.124 0.045 6.91 20.8 13.81
1/23/2021 3:15:00 AM 1.15 34.07 0.045 6.91 21.12 13.81
1/23/2021 3:30:00 AM 1.12 34.016 0.043 6.88 19.55 13.83
1/23/2021 3:45:00 AM 1.09 33.962 0.043 6.89 19.48 13.84
1/23/2021 4:00:00 AM 1.04 33.872 0.045 6.91 20.03 13.87
1/23/2021 4:15:00 AM 0.99 33.782 0.045 6.92 20.38 13.88
1/23/2021 4:30:00 AM 0.94 33.692 0.045 6.91 21.08 13.89
1/23/2021 4:45:00 AM 0.89 33.602 0.045 6.92 20.7 13.93
1/23/2021 5:00:00 AM 0.84 33.512 0.045 6.91 20.5 13.94
1/23/2021 5:15:00 AM 0.8 33.44 0.045 6.84 19.69 13.95
1/23/2021 5:30:00 AM 0.75 33.35 0.045 6.91 20.07 13.98
1/23/2021 5:45:00 AM 0.7 33.26 0.045 6.91 20.03 14.01
1/23/2021 6:00:00 AM 0.65 33.17 0.045 6.92 20.6 14.02
1/23/2021 6:15:00 AM 0.61 33.098 0.045 6.9 20.52 14.04
1/23/2021 6:30:00 AM 0.58 33.044 0.043 6.88 21.35 14.06
1/23/2021 6:45:00 AM 0.53 32.954 0.045 6.91 20.91 14.09
1/23/2021 7:00:00 AM 0.51 32.918 0.045 6.91 20.73 14.09
1/23/2021 7:15:00 AM 0.46 32.828 0.043 6.87 19.63 14.12
1/23/2021 7:30:00 AM 0.44 32.792 0.045 6.91 20.2 14.13
1/23/2021 7:45:00 AM 0.43 32.774 0.045 6.91 20.21 14.15
1/23/2021 8:00:00 AM 0.44 32.792 0.045 6.91 20.3 14.18
1/23/2021 8:15:00 AM 0.45 32.81 0.045 6.92 20.4 14.22
1/23/2021 8:30:00 AM 0.49 32.882 0.045 6.91 20.21 14.23
1/23/2021 8:45:00 AM 0.52 32.936 0.045 6.92 20.53 14.26
1/23/2021 9:00:00 AM 0.57 33.026 0.046 6.94 20.7 14.27
1/23/2021 9:15:00 AM 0.59 33.062 0.046 6.94 20.03 14.27
1/23/2021 9:30:00 AM 0.6 33.08 0.045 6.9 20.51 14.27
1/23/2021 9:45:00 AM 0.6 33.08 0.046 6.92 20.65 14.28
1/23/2021 10:00:00 AM 0.62 33.116 0.046 6.95 19.3 14.29
1/23/2021 10:15:00 AM 0.66 33.188 0.046 6.95 21.12 14.3
1/23/2021 10:30:00 AM 0.69 33.242 0.046 6.95 20.65 14.31
1/23/2021 10:45:00 AM 0.76 33.368 0.046 6.95 19.75 14.29
1/23/2021 11:00:00 AM 0.81 33.458 0.046 6.95 19.78 14.29
1/23/2021 11:15:00 AM 0.87 33.566 0.046 6.96 20.11 14.27
1/23/2021 11:30:00 AM 0.96 33.728 0.044 6.91 21.12 14.24
1/23/2021 11:45:00 AM 0.97 33.746 0.047 6.93 20.11 14.24
1/23/2021 12:00:00 PM 0.94 33.692 0.047 6.97 20.15 14.24
1/23/2021 12:15:00 PM 0.93 33.674 0.045 6.93 20.8 14.23
1/23/2021 12:30:00 PM 0.93 33.674 0.048 6.97 20.77 14.25
1/23/2021 12:45:00 PM 0.94 33.692 0.048 6.98 19.96 14.23
1/23/2021 1:00:00 PM 0.93 33.674 0.048 6.98 19.6 14.23
1/23/2021 1:15:00 PM 0.94 33.692 0.048 6.97 20.02 14.22
1/23/2021 1:30:00 PM 0.95 33.71 0.046 6.93 20.03 14.23
1/23/2021 1:45:00 PM 0.97 33.746 0.047 6.98 19.59 14.23
1/23/2021 2:00:00 PM 0.99 33.782 0.047 6.98 20.15 14.23
1/23/2021 2:15:00 PM 0.99 33.782 0.045 6.93 18.86 14.22
1/23/2021 2:30:00 PM 0.96 33.728 0.047 6.97 19.67 14.22
1/23/2021 2:45:00 PM 0.94 33.692 0.047 6.89 19.5 14.22
1/23/2021 3:00:00 PM 0.98 33.764 0.047 6.98 19.77 14.22
1/23/2021 3:15:00 PM 1.02 33.836 0.046 6.98 19.62 14.21
1/23/2021 3:30:00 PM 1.02 33.836 0.046 6.98 19.54 14.2
1/23/2021 3:45:00 PM 0.99 33.782 0.044 6.94 19.42 14.2
1/23/2021 4:00:00 PM 0.94 33.692 0.046 6.98 20.3 14.2
1/23/2021 4:15:00 PM 0.85 33.53 0.045 6.97 21.06 14.22
1/23/2021 4:30:00 PM 0.77 33.386 0.045 6.96 20.43 14.22
1/23/2021 4:45:00 PM 0.72 33.296 0.044 6.9 20.05 14.22
1/23/2021 5:00:00 PM 0.66 33.188 0.043 6.91 21.69 14.2
1/23/2021 5:15:00 PM 0.61 33.098 0.045 6.93 20.5 14.19
1/23/2021 5:30:00 PM 0.54 32.972 0.045 6.93 20.69 14.2
1/23/2021 5:45:00 PM 0.49 32.882 0.046 6.92 20.85 14.2
1/23/2021 6:00:00 PM 0.46 32.828 0.046 6.92 20.24 14.19
1/23/2021 6:15:00 PM 0.44 32.792 0.044 6.87 18.45 14.21
1/23/2021 6:30:00 PM 0.42 32.756 0.046 6.92 20.75 14.21
1/23/2021 6:45:00 PM 0.4 32.72 0.046 6.91 21.16 14.22
1/23/2021 7:00:00 PM 0.38 32.684 0.046 6.92 21.55 14.21
1/23/2021 7:15:00 PM 0.36 32.648 0.046 6.88 21.35 14.22
1/23/2021 7:30:00 PM 0.34 32.612 0.046 6.91 21.06 14.23
1/23/2021 7:45:00 PM 0.33 32.594 0.045 6.91 21.96 14.23
1/23/2021 8:00:00 PM 0.33 32.594 0.045 6.9 21.57 14.22
1/23/2021 8:15:00 PM 0.33 32.594 0.045 6.88 21.87 14.23
1/23/2021 8:30:00 PM 0.32 32.576 0.045 6.9 22.75 14.22
1/23/2021 8:45:00 PM 0.33 32.594 0.045 6.9 22.52 14.23
1/23/2021 9:00:00 PM 0.32 32.576 0.045 6.89 22.8 14.21
1/23/2021 9:15:00 PM 0.33 32.594 0.043 6.83 22.58 14.21
1/23/2021 9:30:00 PM 0.32 32.576 0.044 6.86 23.61 14.22
1/23/2021 9:45:00 PM 0.29 32.522 0.043 6.84 23.98 14.21
1/23/2021 10:00:00 PM 0.28 32.504 0.045 6.89 23.2 14.21
1/23/2021 10:15:00 PM 0.29 32.522 0.046 6.88 23.97 14.21
1/23/2021 10:30:00 PM 0.31 32.558 0.046 6.89 23.6 14.2
1/23/2021 10:45:00 PM 0.34 32.612 0.044 6.85 20.42 14.18
1/23/2021 11:00:00 PM 0.36 32.648 0.044 6.86 29.76 14.18
1/23/2021 11:15:00 PM 0.37 32.666 0.047 6.89 22.25 14.16
1/23/2021 11:30:00 PM 0.4 32.72 0.047 6.89 23.13 14.16
1/23/2021 11:45:00 PM 0.42 32.756 0.047 6.89 23.46 14.14
1/24/2021 12:00:00 AM 0.43 32.774 0.047 6.89 22.92 14.13
1/24/2021 12:15:00 AM 0.45 32.81 0.047 6.9 22.34 14.13
1/24/2021 12:30:00 AM 0.46 32.828 0.047 6.8 23.78 14.12
1/24/2021 12:45:00 AM 0.49 32.882 0.045 6.87 22.17 14.11
1/24/2021 1:00:00 AM 0.47 32.846 0.048 6.89 22.94 14.09
1/24/2021 1:15:00 AM 0.44 32.792 0.048 6.81 22.26 14.1
1/24/2021 1:30:00 AM 0.42 32.756 0.046 6.87 21.09 14.11
1/24/2021 1:45:00 AM 0.41 32.738 0.048 6.9 21.96 14.11
1/24/2021 2:00:00 AM 0.42 32.756 0.048 6.9 21.95 14.12
1/24/2021 2:15:00 AM 0.42 32.756 0.046 6.86 23.9 14.12
1/24/2021 2:30:00 AM 0.42 32.756 0.049 6.9 21.92 14.1
1/24/2021 2:45:00 AM 0.4 32.72 0.049 6.83 20.58 14.11
1/24/2021 3:00:00 AM 0.4 32.72 0.049 6.91 21.07 14.11
1/24/2021 3:15:00 AM 0.38 32.684 0.049 6.91 20.98 14.13
1/24/2021 3:30:00 AM 0.4 32.72 0.049 6.91 20.9 14.13
1/24/2021 3:45:00 AM 0.39 32.702 0.05 6.9 20.54 14.12
1/24/2021 4:00:00 AM 0.39 32.702 0.05 6.91 19.91 14.1
1/24/2021 4:15:00 AM 0.38 32.684 0.05 6.92 19.5 14.13
1/24/2021 4:30:00 AM 0.35 32.63 0.05 6.93 19.65 14.15
1/24/2021 4:45:00 AM 0.38 32.684 0.05 6.89 19.57 14.12
1/24/2021 5:00:00 AM 0.36 32.648 0.05 6.92 19.9 14.13
1/24/2021 5:15:00 AM 0.34 32.612 0.05 6.92 20.18 14.14
1/24/2021 5:30:00 AM 0.36 32.648 0.05 6.92 19.37 14.13
1/24/2021 5:45:00 AM 0.37 32.666 0.05 6.9 19.75 14.14
1/24/2021 6:00:00 AM 0.37 32.666 0.05 6.92 19.34 14.14
1/24/2021 6:15:00 AM 0.38 32.684 0.051 6.92 19.37 14.13
1/24/2021 6:30:00 AM 0.43 32.774 0.051 6.91 19.44 14.1
1/24/2021 6:45:00 AM 0.44 32.792 0.051 6.93 19.13 14.1
1/24/2021 7:00:00 AM 0.44 32.792 0.051 6.93 19.4 14.1
1/24/2021 7:15:00 AM 0.44 32.792 0.051 6.93 19.58 14.12
1/24/2021 7:30:00 AM 0.44 32.792 0.051 6.86 19.05 14.12
1/24/2021 7:45:00 AM 0.47 32.846 0.049 6.91 19.07 14.11
1/24/2021 8:00:00 AM 0.47 32.846 0.049 6.9 19.28 14.13
1/24/2021 8:15:00 AM 0.46 32.828 0.051 6.94 19.32 14.19
1/24/2021 8:30:00 AM 0.46 32.828 0.052 6.94 19.62 14.2
1/24/2021 8:45:00 AM 0.48 32.864 0.051 6.95 19.01 14.23
1/24/2021 9:00:00 AM 0.49 32.882 0.052 6.96 19.33 14.26
1/24/2021 9:15:00 AM 0.5 32.9 0.052 6.97 19.43 14.28
1/24/2021 9:30:00 AM 0.49 32.882 0.049 6.95 18.04 14.29
1/24/2021 9:45:00 AM 0.51 32.918 0.052 6.98 19.08 14.31
1/24/2021 10:00:00 AM 0.56 33.008 0.052 6.98 18.96 14.31
1/24/2021 10:15:00 AM 0.61 33.098 0.052 6.99 19.03 14.32
1/24/2021 10:30:00 AM 0.69 33.242 0.05 6.95 17.91 14.31
1/24/2021 10:45:00 AM 0.73 33.314 0.052 6.99 19.22 14.3
1/24/2021 11:00:00 AM 0.75 33.35 0.052 6.99 19.05 14.3
1/24/2021 11:15:00 AM 0.81 33.458 0.052 7 19.41 14.28
1/24/2021 11:30:00 AM 0.86 33.548 0.052 7.01 19.03 14.28
1/24/2021 11:45:00 AM 0.93 33.674 0.053 7 19.25 14.25
1/24/2021 12:00:00 PM 0.99 33.782 0.053 7.01 19.13 14.25
1/24/2021 12:15:00 PM 1.03 33.854 0.053 7.02 19.31 14.25
1/24/2021 12:30:00 PM 1.09 33.962 0.05 6.98 18.39 14.24
1/24/2021 12:45:00 PM 1.12 34.016 0.053 7.01 18.95 14.23
1/24/2021 1:00:00 PM 1.05 33.89 0.053 7.03 19.43 14.23
1/24/2021 1:15:00 PM 0.96 33.728 0.053 7.02 20.08 14.26
1/24/2021 1:30:00 PM 0.94 33.692 0.052 6.94 19.54 14.27
1/24/2021 1:45:00 PM 0.97 33.746 0.05 7 18.67 14.27
1/24/2021 2:00:00 PM 0.95 33.71 0.052 6.99 19.89 14.26
1/24/2021 2:15:00 PM 0.91 33.638 0.052 7.03 19.91 14.28
1/24/2021 2:30:00 PM 0.92 33.656 0.052 7.02 19.95 14.26
1/24/2021 2:45:00 PM 0.92 33.656 0.052 7.03 19.78 14.27
1/24/2021 3:00:00 PM 0.9 33.62 0.05 7 20.6 14.27
1/24/2021 3:15:00 PM 0.86 33.548 0.052 7.03 20.55 14.28
1/24/2021 3:30:00 PM 0.83 33.494 0.049 7 19.73 14.28
1/24/2021 3:45:00 PM 0.79 33.422 0.051 7.03 20.09 14.31
1/24/2021 4:00:00 PM 0.74 33.332 0.05 7.03 20.24 14.33
1/24/2021 4:15:00 PM 0.71 33.278 0.05 7.03 20.78 14.33
1/24/2021 4:30:00 PM 0.66 33.188 0.05 7.02 20.97 14.31
1/24/2021 4:45:00 PM 0.62 33.116 0.049 7.01 21.04 14.31
1/24/2021 5:00:00 PM 0.58 33.044 0.049 7 21.01 14.28
1/24/2021 5:15:00 PM 0.54 32.972 0.048 6.99 20.67 14.27
1/24/2021 5:30:00 PM 0.53 32.954 0.048 6.98 21.87 14.24
1/24/2021 5:45:00 PM 0.51 32.918 0.048 6.9 20.75 14.23
1/24/2021 6:00:00 PM 0.5 32.9 0.045 6.94 20.49 14.21
1/24/2021 6:15:00 PM 0.49 32.882 0.045 6.91 21.1 14.2
1/24/2021 6:30:00 PM 0.48 32.864 0.047 6.95 22.23 14.2
1/24/2021 6:45:00 PM 0.47 32.846 0.045 6.9 21.74 14.19
1/24/2021 7:00:00 PM 0.47 32.846 0.047 6.94 22.11 14.19
1/24/2021 7:15:00 PM 0.47 32.846 0.044 6.89 22.07 14.2
1/24/2021 7:30:00 PM 0.46 32.828 0.046 6.87 22.92 14.18
1/24/2021 7:45:00 PM 0.45 32.81 0.046 6.93 23.01 14.2
1/24/2021 8:00:00 PM 0.44 32.792 0.046 6.85 22.26 14.19
1/24/2021 8:15:00 PM 0.43 32.774 0.046 6.93 22.91 14.2
1/24/2021 8:30:00 PM 0.42 32.756 0.046 6.93 23.62 14.19
1/24/2021 8:45:00 PM 0.41 32.738 0.046 6.93 24.26 14.19
1/24/2021 9:00:00 PM 0.4 32.72 0.046 6.93 22.54 14.19
1/24/2021 9:15:00 PM 0.39 32.702 0.046 6.86 22.63 14.19
1/24/2021 9:30:00 PM 0.39 32.702 0.046 6.92 22.45 14.19
1/24/2021 9:45:00 PM 0.38 32.684 0.044 6.87 23.62 14.18
1/24/2021 10:00:00 PM 0.38 32.684 0.046 6.92 24.25 14.18
1/24/2021 10:15:00 PM 0.38 32.684 0.046 6.83 24.66 14.18
1/24/2021 10:30:00 PM 0.37 32.666 0.046 6.92 24.77 14.19
1/24/2021 10:45:00 PM 0.38 32.684 0.044 6.87 24 14.17
1/24/2021 11:00:00 PM 0.38 32.684 0.046 6.92 24.29 14.19
1/24/2021 11:15:00 PM 0.38 32.684 0.047 6.91 25.35 14.16
1/24/2021 11:30:00 PM 0.4 32.72 0.046 6.92 25.4 14.16
1/24/2021 11:45:00 PM 0.41 32.738 0.046 6.91 24.38 14.17
1/25/2021 12:00:00 AM 0.44 32.792 0.047 6.91 24.45 14.14
1/25/2021 12:15:00 AM 0.46 32.828 0.047 6.91 25.41 14.14
1/25/2021 12:30:00 AM 0.47 32.846 0.047 6.91 25.12 14.14
1/25/2021 12:45:00 AM 0.48 32.864 0.047 6.91 24.42 14.12
1/25/2021 1:00:00 AM 0.5 32.9 0.045 6.86 22.92 14.11
1/25/2021 1:15:00 AM 0.5 32.9 0.047 6.91 23.93 14.12
1/25/2021 1:30:00 AM 0.52 32.936 0.047 6.91 25.31 14.1
1/25/2021 1:45:00 AM 0.52 32.936 0.047 6.91 28.97 14.11
1/25/2021 2:00:00 AM 0.52 32.936 0.045 6.88 24.12 14.1
1/25/2021 2:15:00 AM 0.5 32.9 0.045 6.87 25.61 14.11
1/25/2021 2:30:00 AM 0.48 32.864 0.045 6.87 24.05 14.11
1/25/2021 2:45:00 AM 0.46 32.828 0.045 6.85 28.69 14.12
1/25/2021 3:00:00 AM 0.44 32.792 0.048 6.91 24.7 14.12
1/25/2021 3:15:00 AM 0.42 32.756 0.048 6.91 24.8 14.12
1/25/2021 3:30:00 AM 0.4 32.72 0.048 6.91 24.46 14.13
1/25/2021 3:45:00 AM 0.38 32.684 0.048 6.91 23.41 14.14
1/25/2021 4:00:00 AM 0.37 32.666 0.048 6.91 23.27 14.13
1/25/2021 4:15:00 AM 0.37 32.666 0.046 6.88 23.01 14.13
1/25/2021 4:30:00 AM 0.38 32.684 0.048 6.91 24.5 14.12
1/25/2021 4:45:00 AM 0.37 32.666 0.048 6.91 23.34 14.11
1/25/2021 5:00:00 AM 0.36 32.648 0.048 6.85 23.4 14.13
1/25/2021 5:15:00 AM 0.36 32.648 0.048 6.91 22.76 14.13
1/25/2021 5:30:00 AM 0.34 32.612 0.048 6.91 24.42 14.14
1/25/2021 5:45:00 AM 0.32 32.576 0.048 6.91 24.21 14.13
1/25/2021 6:00:00 AM 0.31 32.558 0.048 6.91 24.44 14.14
1/25/2021 6:15:00 AM 0.31 32.558 0.048 6.91 23.03 14.13
1/25/2021 6:30:00 AM 0.29 32.522 0.048 6.9 23.94 14.14
1/25/2021 6:45:00 AM 0.29 32.522 0.048 6.86 22.89 14.14
1/25/2021 7:00:00 AM 0.28 32.504 0.048 6.9 23.35 14.15
1/25/2021 7:15:00 AM 0.27 32.486 0.048 6.88 21.85 14.15
1/25/2021 7:30:00 AM 0.28 32.504 0.048 6.9 22.6 14.16
1/25/2021 7:45:00 AM 0.29 32.522 0.046 6.86 20.59 14.16
1/25/2021 8:00:00 AM 0.3 32.54 0.048 6.84 22.72 14.2
1/25/2021 8:15:00 AM 0.31 32.558 0.048 6.91 22.96 14.22
1/25/2021 8:30:00 AM 0.32 32.576 0.048 6.93 21.65 14.26
1/25/2021 8:45:00 AM 0.35 32.63 0.046 6.88 20.36 14.26
1/25/2021 9:00:00 AM 0.37 32.666 0.048 6.93 22.4 14.29
1/25/2021 9:15:00 AM 0.39 32.702 0.048 6.93 21.75 14.31
1/25/2021 9:30:00 AM 0.44 32.792 0.048 6.94 20.76 14.31
1/25/2021 9:45:00 AM 0.48 32.864 0.048 6.94 22.11 14.31
1/25/2021 10:00:00 AM 0.53 32.954 0.048 6.95 21.93 14.31
1/25/2021 10:15:00 AM 0.58 33.044 0.048 6.96 21.49 14.31
1/25/2021 10:30:00 AM 0.64 33.152 0.048 6.95 21.86 14.3
1/25/2021 10:45:00 AM 0.71 33.278 0.049 6.96 20.67 14.29
1/25/2021 11:00:00 AM 0.8 33.44 0.048 6.93 21.78 14.27
1/25/2021 11:15:00 AM 0.9 33.62 0.049 6.97 20.74 14.25
1/25/2021 11:30:00 AM 0.99 33.782 0.047 6.94 21.83 14.25
1/25/2021 11:45:00 AM 1.04 33.872 0.049 6.98 20.51 14.22
1/25/2021 12:00:00 PM 1.09 33.962 0.049 6.99 21.04 14.21
1/25/2021 12:15:00 PM 1.15 34.07 0.048 6.95 19.97 14.19
1/25/2021 12:30:00 PM 1.2 34.16 0.05 7.01 21.16 14.19
1/25/2021 12:45:00 PM 1.24 34.232 0.05 7.01 21.47 14.19
1/25/2021 1:00:00 PM 1.3 34.34 0.05 7.02 21 14.17
1/25/2021 1:15:00 PM 1.36 34.448 0.05 7.03 21.38 14.17
1/25/2021 1:30:00 PM 1.33 34.394 0.05 7.03 21.29 14.16
1/25/2021 1:45:00 PM 1.25 34.25 0.048 6.99 19.47 14.18
1/25/2021 2:00:00 PM 1.23 34.214 0.05 7.04 21.36 14.18
1/25/2021 2:15:00 PM 1.22 34.196 0.048 7 21.52 14.19
1/25/2021 2:30:00 PM 1.19 34.142 0.05 7.05 20.83 14.2
1/25/2021 2:45:00 PM 1.15 34.07 0.05 7.05 20.58 14.21
1/25/2021 3:00:00 PM 1.09 33.962 0.048 7.01 20.27 14.21
1/25/2021 3:15:00 PM 1.05 33.89 0.05 7.04 21.84 14.23
1/25/2021 3:30:00 PM 0.99 33.782 0.047 7 21.02 14.24
1/25/2021 3:45:00 PM 0.93 33.674 0.049 7.01 21.65 14.25
1/25/2021 4:00:00 PM 0.88 33.584 0.048 7.03 20.66 14.26
1/25/2021 4:15:00 PM 0.82 33.476 0.047 7.02 21.76 14.25
1/25/2021 4:30:00 PM 0.79 33.422 0.045 6.97 21.01 14.24
1/25/2021 4:45:00 PM 0.75 33.35 0.046 6.99 21.47 14.23
1/25/2021 5:00:00 PM 0.71 33.278 0.046 6.96 22.07 14.21
1/25/2021 5:15:00 PM 0.68 33.224 0.045 6.89 22.31 14.18
1/25/2021 5:30:00 PM 0.65 33.17 0.045 6.95 22.3 14.17
1/25/2021 5:45:00 PM 0.63 33.134 0.045 6.94 23.43 14.15
1/25/2021 6:00:00 PM 0.63 33.134 0.043 6.9 23.99 14.13
1/25/2021 6:15:00 PM 0.61 33.098 0.045 6.93 22.33 14.13
1/25/2021 6:30:00 PM 0.61 33.098 0.045 6.93 22.6 14.12
1/25/2021 6:45:00 PM 0.61 33.098 0.045 6.92 23.06 14.11
1/25/2021 7:00:00 PM 0.6 33.08 0.043 6.88 24.22 14.11
1/25/2021 7:15:00 PM 0.61 33.098 0.045 6.91 23.37 14.1
1/25/2021 7:30:00 PM 0.61 33.098 0.044 6.92 22.26 14.1
1/25/2021 7:45:00 PM 0.61 33.098 0.044 6.84 23.03 14.1
1/25/2021 8:00:00 PM 0.62 33.116 0.044 6.91 23.8 14.09
1/25/2021 8:15:00 PM 0.62 33.116 0.042 6.86 22.88 14.09
1/25/2021 8:30:00 PM 0.62 33.116 0.044 6.91 22.51 14.1
1/25/2021 8:45:00 PM 0.63 33.134 0.044 6.89 22.7 14.09
1/25/2021 9:00:00 PM 0.63 33.134 0.044 6.91 23.16 14.08
1/25/2021 9:15:00 PM 0.63 33.134 0.042 6.86 25.04 14.08
1/25/2021 9:30:00 PM 0.63 33.134 0.044 6.89 23.24 14.08
1/25/2021 9:45:00 PM 0.63 33.134 0.044 6.91 23.17 14.07
1/25/2021 10:00:00 PM 0.63 33.134 0.044 6.91 23.87 14.09
1/25/2021 10:15:00 PM 0.64 33.152 0.044 6.91 22.79 14.07
1/25/2021 10:30:00 PM 0.65 33.17 0.044 6.91 23.39 14.08
1/25/2021 10:45:00 PM 0.64 33.152 0.044 6.91 25.72 14.08
1/25/2021 11:00:00 PM 0.65 33.17 0.044 6.91 24.65 14.07
1/25/2021 11:15:00 PM 0.66 33.188 0.044 6.9 24.98 14.07
1/25/2021 11:30:00 PM 0.66 33.188 0.042 6.86 30.07 14.07
1/25/2021 11:45:00 PM 0.66 33.188 0.044 6.89 24.24 14.07
1/26/2021 12:00:00 AM 0.67 33.206 0.043 6.86 26.22 14.06
1/26/2021 12:15:00 AM 0.67 33.206 0.044 6.86 23.89 14.06
1/26/2021 12:30:00 AM 0.67 33.206 0.043 6.86 23.8 14.05
1/26/2021 12:45:00 AM 0.67 33.206 0.045 6.91 25.36 14.06
1/26/2021 1:00:00 AM 0.68 33.224 0.043 6.85 23.52 14.05
1/26/2021 1:15:00 AM 0.68 33.224 0.045 6.91 24.29 14.04
1/26/2021 1:30:00 AM 0.68 33.224 0.045 6.9 23.55 14.05
1/26/2021 1:45:00 AM 0.68 33.224 0.045 6.85 23.37 14.04
1/26/2021 2:00:00 AM 0.69 33.242 0.045 6.91 25.37 14.03
1/26/2021 2:15:00 AM 0.69 33.242 0.045 6.84 23.3 14.03
1/26/2021 2:30:00 AM 0.69 33.242 0.045 6.9 23.51 14.04
1/26/2021 2:45:00 AM 0.69 33.242 0.045 6.91 23.06 14.04
1/26/2021 3:00:00 AM 0.7 33.26 0.045 6.86 23.58 14.03
1/26/2021 3:15:00 AM 0.7 33.26 0.045 6.88 23.78 14.03
1/26/2021 3:30:00 AM 0.7 33.26 0.045 6.91 22.82 14.03
1/26/2021 3:45:00 AM 0.7 33.26 0.045 6.91 23.1 14.02
1/26/2021 4:00:00 AM 0.7 33.26 0.045 6.91 23.39 14.02
1/26/2021 4:15:00 AM 0.71 33.278 0.043 6.86 21.83 14.01
1/26/2021 4:30:00 AM 0.71 33.278 0.045 6.91 22.34 14.01
1/26/2021 4:45:00 AM 0.71 33.278 0.045 6.91 21.12 14.01
1/26/2021 5:00:00 AM 0.71 33.278 0.045 6.91 22.06 14
1/26/2021 5:15:00 AM 0.72 33.296 0.045 6.92 21.81 14
1/26/2021 5:30:00 AM 0.73 33.314 0.045 6.91 21.6 14
1/26/2021 5:45:00 AM 0.73 33.314 0.045 6.91 22.25 13.99
1/26/2021 6:00:00 AM 0.72 33.296 0.045 6.91 21.45 13.99
1/26/2021 6:15:00 AM 0.72 33.296 0.045 6.91 22.04 13.99
1/26/2021 6:30:00 AM 0.72 33.296 0.045 6.9 22.45 13.99
1/26/2021 6:45:00 AM 0.72 33.296 0.045 6.91 21.69 13.99
1/26/2021 7:00:00 AM 0.72 33.296 0.045 6.92 21.78 13.98
1/26/2021 7:15:00 AM 0.73 33.314 0.045 6.91 21.18 13.99
1/26/2021 7:30:00 AM 0.73 33.314 0.045 6.92 21.63 13.98
1/26/2021 7:45:00 AM 0.74 33.332 0.045 6.91 20.83 13.99
1/26/2021 8:00:00 AM 0.74 33.332 0.045 6.91 20.82 14
1/26/2021 8:15:00 AM 0.75 33.35 0.044 6.9 22.07 14
1/26/2021 8:30:00 AM 0.71 33.278 0.045 6.93 21.66 14.02
1/26/2021 8:45:00 AM 0.71 33.278 0.045 6.93 21.46 14.03
1/26/2021 9:00:00 AM 0.68 33.224 0.045 6.84 21.95 14.06
1/26/2021 9:15:00 AM 0.68 33.224 0.045 6.94 21.77 14.08
1/26/2021 9:30:00 AM 0.67 33.206 0.043 6.91 21.94 14.1
1/26/2021 9:45:00 AM 0.63 33.134 0.045 6.95 21.49 14.12
1/26/2021 10:00:00 AM 0.51 32.918 0.045 6.96 21.36 14.14
1/26/2021 10:15:00 AM 0.46 32.828 0.043 6.92 22.16 14.18
1/26/2021 10:30:00 AM 0.35 32.63 0.045 6.97 21.66 14.23
1/26/2021 10:45:00 AM 0.34 32.612 0.045 6.97 21.72 14.27
1/26/2021 11:00:00 AM 0.3 32.54 0.045 6.97 21.77 14.28
1/26/2021 11:15:00 AM 0.29 32.522 0.043 6.93 21 14.3
1/26/2021 11:30:00 AM 0.37 32.666 0.045 6.96 21.12 14.3
1/26/2021 11:45:00 AM 0.43 32.774 0.045 6.97 21.02 14.3
1/26/2021 12:00:00 PM 0.44 32.792 0.045 6.98 22.13 14.28
1/26/2021 12:15:00 PM 0.49 32.882 0.045 6.98 21.87 14.27
1/26/2021 12:30:00 PM 0.5 32.9 0.045 6.97 21.71 14.25
1/26/2021 12:45:00 PM 0.54 32.972 0.045 6.98 20.79 14.25
1/26/2021 1:00:00 PM 0.59 33.062 0.043 6.89 20.03 14.23
1/26/2021 1:15:00 PM 0.64 33.152 0.045 6.98 22.15 14.22
1/26/2021 1:30:00 PM 0.67 33.206 0.045 6.99 21.49 14.22
1/26/2021 1:45:00 PM 0.65 33.17 0.045 6.98 21.75 14.19
1/26/2021 2:00:00 PM 0.64 33.152 0.045 6.98 21.15 14.19
1/26/2021 2:15:00 PM 0.67 33.206 0.046 6.98 21.56 14.19
1/26/2021 2:30:00 PM 0.64 33.152 0.046 6.99 20.78 14.17
1/26/2021 2:45:00 PM 0.58 33.044 0.046 6.98 20.57 14.17
1/26/2021 3:00:00 PM 0.59 33.062 0.046 6.98 20.65 14.17
1/26/2021 3:15:00 PM 0.56 33.008 0.044 6.93 21.54 14.17
1/26/2021 3:30:00 PM 0.54 32.972 0.046 6.98 20.85 14.18
1/26/2021 3:45:00 PM 0.56 33.008 0.044 6.95 22.27 14.18
1/26/2021 4:00:00 PM 0.59 33.062 0.046 6.9 20.38 14.16
1/26/2021 4:15:00 PM 0.61 33.098 0.046 6.97 20.27 14.14
1/26/2021 4:30:00 PM 0.64 33.152 0.046 6.96 21.45 14.09
1/26/2021 4:45:00 PM 0.68 33.224 0.046 6.95 21.23 14.07
1/26/2021 5:00:00 PM 0.71 33.278 0.046 6.94 20.47 14.03
1/26/2021 5:15:00 PM 0.74 33.332 0.046 6.94 20.78 14.01
1/26/2021 5:30:00 PM 0.75 33.35 0.046 6.88 20.95 13.98
1/26/2021 5:45:00 PM 0.76 33.368 0.046 6.93 20.53 13.97
1/26/2021 6:00:00 PM 0.76 33.368 0.046 6.87 21.77 13.95
1/26/2021 6:15:00 PM 0.77 33.386 0.045 6.91 22.49 13.95
1/26/2021 6:30:00 PM 0.76 33.368 0.046 6.92 20.91 13.94
1/26/2021 6:45:00 PM 0.74 33.332 0.046 6.93 20.66 13.94
1/26/2021 7:00:00 PM 0.73 33.314 0.047 6.92 21.16 13.93
1/26/2021 7:15:00 PM 0.72 33.296 0.046 6.93 20.73 13.94
1/26/2021 7:30:00 PM 0.73 33.314 0.047 6.83 20.71 13.94
1/26/2021 7:45:00 PM 0.67 33.206 0.044 6.91 20.69 13.93
1/26/2021 8:00:00 PM 0.64 33.152 0.047 6.93 20.84 13.93
1/26/2021 8:15:00 PM 0.64 33.152 0.046 6.93 21.02 13.95
1/26/2021 8:30:00 PM 0.66 33.188 0.044 6.88 19.04 13.95
1/26/2021 8:45:00 PM 0.68 33.224 0.046 6.93 20.99 13.95
1/26/2021 9:00:00 PM 0.69 33.242 0.046 6.92 21.09 13.94
1/26/2021 9:15:00 PM 0.71 33.278 0.046 6.92 20.84 13.93
1/26/2021 9:30:00 PM 0.73 33.314 0.047 6.92 20.13 13.93
1/26/2021 9:45:00 PM 0.74 33.332 0.046 6.92 20.34 13.93
1/26/2021 10:00:00 PM 0.76 33.368 0.046 6.93 20.31 13.91
1/26/2021 10:15:00 PM 0.76 33.368 0.046 6.93 21.47 13.92
1/26/2021 10:30:00 PM 0.77 33.386 0.046 6.91 20.27 13.91
1/26/2021 10:45:00 PM 0.77 33.386 0.047 6.93 20.26 13.92
1/26/2021 11:00:00 PM 0.78 33.404 0.047 6.85 20.94 13.91
1/26/2021 11:15:00 PM 0.78 33.404 0.046 6.93 20.16 13.91
1/26/2021 11:30:00 PM 0.79 33.422 0.046 6.93 20.7 13.92
1/26/2021 11:45:00 PM 0.79 33.422 0.046 6.93 20.76 13.92
1/27/2021 12:00:00 AM 0.8 33.44 0.047 6.93 20.65 13.9
1/27/2021 12:15:00 AM 0.8 33.44 0.046 6.93 20.42 13.91
1/27/2021 12:30:00 AM 0.82 33.476 0.047 6.93 20.34 13.9
1/27/2021 12:45:00 AM 0.81 33.458 0.046 6.87 19.67 13.9
1/27/2021 1:00:00 AM 0.82 33.476 0.047 6.93 20.69 13.9
1/27/2021 1:15:00 AM 0.82 33.476 0.047 6.93 20.79 13.89
1/27/2021 1:30:00 AM 0.81 33.458 0.044 6.89 20.37 13.9
1/27/2021 1:45:00 AM 0.82 33.476 0.047 6.84 20.33 13.9
1/27/2021 2:00:00 AM 0.81 33.458 0.047 6.92 20.3 13.9
1/27/2021 2:15:00 AM 0.82 33.476 0.047 6.92 19.84 13.9
1/27/2021 2:30:00 AM 0.83 33.494 0.047 6.92 21.24 13.9
1/27/2021 2:45:00 AM 0.82 33.476 0.047 6.92 20.37 13.91
1/27/2021 3:00:00 AM 0.82 33.476 0.046 6.92 20.23 13.91
1/27/2021 3:15:00 AM 0.77 33.386 0.046 6.88 20.21 13.91
1/27/2021 3:30:00 AM 0.75 33.35 0.046 6.93 20.79 13.91
1/27/2021 3:45:00 AM 0.77 33.386 0.047 6.92 20.46 13.93
1/27/2021 4:00:00 AM 0.77 33.386 0.044 6.87 20.88 13.93
1/27/2021 4:15:00 AM 0.78 33.404 0.046 6.84 20.64 13.93
1/27/2021 4:30:00 AM 0.78 33.404 0.046 6.9 19.96 13.94
1/27/2021 4:45:00 AM 0.8 33.44 0.046 6.86 20.2 13.93
1/27/2021 5:00:00 AM 0.8 33.44 0.046 6.93 20.73 13.94
1/27/2021 5:15:00 AM 0.81 33.458 0.046 6.93 20.59 13.95
1/27/2021 5:30:00 AM 0.8 33.44 0.044 6.91 19.72 13.94
1/27/2021 5:45:00 AM 0.79 33.422 0.047 6.94 20.16 13.95
1/27/2021 6:00:00 AM 0.78 33.404 0.047 6.92 21.05 13.97
1/27/2021 6:15:00 AM 0.77 33.386 0.047 6.94 20.69 13.96
1/27/2021 6:30:00 AM 0.76 33.368 0.047 6.94 20.24 13.98
1/27/2021 6:45:00 AM 0.75 33.35 0.047 6.93 20.16 13.98
1/27/2021 7:00:00 AM 0.73 33.314 0.047 6.88 21.47 13.98
1/27/2021 7:15:00 AM 0.72 33.296 0.046 6.94 20.32 14
1/27/2021 7:30:00 AM 0.71 33.278 0.046 6.94 21.14 14.01
1/27/2021 7:45:00 AM 0.71 33.278 0.046 6.94 20.53 14.02
1/27/2021 8:00:00 AM 0.7 33.26 0.046 6.94 20.13 14.05
1/27/2021 8:15:00 AM 0.7 33.26 0.047 6.95 21.01 14.07
1/27/2021 8:30:00 AM 0.7 33.26 0.046 6.95 20.56 14.09
1/27/2021 8:45:00 AM 0.71 33.278 0.047 6.96 20.24 14.12
1/27/2021 9:00:00 AM 0.73 33.314 0.047 6.97 20.32 14.16
1/27/2021 9:15:00 AM 0.75 33.35 0.047 6.98 19.76 14.2
1/27/2021 9:30:00 AM 0.77 33.386 0.046 6.99 20.14 14.23
1/27/2021 9:45:00 AM 0.8 33.44 0.046 7 20.53 14.25
1/27/2021 10:00:00 AM 0.85 33.53 0.047 7 20.34 14.26
1/27/2021 10:15:00 AM 0.86 33.548 0.045 6.95 22.33 14.26
1/27/2021 10:30:00 AM 0.88 33.584 0.047 7.01 20.64 14.27
1/27/2021 10:45:00 AM 0.93 33.674 0.047 7 20.46 14.27
1/27/2021 11:00:00 AM 0.96 33.728 0.046 7.01 20.43 14.28
1/27/2021 11:15:00 AM 0.98 33.764 0.046 6.94 19.93 14.28
1/27/2021 11:30:00 AM 1.01 33.818 0.046 7.01 20.7 14.26
1/27/2021 11:45:00 AM 1.03 33.854 0.046 7.01 20.28 14.27
1/27/2021 12:00:00 PM 1.05 33.89 0.046 7.02 20.62 14.24
1/27/2021 12:15:00 PM 1.05 33.89 0.047 6.93 20.2 14.25
1/27/2021 12:30:00 PM 1.05 33.89 0.046 7.02 20.29 14.25
1/27/2021 12:45:00 PM 1.04 33.872 0.047 6.96 20.83 14.25
1/27/2021 1:00:00 PM 1.04 33.872 0.047 7.01 20.62 14.25
1/27/2021 1:15:00 PM 1.07 33.926 0.047 7.02 20.73 14.24
1/27/2021 1:30:00 PM 1.07 33.926 0.047 7.02 20.2 14.25
1/27/2021 1:45:00 PM 1.09 33.962 0.047 7.02 20.61 14.24
1/27/2021 2:00:00 PM 1.1 33.98 0.044 6.86 19.65 14.24
1/27/2021 2:15:00 PM 1.12 34.016 0.047 7.02 20.73 14.23
1/27/2021 2:30:00 PM 1.14 34.052 0.045 6.97 19.98 14.21
1/27/2021 2:45:00 PM 1.14 34.052 0.047 7.02 20.48 14.22
1/27/2021 3:00:00 PM 1.13 34.034 0.047 7.02 20.9 14.22
1/27/2021 3:15:00 PM 1.12 34.016 0.044 6.96 21.13 14.19
1/27/2021 3:30:00 PM 1.1 33.98 0.047 7.01 21.04 14.19
1/27/2021 3:45:00 PM 1.09 33.962 0.047 7.01 20.81 14.17
1/27/2021 4:00:00 PM 1.06 33.908 0.044 6.96 21.11 14.17
1/27/2021 4:15:00 PM 1.04 33.872 0.047 7 21.5 14.15
1/27/2021 4:30:00 PM 1.01 33.818 0.045 6.96 20.36 14.13
1/27/2021 4:45:00 PM 0.99 33.782 0.047 6.98 20.24 14.1
1/27/2021 5:00:00 PM 0.97 33.746 0.047 6.97 20.53 14.07
1/27/2021 5:15:00 PM 0.94 33.692 0.047 6.96 20.64 14.04
1/27/2021 5:30:00 PM 0.92 33.656 0.046 6.91 21.11 14.01
1/27/2021 5:45:00 PM 0.9 33.62 0.047 6.93 20.83 14.01
1/27/2021 6:00:00 PM 0.9 33.62 0.047 6.95 21.08 14
1/27/2021 6:15:00 PM 0.89 33.602 0.045 6.91 19.18 13.99
1/27/2021 6:30:00 PM 0.88 33.584 0.047 6.94 21.31 13.99
1/27/2021 6:45:00 PM 0.86 33.548 0.047 6.92 21.26 13.99
1/27/2021 7:00:00 PM 0.86 33.548 0.047 6.93 21.46 13.98
1/27/2021 7:15:00 PM 0.83 33.494 0.047 6.94 20.91 14
1/27/2021 7:30:00 PM 0.84 33.512 0.045 6.89 21.1 13.98
1/27/2021 7:45:00 PM 0.82 33.476 0.047 6.93 20.61 14
1/27/2021 8:00:00 PM 0.8 33.44 0.047 6.93 20.98 14
1/27/2021 8:15:00 PM 0.8 33.44 0.045 6.89 20.08 14
1/27/2021 8:30:00 PM 0.8 33.44 0.047 6.93 20.82 13.99
1/27/2021 8:45:00 PM 0.78 33.404 0.047 6.93 21.03 14
1/27/2021 9:00:00 PM 0.76 33.368 0.047 6.93 20.7 14.01
1/27/2021 9:15:00 PM 0.75 33.35 0.045 6.88 22.31 14.02
1/27/2021 9:30:00 PM 0.74 33.332 0.047 6.86 19.68 14.02
1/27/2021 9:45:00 PM 0.73 33.314 0.045 6.9 21.7 14.03
1/27/2021 10:00:00 PM 0.71 33.278 0.045 6.89 19.35 14.04
1/27/2021 10:15:00 PM 0.69 33.242 0.047 6.93 20.72 14.04
1/27/2021 10:30:00 PM 0.67 33.206 0.045 6.89 21.88 14.04
1/27/2021 10:45:00 PM 0.67 33.206 0.047 6.93 19.72 14.04
1/27/2021 11:00:00 PM 0.66 33.188 0.047 6.91 20.87 14.05
1/27/2021 11:15:00 PM 0.66 33.188 0.047 6.91 20.49 14.05
1/27/2021 11:30:00 PM 0.65 33.17 0.047 6.93 20.89 14.05
1/27/2021 11:45:00 PM 0.63 33.134 0.047 6.85 20.79 14.06
1/28/2021 12:00:00 AM 0.6 33.08 0.047 6.93 20.57 14.07
1/28/2021 12:15:00 AM 0.57 33.026 0.047 6.93 20.41 14.06
1/28/2021 12:30:00 AM 0.53 32.954 0.047 6.93 20.53 14.08
1/28/2021 12:45:00 AM 0.5 32.9 0.045 6.89 20.58 14.08
1/28/2021 1:00:00 AM 0.46 32.828 0.047 6.9 20.09 14.1
1/28/2021 1:15:00 AM 0.43 32.774 0.047 6.9 19.29 14.12
1/28/2021 1:30:00 AM 0.42 32.756 0.048 6.93 20.88 14.11
1/28/2021 1:45:00 AM 0.4 32.72 0.048 6.93 19.9 14.11
1/28/2021 2:00:00 AM 0.37 32.666 0.048 6.94 19.85 14.13
1/28/2021 2:15:00 AM 0.37 32.666 0.048 6.93 19.88 14.13
1/28/2021 2:30:00 AM 0.34 32.612 0.048 6.94 20.19 14.12
1/28/2021 2:45:00 AM 0.35 32.63 0.048 6.93 20.17 14.12
1/28/2021 3:00:00 AM 0.36 32.648 0.048 6.93 20.58 14.11
1/28/2021 3:15:00 AM 0.35 32.63 0.046 6.9 19.8 14.11
1/28/2021 3:30:00 AM 0.36 32.648 0.046 6.88 21.04 14.1
1/28/2021 3:45:00 AM 0.37 32.666 0.048 6.93 19.94 14.11
1/28/2021 4:00:00 AM 0.4 32.72 0.048 6.92 19.99 14.1
1/28/2021 4:15:00 AM 0.42 32.756 0.048 6.92 19.86 14.09
1/28/2021 4:30:00 AM 0.44 32.792 0.048 6.91 20.19 14.07
1/28/2021 4:45:00 AM 0.45 32.81 0.048 6.92 20.07 14.07
1/28/2021 5:00:00 AM 0.46 32.828 0.048 6.91 19.67 14.07
1/28/2021 5:15:00 AM 0.48 32.864 0.048 6.92 20.02 14.06
1/28/2021 5:30:00 AM 0.49 32.882 0.046 6.88 19.05 14.05
1/28/2021 5:45:00 AM 0.49 32.882 0.048 6.85 19.75 14.05
1/28/2021 6:00:00 AM 0.48 32.864 0.048 6.93 19.49 14.06
1/28/2021 6:15:00 AM 0.48 32.864 0.048 6.93 19.06 14.07
1/28/2021 6:30:00 AM 0.47 32.846 0.046 6.89 18.86 14.05
1/28/2021 6:45:00 AM 0.46 32.828 0.048 6.93 19.18 14.08
1/28/2021 7:00:00 AM 0.46 32.828 0.048 6.9 19.62 14.07
1/28/2021 7:15:00 AM 0.42 32.756 0.049 6.84 19.4 14.09
1/28/2021 7:30:00 AM 0.39 32.702 0.049 6.94 18.87 14.12
1/28/2021 7:45:00 AM 0.4 32.72 0.049 6.95 19.38 14.13
1/28/2021 8:00:00 AM 0.41 32.738 0.049 6.95 19.14 14.15
1/28/2021 8:15:00 AM 0.41 32.738 0.049 6.96 19.3 14.18
1/28/2021 8:30:00 AM 0.43 32.774 0.05 6.97 18.94 14.25
1/28/2021 8:45:00 AM 0.45 32.81 0.05 7 18.81 14.31
1/28/2021 9:00:00 AM 0.49 32.882 0.05 7.01 18.79 14.34
1/28/2021 9:15:00 AM 0.54 32.972 0.049 6.97 18.56 14.37
1/28/2021 9:30:00 AM 0.57 33.026 0.05 7.03 19.01 14.4
1/28/2021 9:45:00 AM 0.61 33.098 0.05 7.03 18.84 14.41
1/28/2021 10:00:00 AM 0.67 33.206 0.05 7.03 18.81 14.41
1/28/2021 10:15:00 AM 0.71 33.278 0.048 7 18.46 14.4
1/28/2021 10:30:00 AM 0.73 33.314 0.05 7.03 18.78 14.41
1/28/2021 10:45:00 AM 0.74 33.332 0.05 7.04 18.87 14.41
1/28/2021 11:00:00 AM 0.82 33.476 0.048 7 18.91 14.38
1/28/2021 11:15:00 AM 0.88 33.584 0.05 7.04 19.03 14.39
1/28/2021 11:30:00 AM 0.9 33.62 0.05 7.04 18.91 14.39
1/28/2021 11:45:00 AM 0.92 33.656 0.048 7 18.87 14.38
1/28/2021 12:00:00 PM 1.01 33.818 0.05 7.04 18.84 14.35
1/28/2021 12:15:00 PM 1.08 33.944 0.051 7.05 18.83 14.34
1/28/2021 12:30:00 PM 1.15 34.07 0.051 7.05 18.61 14.32
1/28/2021 12:45:00 PM 1.19 34.142 0.051 7.05 19.15 14.3
1/28/2021 1:00:00 PM 1.2 34.16 0.051 7.05 18.85 14.32
1/28/2021 1:15:00 PM 1.18 34.124 0.051 7.06 18.75 14.31
1/28/2021 1:30:00 PM 1.15 34.07 0.05 7.06 18.78 14.33
1/28/2021 1:45:00 PM 1.1 33.98 0.048 7.02 20.4 14.34
1/28/2021 2:00:00 PM 1.08 33.944 0.051 7.06 19.43 14.33
1/28/2021 2:15:00 PM 1.04 33.872 0.05 7.06 19.53 14.35
1/28/2021 2:30:00 PM 1.01 33.818 0.05 7.05 19.23 14.34
1/28/2021 2:45:00 PM 0.96 33.728 0.05 7.05 19.53 14.35
1/28/2021 3:00:00 PM 0.91 33.638 0.05 6.96 19.06 14.35
1/28/2021 3:15:00 PM 0.83 33.494 0.05 7.05 19.52 14.37
1/28/2021 3:30:00 PM 0.74 33.332 0.05 7.05 19.13 14.38
1/28/2021 3:45:00 PM 0.69 33.242 0.05 7.05 19.38 14.39
1/28/2021 4:00:00 PM 0.65 33.17 0.05 7.04 19.45 14.39
1/28/2021 4:15:00 PM 0.59 33.062 0.05 7.04 19.76 14.4
1/28/2021 4:30:00 PM 0.54 32.972 0.05 7 19.52 14.38
1/28/2021 4:45:00 PM 0.47 32.846 0.047 7.01 19.31 14.37
1/28/2021 5:00:00 PM 0.41 32.738 0.049 7.02 20 14.36
1/28/2021 5:15:00 PM 0.34 32.612 0.049 7 19.58 14.34
1/28/2021 5:30:00 PM 0.31 32.558 0.049 6.99 19.27 14.3
1/28/2021 5:45:00 PM 0.28 32.504 0.048 6.94 20.27 14.27
1/28/2021 6:00:00 PM 0.27 32.486 0.049 6.97 19.47 14.24
1/28/2021 6:15:00 PM 0.23 32.414 0.049 6.97 19.54 14.25
1/28/2021 6:30:00 PM 0.21 32.378 0.049 6.96 19.38 14.24
1/28/2021 6:45:00 PM 0.2 32.36 0.046 6.91 19.78 14.23
1/28/2021 7:00:00 PM 0.17 32.306 0.048 6.9 19.65 14.24
1/28/2021 7:15:00 PM 0.17 32.306 0.048 6.88 19.46 14.22
1/28/2021 7:30:00 PM 0.18 32.324 0.048 6.93 19.6 14.21
1/28/2021 7:45:00 PM 0.17 32.306 0.048 6.87 19.89 14.23
1/28/2021 8:00:00 PM 0.18 32.324 0.047 6.91 19.58 14.22
1/28/2021 8:15:00 PM 0.16 32.288 0.048 6.93 20.36 14.21
1/28/2021 8:30:00 PM 0.14 32.252 0.048 6.93 19.79 14.21
1/28/2021 8:45:00 PM 0.14 32.252 0.048 6.93 19.27 14.19
1/28/2021 9:00:00 PM 0.13 32.234 0.049 6.89 19.81 14.21
1/28/2021 9:15:00 PM 0.14 32.252 0.049 6.93 19.59 14.19
1/28/2021 9:30:00 PM 0.13 32.234 0.047 6.89 19.9 14.2
1/28/2021 9:45:00 PM 0.12 32.216 0.049 6.94 20.08 14.19
1/28/2021 10:00:00 PM 0.15 32.27 0.05 6.85 19.87 14.19
1/28/2021 10:15:00 PM 0.17 32.306 0.05 6.91 20.06 14.18
1/28/2021 10:30:00 PM 0.19 32.342 0.05 6.94 19.83 14.16
1/28/2021 10:45:00 PM 0.2 32.36 0.048 6.91 18.85 14.15
1/28/2021 11:00:00 PM 0.21 32.378 0.051 6.94 19.42 14.14
1/28/2021 11:15:00 PM 0.23 32.414 0.051 6.94 19.59 14.12
1/28/2021 11:30:00 PM 0.24 32.432 0.051 6.95 19.82 14.13
1/28/2021 11:45:00 PM 0.26 32.468 0.051 6.86 19.29 14.1
1/29/2021 12:00:00 AM 0.27 32.486 0.049 6.91 18.52 14.1
1/29/2021 12:15:00 AM 0.27 32.486 0.052 6.95 19.7 14.08
1/29/2021 12:30:00 AM 0.28 32.504 0.052 6.94 19.29 14.08
1/29/2021 12:45:00 AM 0.28 32.504 0.052 6.95 20.44 14.06
1/29/2021 1:00:00 AM 0.27 32.486 0.052 6.95 20.3 14.09
1/29/2021 1:15:00 AM 0.26 32.468 0.053 6.95 20.78 14.08
1/29/2021 1:30:00 AM 0.25 32.45 0.053 6.96 20.12 14.07
1/29/2021 1:45:00 AM 0.24 32.432 0.053 6.96 20.23 14.08
1/29/2021 2:00:00 AM 0.24 32.432 0.053 6.96 21.24 14.07
1/29/2021 2:15:00 AM 0.23 32.414 0.054 6.96 19.83 14.08
1/29/2021 2:30:00 AM 0.25 32.45 0.054 6.94 20.09 14.07
1/29/2021 2:45:00 AM 0.23 32.414 0.054 6.97 19.87 14.07
1/29/2021 3:00:00 AM 0.23 32.414 0.054 6.96 19.91 14.08
1/29/2021 3:15:00 AM 0.26 32.468 0.054 6.89 20.23 14.07
1/29/2021 3:30:00 AM 0.25 32.45 0.054 6.97 19.53 14.06
1/29/2021 3:45:00 AM 0.24 32.432 0.055 6.97 20.3 14.06
1/29/2021 4:00:00 AM 0.22 32.396 0.052 6.94 22 14.06
1/29/2021 4:15:00 AM 0.23 32.414 0.055 6.97 19.58 14.05
1/29/2021 4:30:00 AM 0.23 32.414 0.055 6.98 20.03 14.05
1/29/2021 4:45:00 AM 0.24 32.432 0.053 6.94 20.93 14.06
1/29/2021 5:00:00 AM 0.21 32.378 0.055 6.98 18.93 14.07
1/29/2021 5:15:00 AM 0.15 32.27 0.055 6.97 19.29 14.07
1/29/2021 5:30:00 AM 0.12 32.216 0.055 6.93 19.18 14.11
1/29/2021 5:45:00 AM 0.08 32.144 0.055 6.98 19.09 14.13
1/29/2021 6:00:00 AM 0.04 32.072 0.055 6.99 18.78 14.14
1/29/2021 6:15:00 AM 0.03 32.054 0.055 6.91 19.25 14.13
1/29/2021 6:30:00 AM 0.03 32.054 0.056 6.97 19.27 14.11
1/29/2021 6:45:00 AM 0.02 32.036 0.056 6.98 19.14 14.14
1/29/2021 7:00:00 AM 0.04 32.072 0.056 6.97 18.76 14.13
1/29/2021 7:15:00 AM 0.02 32.036 0.056 6.98 18.98 14.14
1/29/2021 7:30:00 AM 0.02 32.036 0.056 6.98 19.03 14.18
1/29/2021 7:45:00 AM 0.03 32.054 0.056 6.98 18.87 14.19
1/29/2021 8:00:00 AM 0.05 32.09 0.057 6.98 19.27 14.23
1/29/2021 8:15:00 AM 0.05 32.09 0.057 7 18.69 14.26
1/29/2021 8:30:00 AM 0.06 32.108 0.057 7.01 18.97 14.34
1/29/2021 8:45:00 AM 0.07 32.126 0.057 7.02 18.88 14.39
1/29/2021 9:00:00 AM 0.09 32.162 0.057 6.97 19.03 14.41
1/29/2021 9:15:00 AM 0.1 32.18 0.057 7.04 18.87 14.43
1/29/2021 9:30:00 AM 0.11 32.198 0.058 7.05 18.01 14.46
1/29/2021 9:45:00 AM 0.16 32.288 0.058 7.05 18.23 14.46
1/29/2021 10:00:00 AM 0.21 32.378 0.058 7.04 18.7 14.5
1/29/2021 10:15:00 AM 0.27 32.486 0.058 7.07 18.23 14.49
1/29/2021 10:30:00 AM 0.32 32.576 0.058 7.07 18.32 14.49
1/29/2021 10:45:00 AM 0.4 32.72 0.058 7.07 18.26 14.47
1/29/2021 11:00:00 AM 0.46 32.828 0.058 7.08 18.3 14.45
1/29/2021 11:15:00 AM 0.53 32.954 0.055 7.05 18.12 14.45
1/29/2021 11:30:00 AM 0.62 33.116 0.058 7.02 18.19 14.44
1/29/2021 11:45:00 AM 0.67 33.206 0.058 7.1 18.36 14.43
1/29/2021 12:00:00 PM 0.68 33.224 0.058 7.1 18.14 14.42
1/29/2021 12:15:00 PM 0.7 33.26 0.058 7.11 18.54 14.42
1/29/2021 12:30:00 PM 0.72 33.296 0.058 7.11 18.07 14.42
1/29/2021 12:45:00 PM 0.77 33.386 0.058 7.1 18.37 14.4
1/29/2021 1:00:00 PM 0.78 33.404 0.058 7.1 18.18 14.39
1/29/2021 1:15:00 PM 0.79 33.422 0.057 7.07 18.31 14.4
1/29/2021 1:30:00 PM 0.79 33.422 0.058 7.11 18.26 14.4
1/29/2021 1:45:00 PM 0.77 33.386 0.058 7.11 17.96 14.41
1/29/2021 2:00:00 PM 0.77 33.386 0.057 7.13 18.51 14.43
1/29/2021 2:15:00 PM 0.75 33.35 0.057 7.11 18.36 14.42
1/29/2021 2:30:00 PM 0.71 33.278 0.056 7.11 18.61 14.43
1/29/2021 2:45:00 PM 0.67 33.206 0.057 7.12 18.49 14.45
1/29/2021 3:00:00 PM 0.64 33.152 0.057 7.12 18.16 14.45
1/29/2021 3:15:00 PM 0.6 33.08 0.056 7.13 18.26 14.46
1/29/2021 3:30:00 PM 0.55 32.99 0.055 7.09 18.84 14.49
1/29/2021 3:45:00 PM 0.57 33.026 0.056 7.13 18.58 14.48
1/29/2021 4:00:00 PM 0.6 33.08 0.056 7.12 18.78 14.49
1/29/2021 4:15:00 PM 0.59 33.062 0.055 7.11 18.63 14.46
1/29/2021 4:30:00 PM 0.53 32.954 0.055 7.11 18.52 14.43
1/29/2021 4:45:00 PM 0.49 32.882 0.055 7.1 18.1 14.42
1/29/2021 5:00:00 PM 0.47 32.846 0.055 7.08 18.63 14.4
1/29/2021 5:15:00 PM 0.42 32.756 0.054 7.07 18.5 14.36
1/29/2021 5:30:00 PM 0.39 32.702 0.054 7.05 18.5 14.31
1/29/2021 5:45:00 PM 0.35 32.63 0.054 7.04 18.38 14.27
1/29/2021 6:00:00 PM 0.32 32.576 0.053 7.02 18.28 14.25
1/29/2021 6:15:00 PM 0.3 32.54 0.053 7.02 18.22 14.24
1/29/2021 6:30:00 PM 0.28 32.504 0.051 6.97 18.95 14.22
1/29/2021 6:45:00 PM 0.27 32.486 0.053 7 17.97 14.23
1/29/2021 7:00:00 PM 0.26 32.468 0.053 7 18.64 14.22
1/29/2021 7:15:00 PM 0.26 32.468 0.053 6.99 18.01 14.21
1/29/2021 7:30:00 PM 0.25 32.45 0.052 7 18.64 14.23
1/29/2021 7:45:00 PM 0.25 32.45 0.052 6.99 18.15 14.21
1/29/2021 8:00:00 PM 0.25 32.45 0.052 6.98 18.23 14.21
1/29/2021 8:15:00 PM 0.26 32.468 0.052 6.97 18.79 14.2
1/29/2021 8:30:00 PM 0.28 32.504 0.049 6.96 19.43 14.2
1/29/2021 8:45:00 PM 0.28 32.504 0.051 6.98 18.65 14.2
1/29/2021 9:00:00 PM 0.28 32.504 0.051 6.95 18.43 14.2
1/29/2021 9:15:00 PM 0.28 32.504 0.049 6.95 20.84 14.19
1/29/2021 9:30:00 PM 0.28 32.504 0.051 6.97 18.84 14.18
1/29/2021 9:45:00 PM 0.29 32.522 0.051 6.92 19.09 14.18
1/29/2021 10:00:00 PM 0.3 32.54 0.049 6.94 19.15 14.17
1/29/2021 10:15:00 PM 0.3 32.54 0.051 6.97 18.33 14.18
1/29/2021 10:30:00 PM 0.31 32.558 0.051 6.96 18.87 14.18
1/29/2021 10:45:00 PM 0.32 32.576 0.051 6.96 19.41 14.17
1/29/2021 11:00:00 PM 0.33 32.594 0.051 6.96 19.14 14.17
1/29/2021 11:15:00 PM 0.32 32.576 0.051 6.96 19.56 14.17
1/29/2021 11:30:00 PM 0.33 32.594 0.051 6.96 18.91 14.16
1/29/2021 11:45:00 PM 0.34 32.612 0.051 6.97 19.59 14.16
1/30/2021 12:00:00 AM 0.36 32.648 0.051 6.86 19.82 14.13
1/30/2021 12:15:00 AM 0.36 32.648 0.051 6.96 19.14 14.15
1/30/2021 12:30:00 AM 0.37 32.666 0.051 6.96 19.11 14.13
1/30/2021 12:45:00 AM 0.37 32.666 0.051 6.96 19.01 14.13
1/30/2021 1:00:00 AM 0.38 32.684 0.049 6.92 19.17 14.13
1/30/2021 1:15:00 AM 0.38 32.684 0.051 6.96 19.61 14.12
1/30/2021 1:30:00 AM 0.38 32.684 0.051 6.96 19.1 14.13
1/30/2021 1:45:00 AM 0.37 32.666 0.051 6.96 20.4 14.15
1/30/2021 2:00:00 AM 0.38 32.684 0.051 6.97 19.97 14.13
1/30/2021 2:15:00 AM 0.4 32.72 0.052 6.96 19.62 14.12
1/30/2021 2:30:00 AM 0.4 32.72 0.052 6.96 19.91 14.12
1/30/2021 2:45:00 AM 0.4 32.72 0.049 6.92 19.39 14.12
1/30/2021 3:00:00 AM 0.41 32.738 0.052 6.96 20.16 14.12
1/30/2021 3:15:00 AM 0.4 32.72 0.052 6.92 19.45 14.11
1/30/2021 3:30:00 AM 0.38 32.684 0.052 6.96 20.15 14.12
1/30/2021 3:45:00 AM 0.37 32.666 0.052 6.95 19.82 14.12
1/30/2021 4:00:00 AM 0.36 32.648 0.052 6.96 19.92 14.14
1/30/2021 4:15:00 AM 0.36 32.648 0.052 6.96 19.61 14.13
1/30/2021 4:30:00 AM 0.36 32.648 0.052 6.96 19.87 14.13
1/30/2021 4:45:00 AM 0.36 32.648 0.052 6.96 20.32 14.14
1/30/2021 5:00:00 AM 0.35 32.63 0.052 6.97 19.76 14.13
1/30/2021 5:15:00 AM 0.34 32.612 0.052 6.96 19.82 14.15
1/30/2021 5:30:00 AM 0.33 32.594 0.052 6.95 19.97 14.16
1/30/2021 5:45:00 AM 0.32 32.576 0.052 6.95 19.87 14.14
1/30/2021 6:00:00 AM 0.31 32.558 0.052 6.97 19.54 14.16
1/30/2021 6:15:00 AM 0.31 32.558 0.052 6.96 19.15 14.16
1/30/2021 6:30:00 AM 0.32 32.576 0.052 6.96 20.19 14.15
1/30/2021 6:45:00 AM 0.3 32.54 0.052 6.97 19.11 14.17
1/30/2021 7:00:00 AM 0.3 32.54 0.052 6.97 19.2 14.16
1/30/2021 7:15:00 AM 0.3 32.54 0.05 6.93 18.21 14.15
1/30/2021 7:30:00 AM 0.29 32.522 0.049 6.94 18.55 14.2
1/30/2021 7:45:00 AM 0.3 32.54 0.052 6.98 18.92 14.23
1/30/2021 8:00:00 AM 0.29 32.522 0.052 6.9 19.68 14.3
1/30/2021 8:15:00 AM 0.29 32.522 0.052 7.01 19.11 14.34
1/30/2021 8:30:00 AM 0.28 32.504 0.052 7.01 19.22 14.38
1/30/2021 8:45:00 AM 0.28 32.504 0.05 6.99 19.66 14.44
1/30/2021 9:00:00 AM 0.28 32.504 0.052 7.03 19.22 14.45
1/30/2021 9:15:00 AM 0.3 32.54 0.052 7.04 18.81 14.5
1/30/2021 9:30:00 AM 0.31 32.558 0.05 7.01 18.56 14.52
1/30/2021 9:45:00 AM 0.34 32.612 0.052 7.05 18.51 14.53
1/30/2021 10:00:00 AM 0.36 32.648 0.05 7.02 18.3 14.55
1/30/2021 10:15:00 AM 0.41 32.738 0.052 7.05 18.89 14.54
1/30/2021 10:30:00 AM 0.45 32.81 0.052 7.04 19.05 14.54
1/30/2021 10:45:00 AM 0.5 32.9 0.052 7.06 19.09 14.54
1/30/2021 11:00:00 AM 0.57 33.026 0.052 7.06 18.87 14.54
1/30/2021 11:15:00 AM 0.64 33.152 0.052 7.06 18.69 14.52
1/30/2021 11:30:00 AM 0.73 33.314 0.052 7.06 18.94 14.52
1/30/2021 11:45:00 AM 0.82 33.476 0.05 7.04 18.6 14.5
1/30/2021 12:00:00 PM 0.92 33.656 0.052 7.08 18.55 14.49
1/30/2021 12:15:00 PM 1.03 33.854 0.052 7.07 19.16 14.46
1/30/2021 12:30:00 PM 1.14 34.052 0.052 7.08 18.74 14.43
1/30/2021 12:45:00 PM 1.21 34.178 0.052 7.08 18.86 14.41
1/30/2021 1:00:00 PM 1.27 34.286 0.051 7.08 18.71 14.41
1/30/2021 1:15:00 PM 1.34 34.412 0.052 7.07 19.06 14.36
1/30/2021 1:30:00 PM 1.37 34.466 0.049 7.02 18.81 14.34
1/30/2021 1:45:00 PM 1.38 34.484 0.051 7.08 18.88 14.36
1/30/2021 2:00:00 PM 1.35 34.43 0.051 7.07 18.38 14.36
1/30/2021 2:15:00 PM 1.32 34.376 0.051 7.08 18.62 14.37
1/30/2021 2:30:00 PM 1.29 34.322 0.051 6.97 18.85 14.35
1/30/2021 2:45:00 PM 1.22 34.196 0.051 7.08 19.22 14.37
1/30/2021 3:00:00 PM 1.15 34.07 0.051 7.07 18.58 14.39
1/30/2021 3:15:00 PM 1.07 33.926 0.051 7.09 18.97 14.39
1/30/2021 3:30:00 PM 1 33.8 0.051 7.08 18.54 14.4
1/30/2021 3:45:00 PM 0.94 33.692 0.051 7.08 18.39 14.41
1/30/2021 4:00:00 PM 0.88 33.584 0.051 7.08 18.62 14.42
1/30/2021 4:15:00 PM 0.82 33.476 0.051 7.07 18.4 14.41
1/30/2021 4:30:00 PM 0.75 33.35 0.051 7.07 19 14.39
1/30/2021 4:45:00 PM 0.7 33.26 0.051 7.06 18.74 14.37
1/30/2021 5:00:00 PM 0.65 33.17 0.051 7.04 18.2 14.36
1/30/2021 5:15:00 PM 0.58 33.044 0.051 7.04 18.33 14.31
1/30/2021 5:30:00 PM 0.54 32.972 0.051 7.02 18.81 14.27
1/30/2021 5:45:00 PM 0.5 32.9 0.051 7.01 18.73 14.24
1/30/2021 6:00:00 PM 0.45 32.81 0.051 7 18.29 14.23
1/30/2021 6:15:00 PM 0.42 32.756 0.051 6.98 18.52 14.22
1/30/2021 6:30:00 PM 0.39 32.702 0.051 6.92 18.14 14.21
1/30/2021 6:45:00 PM 0.37 32.666 0.051 6.98 18.8 14.21
1/30/2021 7:00:00 PM 0.34 32.612 0.051 6.97 18.65 14.2
1/30/2021 7:15:00 PM 0.31 32.558 0.051 6.97 18.37 14.22
1/30/2021 7:30:00 PM 0.28 32.504 0.051 6.97 18.35 14.22
1/30/2021 7:45:00 PM 0.26 32.468 0.051 6.97 18.57 14.24
1/30/2021 8:00:00 PM 0.24 32.432 0.051 6.97 18.59 14.23
1/30/2021 8:15:00 PM 0.22 32.396 0.05 6.96 18.33 14.24
1/30/2021 8:30:00 PM 0.2 32.36 0.048 6.93 18.6 14.25
1/30/2021 8:45:00 PM 0.18 32.324 0.05 6.96 18.41 14.24
1/30/2021 9:00:00 PM 0.16 32.288 0.05 6.96 18.67 14.25
1/30/2021 9:15:00 PM 0.15 32.27 0.05 6.96 18.67 14.26
1/30/2021 9:30:00 PM 0.14 32.252 0.05 6.95 18.53 14.25
1/30/2021 9:45:00 PM 0.13 32.234 0.05 6.86 18.66 14.26
1/30/2021 10:00:00 PM 0.13 32.234 0.05 6.95 18.69 14.26
1/30/2021 10:15:00 PM 0.11 32.198 0.05 6.95 18.96 14.27
1/30/2021 10:30:00 PM 0.11 32.198 0.05 6.95 18.67 14.26
1/30/2021 10:45:00 PM 0.11 32.198 0.05 6.86 18.79 14.25
1/30/2021 11:00:00 PM 0.11 32.198 0.05 6.94 18.58 14.25
1/30/2021 11:15:00 PM 0.1 32.18 0.05 6.9 18.81 14.25
1/30/2021 11:30:00 PM 0.09 32.162 0.05 6.94 18.57 14.26
1/30/2021 11:45:00 PM 0.1 32.18 0.048 6.92 18.22 14.24
1/31/2021 12:00:00 AM 0.09 32.162 0.051 6.94 19.01 14.25
1/31/2021 12:15:00 AM 0.08 32.144 0.051 6.95 18.99 14.25
1/31/2021 12:30:00 AM 0.08 32.144 0.051 6.95 18.94 14.25
1/31/2021 12:45:00 AM 0.1 32.18 0.051 6.88 18.69 14.25
1/31/2021 1:00:00 AM 0.12 32.216 0.049 6.92 19.14 14.23
1/31/2021 1:15:00 AM 0.14 32.252 0.051 6.95 18.84 14.23
1/31/2021 1:30:00 AM 0.17 32.306 0.049 6.91 18.38 14.22
1/31/2021 1:45:00 AM 0.19 32.342 0.051 6.92 19.04 14.2
1/31/2021 2:00:00 AM 0.2 32.36 0.051 6.95 19.3 14.2
1/31/2021 2:15:00 AM 0.22 32.396 0.051 6.95 18.69 14.19
1/31/2021 2:30:00 AM 0.24 32.432 0.052 6.96 18.32 14.19
1/31/2021 2:45:00 AM 0.26 32.468 0.052 6.96 19 14.18
1/31/2021 3:00:00 AM 0.28 32.504 0.052 6.96 19.26 14.19
1/31/2021 3:15:00 AM 0.3 32.54 0.052 6.96 18.92 14.17
1/31/2021 3:30:00 AM 0.3 32.54 0.052 6.86 19.58 14.16
1/31/2021 3:45:00 AM 0.31 32.558 0.052 6.96 19.05 14.16
1/31/2021 4:00:00 AM 0.32 32.576 0.052 6.96 19.02 14.14
1/31/2021 4:15:00 AM 0.33 32.594 0.052 6.96 18.87 14.14
1/31/2021 4:30:00 AM 0.33 32.594 0.05 6.93 18.78 14.14
1/31/2021 4:45:00 AM 0.34 32.612 0.053 6.97 19.5 14.14
1/31/2021 5:00:00 AM 0.34 32.612 0.053 6.97 19.21 14.13
1/31/2021 5:15:00 AM 0.34 32.612 0.053 6.97 19.45 14.13
1/31/2021 5:30:00 AM 0.34 32.612 0.05 6.93 19.33 14.13
1/31/2021 5:45:00 AM 0.36 32.648 0.053 6.97 19.47 14.11
1/31/2021 6:00:00 AM 0.37 32.666 0.053 6.97 18.98 14.12
1/31/2021 6:15:00 AM 0.38 32.684 0.053 6.96 19.57 14.11
1/31/2021 6:30:00 AM 0.39 32.702 0.053 6.97 19.5 14.1
1/31/2021 6:45:00 AM 0.39 32.702 0.053 6.97 19.5 14.11
1/31/2021 7:00:00 AM 0.4 32.72 0.053 6.97 19.01 14.09
1/31/2021 7:15:00 AM 0.4 32.72 0.053 6.97 19.05 14.1
1/31/2021 7:30:00 AM 0.39 32.702 0.053 6.88 18.96 14.11
1/31/2021 7:45:00 AM 0.41 32.738 0.054 6.98 19.04 14.13
1/31/2021 8:00:00 AM 0.43 32.774 0.051 6.95 18.47 14.16
1/31/2021 8:15:00 AM 0.45 32.81 0.054 7 18.94 14.23
1/31/2021 8:30:00 AM 0.47 32.846 0.054 6.97 18.96 14.29
1/31/2021 8:45:00 AM 0.5 32.9 0.054 7 19 14.32
1/31/2021 9:00:00 AM 0.53 32.954 0.054 7.05 18.62 14.38
1/31/2021 9:15:00 AM 0.55 32.99 0.054 7.04 18.89 14.4
1/31/2021 9:30:00 AM 0.58 33.044 0.054 7.06 18.48 14.4
1/31/2021 9:45:00 AM 0.6 33.08 0.054 7.06 18.32 14.4
1/31/2021 10:00:00 AM 0.63 33.134 0.054 7.07 17.88 14.41
1/31/2021 10:15:00 AM 0.66 33.188 0.054 7.07 18.17 14.44
1/31/2021 10:30:00 AM 0.69 33.242 0.054 7.08 18.36 14.46
1/31/2021 10:45:00 AM 0.73 33.314 0.054 7.09 18.59 14.47
1/31/2021 11:00:00 AM 0.75 33.35 0.054 7.09 18.32 14.47
1/31/2021 11:15:00 AM 0.77 33.386 0.054 7.07 17.99 14.47
1/31/2021 11:30:00 AM 0.78 33.404 0.054 7.1 17.99 14.47
1/31/2021 11:45:00 AM 0.78 33.404 0.053 7.1 17.65 14.47
1/31/2021 12:00:00 PM 0.79 33.422 0.053 7.07 17.85 14.48
1/31/2021 12:15:00 PM 0.81 33.458 0.053 7.1 17.93 14.48
1/31/2021 12:30:00 PM 0.87 33.566 0.053 7.1 18.3 14.48
1/31/2021 12:45:00 PM 0.94 33.692 0.052 7.06 18.71 14.46
1/31/2021 1:00:00 PM 0.99 33.782 0.053 7.02 17.96 14.45
1/31/2021 1:15:00 PM 1.01 33.818 0.053 7.11 17.94 14.44
1/31/2021 1:30:00 PM 1.01 33.818 0.053 7.11 18.05 14.44
1/31/2021 1:45:00 PM 1.01 33.818 0.053 7.1 18.11 14.42
1/31/2021 2:00:00 PM 1.02 33.836 0.05 7.07 17.66 14.42
1/31/2021 2:15:00 PM 1.02 33.836 0.052 7.1 17.94 14.42
1/31/2021 2:30:00 PM 0.99 33.782 0.052 7.1 17.91 14.42
1/31/2021 2:45:00 PM 0.98 33.764 0.05 7.08 17.78 14.42
1/31/2021 3:00:00 PM 0.96 33.728 0.052 7.08 17.98 14.43
1/31/2021 3:15:00 PM 0.93 33.674 0.052 7.09 17.89 14.41
1/31/2021 3:30:00 PM 0.89 33.602 0.051 7.09 18.34 14.42
1/31/2021 3:45:00 PM 0.85 33.53 0.051 7.09 18.04 14.41
1/31/2021 4:00:00 PM 0.79 33.422 0.051 7.09 18.4 14.4
1/31/2021 4:15:00 PM 0.75 33.35 0.051 7.08 18.18 14.4
1/31/2021 4:30:00 PM 0.69 33.242 0.05 7.07 18.39 14.38
1/31/2021 4:45:00 PM 0.65 33.17 0.05 7.06 18.48 14.33
1/31/2021 5:00:00 PM 0.61 33.098 0.05 7.04 18.42 14.29
1/31/2021 5:15:00 PM 0.55 32.99 0.048 6.98 18.61 14.25
1/31/2021 5:30:00 PM 0.51 32.918 0.05 7.02 18.62 14.22
1/31/2021 5:45:00 PM 0.5 32.9 0.05 7 18.57 14.18
1/31/2021 6:00:00 PM 0.5 32.9 0.05 7 18.38 14.14
1/31/2021 6:15:00 PM 0.51 32.918 0.048 6.94 18.14 14.13
1/31/2021 6:30:00 PM 0.49 32.882 0.05 6.98 18.21 14.11
1/31/2021 6:45:00 PM 0.46 32.828 0.049 6.93 18.65 14.11
1/31/2021 7:00:00 PM 0.44 32.792 0.05 6.97 18.38 14.1
1/31/2021 7:15:00 PM 0.43 32.774 0.048 6.93 17.89 14.09
1/31/2021 7:30:00 PM 0.43 32.774 0.05 6.97 18.16 14.1
1/31/2021 7:45:00 PM 0.42 32.756 0.05 6.97 17.9 14.1
1/31/2021 8:00:00 PM 0.41 32.738 0.05 6.97 18.39 14.09
1/31/2021 8:15:00 PM 0.39 32.702 0.05 6.96 18.66 14.1
1/31/2021 8:30:00 PM 0.38 32.684 0.05 6.97 17.74 14.1
1/31/2021 8:45:00 PM 0.39 32.702 0.05 6.96 18.23 14.08
1/31/2021 9:00:00 PM 0.42 32.756 0.05 6.97 17.94 14.1
1/31/2021 9:15:00 PM 0.43 32.774 0.05 6.95 18.16 14.07
1/31/2021 9:30:00 PM 0.42 32.756 0.05 6.97 18.55 14.08
1/31/2021 9:45:00 PM 0.41 32.738 0.05 6.97 18.77 14.07
1/31/2021 10:00:00 PM 0.41 32.738 0.05 6.96 18.99 14.07
1/31/2021 10:15:00 PM 0.39 32.702 0.05 6.97 18.51 14.07
1/31/2021 10:30:00 PM 0.35 32.63 0.05 6.96 18.31 14.07
1/31/2021 10:45:00 PM 0.31 32.558 0.05 6.96 18.94 14.08
1/31/2021 11:00:00 PM 0.27 32.486 0.05 6.96 18.38 14.09
1/31/2021 11:15:00 PM 0.22 32.396 0.05 6.97 18.51 14.1
1/31/2021 11:30:00 PM 0.19 32.342 0.048 6.91 18.67 14.09
1/31/2021 11:45:00 PM 0.19 32.342 0.05 6.96 18.34 14.12
2/1/2021 12:00:00 AM 0.21 32.378 0.05 6.95 18.63 14.1
2/1/2021 12:15:00 AM 0.18 32.324 0.05 6.96 18.45 14.12
2/1/2021 12:30:00 AM 0.19 32.342 0.05 6.96 18.57 14.1
2/1/2021 12:45:00 AM 0.18 32.324 0.05 6.97 18.42 14.11
2/1/2021 1:00:00 AM 0.2 32.36 0.05 6.96 18.69 14.11
2/1/2021 1:15:00 AM 0.2 32.36 0.05 6.97 19.08 14.09
2/1/2021 1:30:00 AM 0.18 32.324 0.048 6.92 17.92 14.09
2/1/2021 1:45:00 AM 0.15 32.27 0.05 6.96 18.37 14.1
2/1/2021 2:00:00 AM 0.15 32.27 0.05 6.96 18.61 14.1
2/1/2021 2:15:00 AM 0.12 32.216 0.048 6.93 18.77 14.09
2/1/2021 2:30:00 AM 0.1 32.18 0.05 6.96 19.05 14.12
2/1/2021 2:45:00 AM 0.08 32.144 0.05 6.97 18.91 14.12
2/1/2021 3:00:00 AM 0.06 32.108 0.05 6.97 18.84 14.12
2/1/2021 3:15:00 AM 0.05 32.09 0.05 6.96 19.59 14.14
2/1/2021 3:30:00 AM 0.06 32.108 0.05 6.97 18.76 14.14
2/1/2021 3:45:00 AM 0.09 32.162 0.05 6.96 19 14.12
2/1/2021 4:00:00 AM 0.08 32.144 0.05 6.97 18.8 14.13
2/1/2021 4:15:00 AM 0.08 32.144 0.05 6.97 18.57 14.12
2/1/2021 4:30:00 AM 0.09 32.162 0.05 6.97 18.82 14.1
2/1/2021 4:45:00 AM 0.09 32.162 0.051 6.97 18.86 14.11
2/1/2021 5:00:00 AM 0.1 32.18 0.048 6.92 19.18 14.1
2/1/2021 5:15:00 AM 0.1 32.18 0.051 6.97 19.16 14.1
2/1/2021 5:30:00 AM 0.1 32.18 0.049 6.93 17.7 14.1
2/1/2021 5:45:00 AM 0.13 32.234 0.048 6.92 18.58 14.08
2/1/2021 6:00:00 AM 0.14 32.252 0.051 6.97 18.92 14.08
2/1/2021 6:15:00 AM 0.15 32.27 0.05 6.93 18.64 14.07
2/1/2021 6:30:00 AM 0.15 32.27 0.051 6.97 18.53 14.08
2/1/2021 6:45:00 AM 0.13 32.234 0.051 6.97 18.67 14.07
2/1/2021 7:00:00 AM 0.13 32.234 0.051 6.97 18.47 14.07
2/1/2021 7:15:00 AM 0.15 32.27 0.051 6.96 18.48 14.07
2/1/2021 7:30:00 AM 0.16 32.288 0.051 6.97 18.21 14.06
2/1/2021 7:45:00 AM 0.16 32.288 0.051 6.98 18.78 14.1
2/1/2021 8:00:00 AM 0.16 32.288 0.049 6.95 18.55 14.11
2/1/2021 8:15:00 AM 0.17 32.306 0.05 6.96 18.55 14.14
2/1/2021 8:30:00 AM 0.19 32.342 0.051 7.01 18.42 14.2
2/1/2021 8:45:00 AM 0.23 32.414 0.051 6.99 18.45 14.23
2/1/2021 9:00:00 AM 0.27 32.486 0.051 7.02 18.13 14.26
2/1/2021 9:15:00 AM 0.28 32.504 0.049 7 18.17 14.28
2/1/2021 9:30:00 AM 0.26 32.468 0.051 7.05 18.55 14.31
2/1/2021 9:45:00 AM 0.24 32.432 0.051 7.05 17.89 14.34
2/1/2021 10:00:00 AM 0.19 32.342 0.051 7.04 18.05 14.36
2/1/2021 10:15:00 AM 0.17 32.306 0.051 7.07 18.22 14.38
2/1/2021 10:30:00 AM 0.16 32.288 0.051 7.05 18.01 14.41
2/1/2021 10:45:00 AM 0.11 32.198 0.051 7.07 18.17 14.41
2/1/2021 11:00:00 AM 0.07 32.126 0.049 7.04 18.47 14.44
2/1/2021 11:15:00 AM 0.03 32.054 0.05 7.03 17.45 14.46
2/1/2021 11:30:00 AM 0.05 32.09 0.049 7.03 18.4 14.47
2/1/2021 11:45:00 AM 0.07 32.126 0.049 7.04 18.39 14.46
2/1/2021 12:00:00 PM 0.07 32.126 0.051 7.08 18.4 14.47
2/1/2021 12:15:00 PM 0.09 32.162 0.049 7.05 18.05 14.47
2/1/2021 12:30:00 PM 0.12 32.216 0.051 7.08 18.17 14.48
2/1/2021 12:45:00 PM 0.16 32.288 0.051 7.09 18.17 14.46
2/1/2021 1:00:00 PM 0.18 32.324 0.051 7.05 18.13 14.45
2/1/2021 1:15:00 PM 0.16 32.288 0.051 7.09 18.25 14.45
2/1/2021 1:30:00 PM 0.15 32.27 0.05 7.03 18.46 14.43
2/1/2021 1:45:00 PM 0.16 32.288 0.051 7.09 18.65 14.44
2/1/2021 2:00:00 PM 0.18 32.324 0.05 7.06 17.89 14.43
2/1/2021 2:15:00 PM 0.22 32.396 0.052 7.08 18.07 14.4
2/1/2021 2:30:00 PM 0.25 32.45 0.052 7.09 17.89 14.41
2/1/2021 2:45:00 PM 0.28 32.504 0.052 7.08 18.17 14.41
2/1/2021 3:00:00 PM 0.34 32.612 0.051 7.06 18.29 14.4
2/1/2021 3:15:00 PM 0.41 32.738 0.052 7.09 17.85 14.38
2/1/2021 3:30:00 PM 0.48 32.864 0.049 7.04 17.87 14.35
2/1/2021 3:45:00 PM 0.53 32.954 0.051 7.07 17.73 14.31
2/1/2021 4:00:00 PM 0.55 32.99 0.052 7.08 18.01 14.27
2/1/2021 4:15:00 PM 0.56 33.008 0.052 7.07 18.05 14.23
2/1/2021 4:30:00 PM 0.57 33.026 0.052 7.06 17.86 14.18
2/1/2021 4:45:00 PM 0.57 33.026 0.052 7.02 17.58 14.15
2/1/2021 5:00:00 PM 0.56 33.008 0.052 7.04 17.96 14.1
2/1/2021 5:15:00 PM 0.55 32.99 0.052 7.03 17.35 14.05
2/1/2021 5:30:00 PM 0.54 32.972 0.052 7.02 18.24 14.01
2/1/2021 5:45:00 PM 0.52 32.936 0.051 6.96 17.68 13.98
2/1/2021 6:00:00 PM 0.48 32.864 0.052 7.01 17.92 13.98
2/1/2021 6:15:00 PM 0.47 32.846 0.052 7 18.08 13.96
2/1/2021 6:30:00 PM 0.43 32.774 0.052 7 18.21 13.97
2/1/2021 6:45:00 PM 0.4 32.72 0.052 7 18.19 13.97
2/1/2021 7:00:00 PM 0.4 32.72 0.052 7 18.44 13.96
2/1/2021 7:15:00 PM 0.33 32.594 0.052 7 17.71 13.99
2/1/2021 7:30:00 PM 0.27 32.486 0.052 6.97 17.71 13.98
2/1/2021 7:45:00 PM 0.25 32.45 0.052 7 18.03 13.99
2/1/2021 8:00:00 PM 0.23 32.414 0.052 6.97 18.28 14
2/1/2021 8:15:00 PM 0.25 32.45 0.052 7 17.53 14
2/1/2021 8:30:00 PM 0.25 32.45 0.052 7 17.76 14
2/1/2021 8:45:00 PM 0.23 32.414 0.05 6.95 17.64 13.99
2/1/2021 9:00:00 PM 0.17 32.306 0.052 7 17.85 14.02
2/1/2021 9:15:00 PM 0.18 32.324 0.052 6.93 18.06 14.01
2/1/2021 9:30:00 PM 0.17 32.306 0.052 7 17.85 14.01
2/1/2021 9:45:00 PM 0.18 32.324 0.052 6.99 17.84 14.02
2/1/2021 10:00:00 PM 0.2 32.36 0.052 6.99 18.1 14
2/1/2021 10:15:00 PM 0.22 32.396 0.052 6.99 18.08 13.99
2/1/2021 10:30:00 PM 0.22 32.396 0.052 7 17.8 13.99
2/1/2021 10:45:00 PM 0.21 32.378 0.052 6.99 17.65 14
2/1/2021 11:00:00 PM 0.22 32.396 0.052 6.98 18.16 13.98
2/1/2021 11:15:00 PM 0.24 32.432 0.052 6.99 17.6 13.99
2/1/2021 11:30:00 PM 0.25 32.45 0.052 6.92 17.99 13.97
2/1/2021 11:45:00 PM 0.27 32.486 0.052 7 18.04 13.97
2/2/2021 12:00:00 AM 0.3 32.54 0.052 7 18.11 13.97
2/2/2021 12:15:00 AM 0.3 32.54 0.052 6.99 18.05 13.95
2/2/2021 12:30:00 AM 0.28 32.504 0.052 7 17.8 13.95
2/2/2021 12:45:00 AM 0.29 32.522 0.052 6.99 17.83 13.93
2/2/2021 1:00:00 AM 0.3 32.54 0.052 6.92 17.96 13.94
2/2/2021 1:15:00 AM 0.31 32.558 0.052 7 18.05 13.95
2/2/2021 1:30:00 AM 0.33 32.594 0.052 7 18 13.94
2/2/2021 1:45:00 AM 0.34 32.612 0.052 7 17.77 13.94
2/2/2021 2:00:00 AM 0.35 32.63 0.05 6.96 17.72 13.93
2/2/2021 2:15:00 AM 0.36 32.648 0.052 7 17.91 13.92
2/2/2021 2:30:00 AM 0.36 32.648 0.052 7 18.22 13.92
2/2/2021 2:45:00 AM 0.35 32.63 0.052 7 17.59 13.92
2/2/2021 3:00:00 AM 0.35 32.63 0.052 7.01 18.09 13.94
2/2/2021 3:15:00 AM 0.33 32.594 0.051 6.97 17.87 13.93
2/2/2021 3:30:00 AM 0.34 32.612 0.053 7 18.08 13.91
2/2/2021 3:45:00 AM 0.37 32.666 0.05 6.96 17.77 13.91
2/2/2021 4:00:00 AM 0.39 32.702 0.052 7 17.86 13.9
2/2/2021 4:15:00 AM 0.39 32.702 0.052 7.01 17.95 13.92
2/2/2021 4:30:00 AM 0.37 32.666 0.052 7.01 18.11 13.91
2/2/2021 4:45:00 AM 0.39 32.702 0.053 7 18.1 13.9
2/2/2021 5:00:00 AM 0.41 32.738 0.053 7 17.97 13.89
2/2/2021 5:15:00 AM 0.41 32.738 0.052 7.01 17.73 13.88
2/2/2021 5:30:00 AM 0.41 32.738 0.052 7.01 17.97 13.9
2/2/2021 5:45:00 AM 0.43 32.774 0.052 7 17.52 13.87
2/2/2021 6:00:00 AM 0.42 32.756 0.052 7 18 13.89
2/2/2021 6:15:00 AM 0.41 32.738 0.052 7 18.09 13.87
2/2/2021 6:30:00 AM 0.41 32.738 0.052 7 17.78 13.88
2/2/2021 6:45:00 AM 0.4 32.72 0.052 7 17.83 13.88
2/2/2021 7:00:00 AM 0.41 32.738 0.052 7.01 17.83 13.88
2/2/2021 7:15:00 AM 0.44 32.792 0.053 7 18.06 13.87
2/2/2021 7:30:00 AM 0.46 32.828 0.05 6.97 17.34 13.88
2/2/2021 7:45:00 AM 0.49 32.882 0.053 7.01 17.88 13.9
2/2/2021 8:00:00 AM 0.51 32.918 0.05 6.98 17.31 13.97
2/2/2021 8:15:00 AM 0.54 32.972 0.053 7.05 17.92 14.04
2/2/2021 8:30:00 AM 0.56 33.008 0.053 7.07 17.99 14.09
2/2/2021 8:45:00 AM 0.59 33.062 0.053 7.07 17.88 14.12
2/2/2021 9:00:00 AM 0.64 33.152 0.053 7.08 18.03 14.14
2/2/2021 9:15:00 AM 0.69 33.242 0.052 7.09 17.78 14.16
2/2/2021 9:30:00 AM 0.72 33.296 0.053 7.1 17.89 14.19
2/2/2021 9:45:00 AM 0.77 33.386 0.053 7 18.1 14.18
2/2/2021 10:00:00 AM 0.82 33.476 0.052 7.11 17.56 14.2
2/2/2021 10:15:00 AM 0.88 33.584 0.052 7.09 18.04 14.18
2/2/2021 10:30:00 AM 0.93 33.674 0.052 7.12 17.73 14.18
2/2/2021 10:45:00 AM 1 33.8 0.052 7.11 17.86 14.16
2/2/2021 11:00:00 AM 1.06 33.908 0.054 7.12 17.9 14.16
2/2/2021 11:15:00 AM 1.1 33.98 0.05 7.09 17.73 14.14
2/2/2021 11:30:00 AM 1.15 34.07 0.052 7.13 17.76 14.14
2/2/2021 11:45:00 AM 1.21 34.178 0.052 7.02 17.83 14.12
2/2/2021 12:00:00 PM 1.26 34.268 0.052 7.09 17.91 14.11
2/2/2021 12:15:00 PM 1.31 34.358 0.052 7.13 17.66 14.1
2/2/2021 12:30:00 PM 1.35 34.43 0.05 7.1 17.55 14.08
2/2/2021 12:45:00 PM 1.37 34.466 0.052 7.11 17.88 14.07
2/2/2021 1:00:00 PM 1.4 34.52 0.052 7.1 18.13 14.05
2/2/2021 1:15:00 PM 1.43 34.574 0.051 7.1 18.1 14.06
2/2/2021 1:30:00 PM 1.48 34.664 0.053 7.12 17.84 14.03
2/2/2021 1:45:00 PM 1.51 34.718 0.052 7.11 18.03 14.02
2/2/2021 2:00:00 PM 1.53 34.754 0.051 7.12 18.21 14.01
2/2/2021 2:15:00 PM 1.52 34.736 0.051 7.11 18.54 14.01
2/2/2021 2:30:00 PM 1.42 34.556 0.051 7.12 17.95 14.03
2/2/2021 2:45:00 PM 1.27 34.286 0.058 7.1 17.81 14.05
2/2/2021 3:00:00 PM 1.24 34.232 0.052 7.1 19.37 14.06
2/2/2021 3:15:00 PM 1.21 34.178 0.051 7.12 18.4 14.08
2/2/2021 3:30:00 PM 1.14 34.052 0.049 7.09 17.87 14.09
2/2/2021 3:45:00 PM 1.08 33.944 0.051 7.11 18.32 14.11
2/2/2021 4:00:00 PM 1.03 33.854 0.05 7.11 18.41 14.12
2/2/2021 4:15:00 PM 0.99 33.782 0.05 7.07 18.27 14.13
2/2/2021 4:30:00 PM 0.94 33.692 0.05 7.11 17.95 14.13
2/2/2021 4:45:00 PM 0.88 33.584 0.05 7.1 18.84 14.13
2/2/2021 5:00:00 PM 0.83 33.494 0.048 7.06 18.33 14.08
2/2/2021 5:15:00 PM 0.79 33.422 0.05 7.07 18.29 14.02
2/2/2021 5:30:00 PM 0.74 33.332 0.048 7.02 18.88 13.96
2/2/2021 5:45:00 PM 0.7 33.26 0.05 7.03 18.37 13.92
2/2/2021 6:00:00 PM 0.66 33.188 0.05 6.99 18.44 13.9
2/2/2021 6:15:00 PM 0.63 33.134 0.05 7.01 18.24 13.88
2/2/2021 6:30:00 PM 0.61 33.098 0.05 7.01 18.44 13.86
2/2/2021 6:45:00 PM 0.6 33.08 0.048 6.97 18.34 13.85
2/2/2021 7:00:00 PM 0.6 33.08 0.05 6.99 18.39 13.84
2/2/2021 7:15:00 PM 0.58 33.044 0.05 7 18.47 13.84
2/2/2021 7:30:00 PM 0.59 33.062 0.05 6.99 18.61 13.82
2/2/2021 7:45:00 PM 0.58 33.044 0.05 7 18.87 13.83
2/2/2021 8:00:00 PM 0.58 33.044 0.05 6.98 18.28 13.83
2/2/2021 8:15:00 PM 0.58 33.044 0.05 6.98 18.65 13.82
2/2/2021 8:30:00 PM 0.57 33.026 0.05 6.99 18.65 13.82
2/2/2021 8:45:00 PM 0.56 33.008 0.05 6.98 18.15 13.82
2/2/2021 9:00:00 PM 0.56 33.008 0.048 6.95 19.35 13.81
2/2/2021 9:15:00 PM 0.57 33.026 0.05 6.98 18.6 13.81
2/2/2021 9:30:00 PM 0.56 33.008 0.05 6.98 18.7 13.81
2/2/2021 9:45:00 PM 0.55 32.99 0.05 6.98 18.28 13.81
2/2/2021 10:00:00 PM 0.56 33.008 0.048 6.95 19.64 13.81
2/2/2021 10:15:00 PM 0.55 32.99 0.05 6.95 18.68 13.81
2/2/2021 10:30:00 PM 0.55 32.99 0.05 6.97 18.37 13.81
2/2/2021 10:45:00 PM 0.55 32.99 0.05 6.98 17.99 13.81
2/2/2021 11:00:00 PM 0.54 32.972 0.048 6.95 17.69 13.81
2/2/2021 11:15:00 PM 0.54 32.972 0.05 6.98 18.31 13.81
2/2/2021 11:30:00 PM 0.52 32.936 0.05 6.98 18.4 13.82
2/2/2021 11:45:00 PM 0.53 32.954 0.05 6.98 18.69 13.81
2/3/2021 12:00:00 AM 0.52 32.936 0.05 6.97 18.67 13.81
2/3/2021 12:15:00 AM 0.51 32.918 0.048 6.96 18.57 13.82
2/3/2021 12:30:00 AM 0.5 32.9 0.049 6.95 18.04 13.82
2/3/2021 12:45:00 AM 0.49 32.882 0.05 6.98 18.62 13.83
2/3/2021 1:00:00 AM 0.49 32.882 0.05 6.97 18.52 13.82
2/3/2021 1:15:00 AM 0.5 32.9 0.048 6.96 18.61 13.82
2/3/2021 1:30:00 AM 0.51 32.918 0.05 6.98 18.7 13.82
2/3/2021 1:45:00 AM 0.54 32.972 0.05 6.98 18.63 13.81
2/3/2021 2:00:00 AM 0.56 33.008 0.05 6.98 18.65 13.79
2/3/2021 2:15:00 AM 0.57 33.026 0.05 6.98 18.69 13.79
2/3/2021 2:30:00 AM 0.58 33.044 0.05 6.99 18.4 13.8
2/3/2021 2:45:00 AM 0.59 33.062 0.05 6.98 18.5 13.79
2/3/2021 3:00:00 AM 0.58 33.044 0.05 6.98 19.26 13.79
2/3/2021 3:15:00 AM 0.6 33.08 0.048 6.95 18.46 13.79
2/3/2021 3:30:00 AM 0.6 33.08 0.05 6.98 18.76 13.79
2/3/2021 3:45:00 AM 0.6 33.08 0.05 6.99 18.92 13.79
2/3/2021 4:00:00 AM 0.62 33.116 0.05 6.98 18.7 13.78
2/3/2021 4:15:00 AM 0.62 33.116 0.048 6.94 17.55 13.77
2/3/2021 4:30:00 AM 0.6 33.08 0.05 6.98 18.57 13.78
2/3/2021 4:45:00 AM 0.59 33.062 0.05 6.97 18.43 13.78
2/3/2021 5:00:00 AM 0.58 33.044 0.05 6.98 18.38 13.79
2/3/2021 5:15:00 AM 0.58 33.044 0.05 6.94 18.35 13.78
2/3/2021 5:30:00 AM 0.59 33.062 0.05 6.98 18.49 13.78
2/3/2021 5:45:00 AM 0.59 33.062 0.048 6.95 17.51 13.78
2/3/2021 6:00:00 AM 0.6 33.08 0.051 6.97 18.37 13.78
2/3/2021 6:15:00 AM 0.6 33.08 0.051 6.97 18.19 13.78
2/3/2021 6:30:00 AM 0.61 33.098 0.051 6.98 18.05 13.78
2/3/2021 6:45:00 AM 0.62 33.116 0.051 6.98 18.19 13.79
2/3/2021 7:00:00 AM 0.62 33.116 0.051 6.97 18.3 13.79
2/3/2021 7:15:00 AM 0.62 33.116 0.05 6.98 18.09 13.79
2/3/2021 7:30:00 AM 0.61 33.098 0.05 6.99 18.19 13.82
2/3/2021 7:45:00 AM 0.62 33.116 0.05 6.99 18.07 13.85
2/3/2021 8:00:00 AM 0.62 33.116 0.05 7 17.97 13.89
2/3/2021 8:15:00 AM 0.64 33.152 0.048 6.97 17.51 13.93
2/3/2021 8:30:00 AM 0.66 33.188 0.05 7.02 18.03 14.02
2/3/2021 8:45:00 AM 0.69 33.242 0.05 7.03 18.34 14.07
2/3/2021 9:00:00 AM 0.72 33.296 0.05 7.06 18.3 14.12
2/3/2021 9:15:00 AM 0.79 33.422 0.048 7.03 18.69 14.14
2/3/2021 9:30:00 AM 0.85 33.53 0.049 7.03 18.62 14.15
2/3/2021 9:45:00 AM 0.88 33.584 0.05 7.06 17.89 14.15
2/3/2021 10:00:00 AM 0.94 33.692 0.05 7.08 17.86 14.15
2/3/2021 10:15:00 AM 1 33.8 0.048 7.06 17.83 14.15
2/3/2021 10:30:00 AM 1.05 33.89 0.05 7.1 18.46 14.15
2/3/2021 10:45:00 AM 1.1 33.98 0.05 7.1 17.87 14.14
2/3/2021 11:00:00 AM 1.12 34.016 0.048 7.06 17.75 14.14
2/3/2021 11:15:00 AM 1.16 34.088 0.05 7.1 18.29 14.13
2/3/2021 11:30:00 AM 1.21 34.178 0.049 7.07 18.04 14.13
2/3/2021 11:45:00 AM 1.24 34.232 0.05 7.11 18.19 14.13
2/3/2021 12:00:00 PM 1.24 34.232 0.048 7.07 18.47 14.11
2/3/2021 12:15:00 PM 1.2 34.16 0.05 7.11 18.13 14.12
2/3/2021 12:30:00 PM 1.21 34.178 0.05 7.1 18.18 14.13
2/3/2021 12:45:00 PM 1.21 34.178 0.05 7.11 18.14 14.13
2/3/2021 1:00:00 PM 1.21 34.178 0.05 7.1 18.05 14.13
2/3/2021 1:15:00 PM 1.21 34.178 0.05 7.08 17.98 14.14
2/3/2021 1:30:00 PM 1.19 34.142 0.05 7.11 18.23 14.13
2/3/2021 1:45:00 PM 1.18 34.124 0.05 7.09 17.99 14.14
2/3/2021 2:00:00 PM 1.16 34.088 0.047 7.08 18.43 14.15
2/3/2021 2:15:00 PM 1.16 34.088 0.049 7.11 18.46 14.16
2/3/2021 2:30:00 PM 1.14 34.052 0.05 7.1 18.37 14.14
2/3/2021 2:45:00 PM 1.05 33.89 0.049 7.1 18.1 14.14
2/3/2021 3:00:00 PM 1.01 33.818 0.049 7.1 18.58 14.15
2/3/2021 3:15:00 PM 0.96 33.728 0.049 7.09 18.17 14.16
2/3/2021 3:30:00 PM 0.93 33.674 0.049 7.09 18.69 14.15
2/3/2021 3:45:00 PM 0.9 33.62 0.049 7.09 18.25 14.16
2/3/2021 4:00:00 PM 0.88 33.584 0.049 7.09 18.28 14.17
2/3/2021 4:15:00 PM 0.85 33.53 0.05 7.07 18.61 14.16
2/3/2021 4:30:00 PM 0.83 33.494 0.05 7.07 18.53 14.16
2/3/2021 4:45:00 PM 0.82 33.476 0.05 7.07 18.31 14.13
2/3/2021 5:00:00 PM 0.79 33.422 0.05 7.05 18.58 14.08
2/3/2021 5:15:00 PM 0.78 33.404 0.05 7.04 18.17 14.02
2/3/2021 5:30:00 PM 0.75 33.35 0.05 7.02 18.36 13.97
2/3/2021 5:45:00 PM 0.74 33.332 0.05 7.01 18.3 13.94
2/3/2021 6:00:00 PM 0.72 33.296 0.05 7 18.79 13.91
2/3/2021 6:15:00 PM 0.71 33.278 0.05 6.99 18.34 13.9
2/3/2021 6:30:00 PM 0.7 33.26 0.05 6.99 18.89 13.88
2/3/2021 6:45:00 PM 0.7 33.26 0.047 6.94 17.57 13.87
2/3/2021 7:00:00 PM 0.69 33.242 0.05 6.98 18.74 13.87
2/3/2021 7:15:00 PM 0.7 33.26 0.05 6.98 17.92 13.86
2/3/2021 7:30:00 PM 0.72 33.296 0.05 6.97 18.68 13.86
2/3/2021 7:45:00 PM 0.72 33.296 0.05 6.98 18.55 13.85
2/3/2021 8:00:00 PM 0.71 33.278 0.05 6.98 18.48 13.85
2/3/2021 8:15:00 PM 0.72 33.296 0.05 6.97 17.99 13.84
2/3/2021 8:30:00 PM 0.74 33.332 0.05 6.99 18.11 13.84
2/3/2021 8:45:00 PM 0.74 33.332 0.05 6.98 18.47 13.83
2/3/2021 9:00:00 PM 0.73 33.314 0.05 6.98 18.65 13.83
2/3/2021 9:15:00 PM 0.72 33.296 0.05 6.94 18.71 13.84
2/3/2021 9:30:00 PM 0.72 33.296 0.05 6.98 18.57 13.83
2/3/2021 9:45:00 PM 0.7 33.26 0.05 6.98 19.14 13.85
2/3/2021 10:00:00 PM 0.67 33.206 0.05 6.98 18.25 13.86
2/3/2021 10:15:00 PM 0.64 33.152 0.048 6.94 18.43 13.85
2/3/2021 10:30:00 PM 0.62 33.116 0.05 6.98 18.31 13.87
2/3/2021 10:45:00 PM 0.59 33.062 0.05 6.97 18.52 13.87
2/3/2021 11:00:00 PM 0.56 33.008 0.048 6.95 17.75 13.89
2/3/2021 11:15:00 PM 0.54 32.972 0.05 6.98 18.41 13.89
2/3/2021 11:30:00 PM 0.54 32.972 0.048 6.94 18.27 13.89
2/3/2021 11:45:00 PM 0.53 32.954 0.05 6.97 18.33 13.91
2/4/2021 12:00:00 AM 0.53 32.954 0.048 6.94 18.26 13.91
2/4/2021 12:15:00 AM 0.52 32.936 0.048 6.94 19.1 13.9
2/4/2021 12:30:00 AM 0.52 32.936 0.05 6.98 18.19 13.91
2/4/2021 12:45:00 AM 0.54 32.972 0.048 6.95 18.59 13.9
2/4/2021 1:00:00 AM 0.54 32.972 0.05 6.98 18.29 13.91
2/4/2021 1:15:00 AM 0.53 32.954 0.048 6.94 18.92 13.9
2/4/2021 1:30:00 AM 0.52 32.936 0.049 6.94 18.4 13.9
2/4/2021 1:45:00 AM 0.51 32.918 0.05 6.97 18.97 13.91
2/4/2021 2:00:00 AM 0.53 32.954 0.05 6.98 18.41 13.9
2/4/2021 2:15:00 AM 0.54 32.972 0.05 6.98 18.45 13.91
2/4/2021 2:30:00 AM 0.56 33.008 0.05 6.98 18.69 13.92
2/4/2021 2:45:00 AM 0.58 33.044 0.05 6.98 18.42 13.9
2/4/2021 3:00:00 AM 0.6 33.08 0.05 6.97 18.85 13.9
2/4/2021 3:15:00 AM 0.61 33.098 0.05 6.97 18.78 13.89
2/4/2021 3:30:00 AM 0.63 33.134 0.05 6.97 18.63 13.88
2/4/2021 3:45:00 AM 0.64 33.152 0.05 6.97 18.63 13.89
2/4/2021 4:00:00 AM 0.63 33.134 0.05 6.98 18.52 13.89
2/4/2021 4:15:00 AM 0.61 33.098 0.05 6.97 18.33 13.9
2/4/2021 4:30:00 AM 0.58 33.044 0.05 6.97 18.37 13.9
2/4/2021 4:45:00 AM 0.56 33.008 0.048 6.94 17.64 13.89
2/4/2021 5:00:00 AM 0.54 32.972 0.051 6.97 18.39 13.9
2/4/2021 5:15:00 AM 0.51 32.918 0.048 6.96 17.75 13.92
2/4/2021 5:30:00 AM 0.51 32.918 0.051 6.98 18.51 13.94
2/4/2021 5:45:00 AM 0.52 32.936 0.048 6.95 17.72 13.94
2/4/2021 6:00:00 AM 0.53 32.954 0.05 6.93 18.1 13.93
2/4/2021 6:15:00 AM 0.55 32.99 0.051 6.98 17.86 13.92
2/4/2021 6:30:00 AM 0.57 33.026 0.051 6.97 18.33 13.92
2/4/2021 6:45:00 AM 0.58 33.044 0.051 6.98 18.4 13.92
2/4/2021 7:00:00 AM 0.61 33.098 0.048 6.94 19.1 13.92
2/4/2021 7:15:00 AM 0.61 33.098 0.051 6.98 18.33 13.92
2/4/2021 7:30:00 AM 0.63 33.134 0.051 6.99 18.08 13.94
2/4/2021 7:45:00 AM 0.64 33.152 0.051 7 18.4 13.97
2/4/2021 8:00:00 AM 0.66 33.188 0.048 6.97 18.06 14.02
2/4/2021 8:15:00 AM 0.67 33.206 0.051 7.02 18.01 14.09
2/4/2021 8:30:00 AM 0.68 33.224 0.051 7.03 18 14.15
2/4/2021 8:45:00 AM 0.71 33.278 0.051 7.05 18.25 14.22
2/4/2021 9:00:00 AM 0.77 33.386 0.048 7.03 18.2 14.26
2/4/2021 9:15:00 AM 0.82 33.476 0.051 7.07 18.23 14.3
2/4/2021 9:30:00 AM 0.85 33.53 0.051 7.07 18 14.3
2/4/2021 9:45:00 AM 0.86 33.548 0.051 7.09 17.64 14.31
2/4/2021 10:00:00 AM 0.88 33.584 0.051 7.09 18.02 14.31
2/4/2021 10:15:00 AM 0.9 33.62 0.051 7.06 17.98 14.31
2/4/2021 10:30:00 AM 0.92 33.656 0.051 7.09 17.59 14.32
2/4/2021 10:45:00 AM 0.98 33.764 0.048 7.06 17.9 14.31
2/4/2021 11:00:00 AM 1.03 33.854 0.051 7.1 17.71 14.3
2/4/2021 11:15:00 AM 1.12 34.016 0.051 7.06 18.19 14.3
2/4/2021 11:30:00 AM 1.24 34.232 0.051 7.1 18 14.26
2/4/2021 11:45:00 AM 1.36 34.448 0.051 7.08 18.05 14.24
2/4/2021 12:00:00 PM 1.48 34.664 0.05 7.11 17.53 14.23
2/4/2021 12:15:00 PM 1.6 34.88 0.05 7.11 17.99 14.2
2/4/2021 12:30:00 PM 1.72 35.096 0.05 7.06 17.82 14.17
2/4/2021 12:45:00 PM 1.8 35.24 0.05 7.1 18.22 14.15
2/4/2021 1:00:00 PM 1.87 35.366 0.05 7.11 17.93 14.13
2/4/2021 1:15:00 PM 1.91 35.438 0.048 7.08 18.04 14.1
2/4/2021 1:30:00 PM 1.95 35.51 0.048 7.07 17.3 14.1
2/4/2021 1:45:00 PM 1.95 35.51 0.05 7.1 18.37 14.09
2/4/2021 2:00:00 PM 1.93 35.474 0.048 7.09 18.33 14.08
2/4/2021 2:15:00 PM 1.91 35.438 0.05 7.08 18.32 14.09
2/4/2021 2:30:00 PM 1.89 35.402 0.048 7.08 17.8 14.09
2/4/2021 2:45:00 PM 1.84 35.312 0.05 7.11 17.75 14.1
2/4/2021 3:00:00 PM 1.77 35.186 0.05 7.08 17.52 14.11
2/4/2021 3:15:00 PM 1.71 35.078 0.05 7.11 17.72 14.11
2/4/2021 3:30:00 PM 1.62 34.916 0.05 7.11 17.74 14.12
2/4/2021 3:45:00 PM 1.53 34.754 0.05 7.08 17.9 14.13
2/4/2021 4:00:00 PM 1.46 34.628 0.05 7.1 18.3 14.12
2/4/2021 4:15:00 PM 1.39 34.502 0.049 7.06 17.98 14.11
2/4/2021 4:30:00 PM 1.3 34.34 0.05 7.05 18.21 14.12
2/4/2021 4:45:00 PM 1.24 34.232 0.048 7.06 19.61 14.09
2/4/2021 5:00:00 PM 1.14 34.052 0.05 7.07 18.09 14.08
2/4/2021 5:15:00 PM 1.08 33.944 0.049 7.02 17.71 14.05
2/4/2021 5:30:00 PM 0.99 33.782 0.051 7.04 18.21 14.01
2/4/2021 5:45:00 PM 0.9 33.62 0.051 7.03 17.88 13.99
2/4/2021 6:00:00 PM 0.84 33.512 0.051 7 18.25 13.95
2/4/2021 6:15:00 PM 0.77 33.386 0.051 7 18.4 13.95
2/4/2021 6:30:00 PM 0.72 33.296 0.051 6.99 18.08 13.94
2/4/2021 6:45:00 PM 0.67 33.206 0.051 6.99 18.55 13.94
2/4/2021 7:00:00 PM 0.62 33.116 0.051 6.99 18.38 13.94
2/4/2021 7:15:00 PM 0.59 33.062 0.049 6.95 18.14 13.94
2/4/2021 7:30:00 PM 0.57 33.026 0.051 6.98 18.36 13.96
2/4/2021 7:45:00 PM 0.55 32.99 0.051 6.98 17.98 13.95
2/4/2021 8:00:00 PM 0.53 32.954 0.051 6.98 18.56 13.96
2/4/2021 8:15:00 PM 0.52 32.936 0.051 6.97 18.47 13.97
2/4/2021 8:30:00 PM 0.51 32.918 0.051 6.98 18.44 13.96
2/4/2021 8:45:00 PM 0.52 32.936 0.051 6.98 18.26 13.96
2/4/2021 9:00:00 PM 0.52 32.936 0.049 6.94 17.9 13.96
2/4/2021 9:15:00 PM 0.52 32.936 0.049 6.94 17.98 13.95
2/4/2021 9:30:00 PM 0.51 32.918 0.051 6.97 18.39 13.95
2/4/2021 9:45:00 PM 0.52 32.936 0.051 6.97 17.97 13.95
2/4/2021 10:00:00 PM 0.52 32.936 0.051 6.93 18.48 13.95
2/4/2021 10:15:00 PM 0.51 32.918 0.051 6.97 18.6 13.94
2/4/2021 10:30:00 PM 0.52 32.936 0.051 6.97 18.29 13.94
2/4/2021 10:45:00 PM 0.53 32.954 0.051 6.97 17.99 13.93
2/4/2021 11:00:00 PM 0.53 32.954 0.05 6.94 17.76 13.93
2/4/2021 11:15:00 PM 0.53 32.954 0.051 6.97 17.83 13.94
2/4/2021 11:30:00 PM 0.55 32.99 0.05 6.94 17.89 13.92
2/4/2021 11:45:00 PM 0.57 33.026 0.051 6.94 18.31 13.92
2/5/2021 12:00:00 AM 0.59 33.062 0.051 6.95 18.19 13.92
2/5/2021 12:15:00 AM 0.6 33.08 0.051 6.97 18.96 13.9
2/5/2021 12:30:00 AM 0.62 33.116 0.051 6.97 18.43 13.88
2/5/2021 12:45:00 AM 0.64 33.152 0.049 6.94 18.03 13.87
2/5/2021 1:00:00 AM 0.65 33.17 0.051 6.97 18.87 13.87
2/5/2021 1:15:00 AM 0.66 33.188 0.051 6.97 18 13.87
2/5/2021 1:30:00 AM 0.68 33.224 0.051 6.97 18.81 13.85
2/5/2021 1:45:00 AM 0.69 33.242 0.049 6.94 17.87 13.85
2/5/2021 2:00:00 AM 0.69 33.242 0.051 6.98 18.66 13.85
2/5/2021 2:15:00 AM 0.67 33.206 0.051 6.97 18.56 13.85
2/5/2021 2:30:00 AM 0.68 33.224 0.051 6.98 18.52 13.84
2/5/2021 2:45:00 AM 0.72 33.296 0.051 6.98 18.07 13.83
2/5/2021 3:00:00 AM 0.74 33.332 0.051 6.98 18.41 13.83
2/5/2021 3:15:00 AM 0.73 33.314 0.051 6.98 18.17 13.82
2/5/2021 3:30:00 AM 0.64 33.152 0.049 6.95 18.85 13.81
2/5/2021 3:45:00 AM 0.61 33.098 0.051 6.97 18.22 13.8
2/5/2021 4:00:00 AM 0.59 33.062 0.051 6.97 18.47 13.81
2/5/2021 4:15:00 AM 0.63 33.134 0.051 6.98 18.6 13.81
2/5/2021 4:30:00 AM 0.67 33.206 0.051 6.97 18.44 13.8
2/5/2021 4:45:00 AM 0.68 33.224 0.051 6.99 18.47 13.8
2/5/2021 5:00:00 AM 0.7 33.26 0.051 6.97 18.29 13.79
2/5/2021 5:15:00 AM 0.72 33.296 0.051 6.98 17.92 13.79
2/5/2021 5:30:00 AM 0.74 33.332 0.051 6.95 18.59 13.77
2/5/2021 5:45:00 AM 0.75 33.35 0.051 6.98 18.28 13.76
2/5/2021 6:00:00 AM 0.73 33.314 0.051 6.98 18.28 13.75
2/5/2021 6:15:00 AM 0.65 33.17 0.051 6.98 18.34 13.74
2/5/2021 6:30:00 AM 0.52 32.936 0.051 6.98 17.85 13.76
2/5/2021 6:45:00 AM 0.46 32.828 0.051 6.93 18.25 13.77
2/5/2021 7:00:00 AM 0.42 32.756 0.051 6.97 18.12 13.79
2/5/2021 7:15:00 AM 0.38 32.684 0.051 6.98 18.5 13.81
2/5/2021 7:30:00 AM 0.36 32.648 0.051 6.98 17.95 13.83
2/5/2021 7:45:00 AM 0.37 32.666 0.051 6.97 17.96 13.85
2/5/2021 8:00:00 AM 0.43 32.774 0.051 6.99 17.75 13.87
2/5/2021 8:15:00 AM 0.52 32.936 0.051 6.99 17.95 13.89
2/5/2021 8:30:00 AM 0.61 33.098 0.051 7.01 18.13 13.93
2/5/2021 8:45:00 AM 0.69 33.242 0.052 7.02 17.94 13.95
2/5/2021 9:00:00 AM 0.78 33.404 0.05 7 18.23 13.99
2/5/2021 9:15:00 AM 0.87 33.566 0.051 7.05 17.75 14.04
2/5/2021 9:30:00 AM 0.99 33.782